<?xml version="1.0" encoding="UTF-8" standalone="no" ?>
<gpx xmlns="http://www.topografix.com/GPX/1/1" xmlns:xsi="http://www.w3.org/2001/XMLSchema-instance" xsi:schemaLocation="http://www.topografix.com/GPX/1/1 http://www.topografix.com/GPX/1/1/gpx.xsd" version="1.1" creator="VisuGPX - https://www.visugpx.com">
  <metadata>
    <name>Descente du refuge de la Carança par &quot;le chemin escarpé&quot;</name>
    <desc><![CDATA[Descente depuis le refuge de la Carança par le chemin escarpé, à ne pas louper après l'avant-dernière passerelle! Nous avons croisé moins 3 personnes qui l'avaient raté. Ce chemin est un bon complément à la corniche et nous donne un autre point de vue aussi vertigineux. Attention à ne pas perdre vos bâtons.]]></desc>
  </metadata>
  <trk>
    <name><![CDATA[A017-05-21 18:29:37]]></name>
    <trkseg>
      <trkpt lat="42.46436" lon="2.2238">
        <ele>1821.35</ele>
        <time>2017-05-21T12:15:53Z</time>
      </trkpt>
      <trkpt lat="42.46436" lon="2.2238">
        <ele>1821.35</ele>
        <time>2017-05-21T12:15:54Z</time>
      </trkpt>
      <trkpt lat="42.46434" lon="2.22384">
        <ele>1821.84</ele>
        <time>2017-05-21T12:16:04Z</time>
      </trkpt>
      <trkpt lat="42.46437" lon="2.22392">
        <ele>1821.35</ele>
        <time>2017-05-21T12:16:12Z</time>
      </trkpt>
      <trkpt lat="42.46438" lon="2.22397">
        <ele>1821.35</ele>
        <time>2017-05-21T12:16:15Z</time>
      </trkpt>
      <trkpt lat="42.4644" lon="2.22404">
        <ele>1820.87</ele>
        <time>2017-05-21T12:16:20Z</time>
      </trkpt>
      <trkpt lat="42.46444" lon="2.22413">
        <ele>1820.39</ele>
        <time>2017-05-21T12:16:31Z</time>
      </trkpt>
      <trkpt lat="42.46447" lon="2.22421">
        <ele>1820.39</ele>
        <time>2017-05-21T12:16:41Z</time>
      </trkpt>
      <trkpt lat="42.46453" lon="2.22428">
        <ele>1819.91</ele>
        <time>2017-05-21T12:16:57Z</time>
      </trkpt>
      <trkpt lat="42.4646" lon="2.22439">
        <ele>1818.47</ele>
        <time>2017-05-21T12:17:07Z</time>
      </trkpt>
      <trkpt lat="42.46462" lon="2.2245">
        <ele>1817.51</ele>
        <time>2017-05-21T12:17:17Z</time>
      </trkpt>
      <trkpt lat="42.46463" lon="2.22452">
        <ele>1817.51</ele>
        <time>2017-05-21T12:17:18Z</time>
      </trkpt>
      <trkpt lat="42.46473" lon="2.22473">
        <ele>1816.07</ele>
        <time>2017-05-21T12:17:32Z</time>
      </trkpt>
      <trkpt lat="42.46474" lon="2.22478">
        <ele>1816.07</ele>
        <time>2017-05-21T12:17:35Z</time>
      </trkpt>
      <trkpt lat="42.46479" lon="2.22491">
        <ele>1815.59</ele>
        <time>2017-05-21T12:17:44Z</time>
      </trkpt>
      <trkpt lat="42.46482" lon="2.22502">
        <ele>1815.11</ele>
        <time>2017-05-21T12:17:50Z</time>
      </trkpt>
      <trkpt lat="42.46487" lon="2.2252">
        <ele>1814.15</ele>
        <time>2017-05-21T12:18:01Z</time>
      </trkpt>
      <trkpt lat="42.46491" lon="2.22527">
        <ele>1813.66</ele>
        <time>2017-05-21T12:18:06Z</time>
      </trkpt>
      <trkpt lat="42.46501" lon="2.22545">
        <ele>1813.18</ele>
        <time>2017-05-21T12:18:18Z</time>
      </trkpt>
      <trkpt lat="42.46506" lon="2.22557">
        <ele>1813.18</ele>
        <time>2017-05-21T12:18:26Z</time>
      </trkpt>
      <trkpt lat="42.46512" lon="2.22571">
        <ele>1811.74</ele>
        <time>2017-05-21T12:18:36Z</time>
      </trkpt>
      <trkpt lat="42.46515" lon="2.22584">
        <ele>1810.78</ele>
        <time>2017-05-21T12:18:47Z</time>
      </trkpt>
      <trkpt lat="42.46515" lon="2.22589">
        <ele>1810.78</ele>
        <time>2017-05-21T12:18:52Z</time>
      </trkpt>
      <trkpt lat="42.46519" lon="2.22597">
        <ele>1809.34</ele>
        <time>2017-05-21T12:19:03Z</time>
      </trkpt>
      <trkpt lat="42.46522" lon="2.22605">
        <ele>1807.9</ele>
        <time>2017-05-21T12:19:14Z</time>
      </trkpt>
      <trkpt lat="42.46525" lon="2.22609">
        <ele>1807.42</ele>
        <time>2017-05-21T12:19:22Z</time>
      </trkpt>
      <trkpt lat="42.46528" lon="2.2261">
        <ele>1807.42</ele>
        <time>2017-05-21T12:19:25Z</time>
      </trkpt>
      <trkpt lat="42.46534" lon="2.22619">
        <ele>1809.82</ele>
        <time>2017-05-21T12:19:36Z</time>
      </trkpt>
      <trkpt lat="42.46536" lon="2.22624">
        <ele>1809.82</ele>
        <time>2017-05-21T12:19:40Z</time>
      </trkpt>
      <trkpt lat="42.46537" lon="2.22634">
        <ele>1809.82</ele>
        <time>2017-05-21T12:19:50Z</time>
      </trkpt>
      <trkpt lat="42.46536" lon="2.22641">
        <ele>1806.45</ele>
        <time>2017-05-21T12:19:59Z</time>
      </trkpt>
      <trkpt lat="42.46538" lon="2.22651">
        <ele>1803.09</ele>
        <time>2017-05-21T12:20:11Z</time>
      </trkpt>
      <trkpt lat="42.46539" lon="2.22652">
        <ele>1803.09</ele>
        <time>2017-05-21T12:20:13Z</time>
      </trkpt>
      <trkpt lat="42.46544" lon="2.22658">
        <ele>1802.61</ele>
        <time>2017-05-21T12:20:19Z</time>
      </trkpt>
      <trkpt lat="42.46549" lon="2.22662">
        <ele>1802.61</ele>
        <time>2017-05-21T12:20:24Z</time>
      </trkpt>
      <trkpt lat="42.46561" lon="2.22668">
        <ele>1801.17</ele>
        <time>2017-05-21T12:20:35Z</time>
      </trkpt>
      <trkpt lat="42.46571" lon="2.22673">
        <ele>1801.17</ele>
        <time>2017-05-21T12:20:46Z</time>
      </trkpt>
      <trkpt lat="42.4658" lon="2.2268">
        <ele>1801.17</ele>
        <time>2017-05-21T12:20:56Z</time>
      </trkpt>
      <trkpt lat="42.46586" lon="2.22686">
        <ele>1802.61</ele>
        <time>2017-05-21T12:21:07Z</time>
      </trkpt>
      <trkpt lat="42.4659" lon="2.22696">
        <ele>1802.61</ele>
        <time>2017-05-21T12:21:19Z</time>
      </trkpt>
      <trkpt lat="42.46591" lon="2.22699">
        <ele>1801.65</ele>
        <time>2017-05-21T12:21:22Z</time>
      </trkpt>
      <trkpt lat="42.46596" lon="2.22711">
        <ele>1801.65</ele>
        <time>2017-05-21T12:21:34Z</time>
      </trkpt>
      <trkpt lat="42.46595" lon="2.22719">
        <ele>1801.17</ele>
        <time>2017-05-21T12:21:44Z</time>
      </trkpt>
      <trkpt lat="42.46595" lon="2.2273">
        <ele>1798.76</ele>
        <time>2017-05-21T12:21:55Z</time>
      </trkpt>
      <trkpt lat="42.46599" lon="2.22744">
        <ele>1797.8</ele>
        <time>2017-05-21T12:22:06Z</time>
      </trkpt>
      <trkpt lat="42.46608" lon="2.22753">
        <ele>1796.84</ele>
        <time>2017-05-21T12:22:18Z</time>
      </trkpt>
      <trkpt lat="42.46615" lon="2.22769">
        <ele>1795.88</ele>
        <time>2017-05-21T12:22:30Z</time>
      </trkpt>
      <trkpt lat="42.46623" lon="2.22779">
        <ele>1795.4</ele>
        <time>2017-05-21T12:22:41Z</time>
      </trkpt>
      <trkpt lat="42.46625" lon="2.22789">
        <ele>1793.48</ele>
        <time>2017-05-21T12:22:51Z</time>
      </trkpt>
      <trkpt lat="42.46626" lon="2.22792">
        <ele>1792.52</ele>
        <time>2017-05-21T12:22:55Z</time>
      </trkpt>
      <trkpt lat="42.46628" lon="2.22795">
        <ele>1791.55</ele>
        <time>2017-05-21T12:22:58Z</time>
      </trkpt>
      <trkpt lat="42.46631" lon="2.228">
        <ele>1791.55</ele>
        <time>2017-05-21T12:23:07Z</time>
      </trkpt>
      <trkpt lat="42.46635" lon="2.22808">
        <ele>1790.11</ele>
        <time>2017-05-21T12:23:18Z</time>
      </trkpt>
      <trkpt lat="42.46637" lon="2.22817">
        <ele>1788.67</ele>
        <time>2017-05-21T12:23:28Z</time>
      </trkpt>
      <trkpt lat="42.46639" lon="2.22826">
        <ele>1787.23</ele>
        <time>2017-05-21T12:23:38Z</time>
      </trkpt>
      <trkpt lat="42.46642" lon="2.22831">
        <ele>1785.79</ele>
        <time>2017-05-21T12:23:46Z</time>
      </trkpt>
      <trkpt lat="42.46648" lon="2.22836">
        <ele>1784.34</ele>
        <time>2017-05-21T12:23:55Z</time>
      </trkpt>
      <trkpt lat="42.46653" lon="2.22842">
        <ele>1784.34</ele>
        <time>2017-05-21T12:24:02Z</time>
      </trkpt>
      <trkpt lat="42.4666" lon="2.2286">
        <ele>1782.42</ele>
        <time>2017-05-21T12:24:14Z</time>
      </trkpt>
      <trkpt lat="42.4666" lon="2.22868">
        <ele>1781.46</ele>
        <time>2017-05-21T12:24:21Z</time>
      </trkpt>
      <trkpt lat="42.46663" lon="2.22878">
        <ele>1780.98</ele>
        <time>2017-05-21T12:24:32Z</time>
      </trkpt>
      <trkpt lat="42.46665" lon="2.2289">
        <ele>1780.98</ele>
        <time>2017-05-21T12:24:42Z</time>
      </trkpt>
      <trkpt lat="42.46666" lon="2.22894">
        <ele>1780.02</ele>
        <time>2017-05-21T12:24:52Z</time>
      </trkpt>
      <trkpt lat="42.46671" lon="2.229">
        <ele>1778.1</ele>
        <time>2017-05-21T12:25:02Z</time>
      </trkpt>
      <trkpt lat="42.46674" lon="2.22908">
        <ele>1777.13</ele>
        <time>2017-05-21T12:25:12Z</time>
      </trkpt>
      <trkpt lat="42.46679" lon="2.22915">
        <ele>1776.17</ele>
        <time>2017-05-21T12:25:21Z</time>
      </trkpt>
      <trkpt lat="42.46681" lon="2.22923">
        <ele>1774.25</ele>
        <time>2017-05-21T12:25:35Z</time>
      </trkpt>
      <trkpt lat="42.46682" lon="2.22932">
        <ele>1772.81</ele>
        <time>2017-05-21T12:25:45Z</time>
      </trkpt>
      <trkpt lat="42.46682" lon="2.22934">
        <ele>1772.33</ele>
        <time>2017-05-21T12:25:47Z</time>
      </trkpt>
      <trkpt lat="42.46686" lon="2.22943">
        <ele>1772.33</ele>
        <time>2017-05-21T12:25:57Z</time>
      </trkpt>
      <trkpt lat="42.46687" lon="2.22952">
        <ele>1770.89</ele>
        <time>2017-05-21T12:26:06Z</time>
      </trkpt>
      <trkpt lat="42.4669" lon="2.22961">
        <ele>1770.41</ele>
        <time>2017-05-21T12:26:17Z</time>
      </trkpt>
      <trkpt lat="42.46692" lon="2.22967">
        <ele>1769.44</ele>
        <time>2017-05-21T12:26:23Z</time>
      </trkpt>
      <trkpt lat="42.46696" lon="2.22982">
        <ele>1768.96</ele>
        <time>2017-05-21T12:26:35Z</time>
      </trkpt>
      <trkpt lat="42.46702" lon="2.22989">
        <ele>1768</ele>
        <time>2017-05-21T12:26:45Z</time>
      </trkpt>
      <trkpt lat="42.4671" lon="2.22994">
        <ele>1767.52</ele>
        <time>2017-05-21T12:26:57Z</time>
      </trkpt>
      <trkpt lat="42.46713" lon="2.22999">
        <ele>1767.04</ele>
        <time>2017-05-21T12:27:09Z</time>
      </trkpt>
      <trkpt lat="42.46716" lon="2.23005">
        <ele>1766.56</ele>
        <time>2017-05-21T12:27:22Z</time>
      </trkpt>
      <trkpt lat="42.4672" lon="2.23007">
        <ele>1765.6</ele>
        <time>2017-05-21T12:27:32Z</time>
      </trkpt>
      <trkpt lat="42.46723" lon="2.23012">
        <ele>1764.64</ele>
        <time>2017-05-21T12:27:42Z</time>
      </trkpt>
      <trkpt lat="42.46725" lon="2.23017">
        <ele>1762.71</ele>
        <time>2017-05-21T12:27:52Z</time>
      </trkpt>
      <trkpt lat="42.46728" lon="2.23023">
        <ele>1760.79</ele>
        <time>2017-05-21T12:28:02Z</time>
      </trkpt>
      <trkpt lat="42.46732" lon="2.23032">
        <ele>1759.83</ele>
        <time>2017-05-21T12:28:11Z</time>
      </trkpt>
      <trkpt lat="42.46736" lon="2.23041">
        <ele>1758.39</ele>
        <time>2017-05-21T12:28:21Z</time>
      </trkpt>
      <trkpt lat="42.46743" lon="2.23046">
        <ele>1757.91</ele>
        <time>2017-05-21T12:28:33Z</time>
      </trkpt>
      <trkpt lat="42.46745" lon="2.23053">
        <ele>1756.95</ele>
        <time>2017-05-21T12:28:43Z</time>
      </trkpt>
      <trkpt lat="42.46747" lon="2.23058">
        <ele>1755.99</ele>
        <time>2017-05-21T12:28:52Z</time>
      </trkpt>
      <trkpt lat="42.4675" lon="2.23064">
        <ele>1754.06</ele>
        <time>2017-05-21T12:29:04Z</time>
      </trkpt>
      <trkpt lat="42.46751" lon="2.23064">
        <ele>1755.5</ele>
        <time>2017-05-21T12:29:10Z</time>
      </trkpt>
      <trkpt lat="42.46751" lon="2.23068">
        <ele>1755.5</ele>
        <time>2017-05-21T12:29:28Z</time>
      </trkpt>
      <trkpt lat="42.46753" lon="2.23077">
        <ele>1752.62</ele>
        <time>2017-05-21T12:29:38Z</time>
      </trkpt>
      <trkpt lat="42.46754" lon="2.23087">
        <ele>1751.18</ele>
        <time>2017-05-21T12:29:50Z</time>
      </trkpt>
      <trkpt lat="42.46753" lon="2.23093">
        <ele>1749.74</ele>
        <time>2017-05-21T12:29:58Z</time>
      </trkpt>
      <trkpt lat="42.46757" lon="2.23106">
        <ele>1748.29</ele>
        <time>2017-05-21T12:30:13Z</time>
      </trkpt>
      <trkpt lat="42.4676" lon="2.23115">
        <ele>1747.33</ele>
        <time>2017-05-21T12:30:22Z</time>
      </trkpt>
      <trkpt lat="42.46764" lon="2.2312">
        <ele>1747.33</ele>
        <time>2017-05-21T12:30:33Z</time>
      </trkpt>
      <trkpt lat="42.46774" lon="2.23129">
        <ele>1747.33</ele>
        <time>2017-05-21T12:30:45Z</time>
      </trkpt>
      <trkpt lat="42.46778" lon="2.2314">
        <ele>1746.85</ele>
        <time>2017-05-21T12:30:55Z</time>
      </trkpt>
      <trkpt lat="42.46787" lon="2.2315">
        <ele>1744.45</ele>
        <time>2017-05-21T12:31:06Z</time>
      </trkpt>
      <trkpt lat="42.46789" lon="2.23162">
        <ele>1744.45</ele>
        <time>2017-05-21T12:31:15Z</time>
      </trkpt>
      <trkpt lat="42.46791" lon="2.23169">
        <ele>1743.49</ele>
        <time>2017-05-21T12:31:20Z</time>
      </trkpt>
      <trkpt lat="42.46797" lon="2.23184">
        <ele>1742.53</ele>
        <time>2017-05-21T12:31:31Z</time>
      </trkpt>
      <trkpt lat="42.468" lon="2.23194">
        <ele>1741.08</ele>
        <time>2017-05-21T12:31:39Z</time>
      </trkpt>
      <trkpt lat="42.46802" lon="2.23207">
        <ele>1739.64</ele>
        <time>2017-05-21T12:31:50Z</time>
      </trkpt>
      <trkpt lat="42.46807" lon="2.23216">
        <ele>1739.16</ele>
        <time>2017-05-21T12:31:59Z</time>
      </trkpt>
      <trkpt lat="42.46812" lon="2.23227">
        <ele>1739.16</ele>
        <time>2017-05-21T12:32:11Z</time>
      </trkpt>
      <trkpt lat="42.46814" lon="2.23229">
        <ele>1740.6</ele>
        <time>2017-05-21T12:32:16Z</time>
      </trkpt>
      <trkpt lat="42.46818" lon="2.23239">
        <ele>1742.05</ele>
        <time>2017-05-21T12:32:27Z</time>
      </trkpt>
      <trkpt lat="42.46821" lon="2.23251">
        <ele>1743.49</ele>
        <time>2017-05-21T12:32:39Z</time>
      </trkpt>
      <trkpt lat="42.46825" lon="2.23258">
        <ele>1744.45</ele>
        <time>2017-05-21T12:32:48Z</time>
      </trkpt>
      <trkpt lat="42.46827" lon="2.23259">
        <ele>1744.93</ele>
        <time>2017-05-21T12:32:50Z</time>
      </trkpt>
      <trkpt lat="42.46835" lon="2.23271">
        <ele>1744.45</ele>
        <time>2017-05-21T12:33:02Z</time>
      </trkpt>
      <trkpt lat="42.46838" lon="2.23277">
        <ele>1743.01</ele>
        <time>2017-05-21T12:33:08Z</time>
      </trkpt>
      <trkpt lat="42.46837" lon="2.23284">
        <ele>1742.05</ele>
        <time>2017-05-21T12:33:13Z</time>
      </trkpt>
      <trkpt lat="42.4684" lon="2.23287">
        <ele>1742.05</ele>
        <time>2017-05-21T12:33:17Z</time>
      </trkpt>
      <trkpt lat="42.4685" lon="2.23293">
        <ele>1743.49</ele>
        <time>2017-05-21T12:33:28Z</time>
      </trkpt>
      <trkpt lat="42.46851" lon="2.23293">
        <ele>1743.01</ele>
        <time>2017-05-21T12:33:29Z</time>
      </trkpt>
      <trkpt lat="42.46859" lon="2.23301">
        <ele>1744.93</ele>
        <time>2017-05-21T12:33:40Z</time>
      </trkpt>
      <trkpt lat="42.46865" lon="2.23309">
        <ele>1746.85</ele>
        <time>2017-05-21T12:33:51Z</time>
      </trkpt>
      <trkpt lat="42.46864" lon="2.23313">
        <ele>1747.33</ele>
        <time>2017-05-21T12:33:54Z</time>
      </trkpt>
      <trkpt lat="42.46863" lon="2.23316">
        <ele>1747.33</ele>
        <time>2017-05-21T12:33:56Z</time>
      </trkpt>
      <trkpt lat="42.46865" lon="2.23327">
        <ele>1747.33</ele>
        <time>2017-05-21T12:34:07Z</time>
      </trkpt>
      <trkpt lat="42.46868" lon="2.23336">
        <ele>1745.89</ele>
        <time>2017-05-21T12:34:16Z</time>
      </trkpt>
      <trkpt lat="42.46869" lon="2.23346">
        <ele>1744.45</ele>
        <time>2017-05-21T12:34:28Z</time>
      </trkpt>
      <trkpt lat="42.46867" lon="2.23359">
        <ele>1743.97</ele>
        <time>2017-05-21T12:34:40Z</time>
      </trkpt>
      <trkpt lat="42.46868" lon="2.23372">
        <ele>1743.97</ele>
        <time>2017-05-21T12:34:51Z</time>
      </trkpt>
      <trkpt lat="42.46869" lon="2.23378">
        <ele>1743.97</ele>
        <time>2017-05-21T12:34:56Z</time>
      </trkpt>
      <trkpt lat="42.46873" lon="2.2339">
        <ele>1743.49</ele>
        <time>2017-05-21T12:35:07Z</time>
      </trkpt>
      <trkpt lat="42.46878" lon="2.23402">
        <ele>1743.49</ele>
        <time>2017-05-21T12:35:18Z</time>
      </trkpt>
      <trkpt lat="42.46884" lon="2.23411">
        <ele>1742.53</ele>
        <time>2017-05-21T12:35:29Z</time>
      </trkpt>
      <trkpt lat="42.46892" lon="2.23419">
        <ele>1742.05</ele>
        <time>2017-05-21T12:35:40Z</time>
      </trkpt>
      <trkpt lat="42.46899" lon="2.23423">
        <ele>1742.05</ele>
        <time>2017-05-21T12:35:49Z</time>
      </trkpt>
      <trkpt lat="42.46905" lon="2.23427">
        <ele>1740.6</ele>
        <time>2017-05-21T12:35:58Z</time>
      </trkpt>
      <trkpt lat="42.46912" lon="2.23431">
        <ele>1740.12</ele>
        <time>2017-05-21T12:36:07Z</time>
      </trkpt>
      <trkpt lat="42.46913" lon="2.23431">
        <ele>1739.64</ele>
        <time>2017-05-21T12:36:08Z</time>
      </trkpt>
      <trkpt lat="42.46923" lon="2.23437">
        <ele>1739.16</ele>
        <time>2017-05-21T12:36:18Z</time>
      </trkpt>
      <trkpt lat="42.46931" lon="2.23444">
        <ele>1738.68</ele>
        <time>2017-05-21T12:36:28Z</time>
      </trkpt>
      <trkpt lat="42.46941" lon="2.23452">
        <ele>1738.68</ele>
        <time>2017-05-21T12:36:38Z</time>
      </trkpt>
      <trkpt lat="42.46941" lon="2.23454">
        <ele>1738.2</ele>
        <time>2017-05-21T12:36:39Z</time>
      </trkpt>
      <trkpt lat="42.46945" lon="2.23462">
        <ele>1736.76</ele>
        <time>2017-05-21T12:36:48Z</time>
      </trkpt>
      <trkpt lat="42.46951" lon="2.23467">
        <ele>1735.8</ele>
        <time>2017-05-21T12:36:56Z</time>
      </trkpt>
      <trkpt lat="42.46951" lon="2.2347">
        <ele>1735.32</ele>
        <time>2017-05-21T12:36:59Z</time>
      </trkpt>
      <trkpt lat="42.46958" lon="2.2348">
        <ele>1733.39</ele>
        <time>2017-05-21T12:37:10Z</time>
      </trkpt>
      <trkpt lat="42.46961" lon="2.23488">
        <ele>1731.47</ele>
        <time>2017-05-21T12:37:20Z</time>
      </trkpt>
      <trkpt lat="42.46966" lon="2.23495">
        <ele>1730.51</ele>
        <time>2017-05-21T12:37:31Z</time>
      </trkpt>
      <trkpt lat="42.46971" lon="2.23499">
        <ele>1728.11</ele>
        <time>2017-05-21T12:37:40Z</time>
      </trkpt>
      <trkpt lat="42.4698" lon="2.23511">
        <ele>1726.18</ele>
        <time>2017-05-21T12:37:51Z</time>
      </trkpt>
      <trkpt lat="42.4699" lon="2.23522">
        <ele>1724.74</ele>
        <time>2017-05-21T12:38:01Z</time>
      </trkpt>
      <trkpt lat="42.46996" lon="2.23528">
        <ele>1723.78</ele>
        <time>2017-05-21T12:38:06Z</time>
      </trkpt>
      <trkpt lat="42.47005" lon="2.23538">
        <ele>1722.34</ele>
        <time>2017-05-21T12:38:15Z</time>
      </trkpt>
      <trkpt lat="42.47011" lon="2.23541">
        <ele>1721.38</ele>
        <time>2017-05-21T12:38:21Z</time>
      </trkpt>
      <trkpt lat="42.47018" lon="2.23549">
        <ele>1720.42</ele>
        <time>2017-05-21T12:38:29Z</time>
      </trkpt>
      <trkpt lat="42.47024" lon="2.23557">
        <ele>1718.97</ele>
        <time>2017-05-21T12:38:40Z</time>
      </trkpt>
      <trkpt lat="42.47029" lon="2.23562">
        <ele>1718.49</ele>
        <time>2017-05-21T12:38:50Z</time>
      </trkpt>
      <trkpt lat="42.47034" lon="2.23567">
        <ele>1718.01</ele>
        <time>2017-05-21T12:38:59Z</time>
      </trkpt>
      <trkpt lat="42.47037" lon="2.23572">
        <ele>1717.05</ele>
        <time>2017-05-21T12:39:09Z</time>
      </trkpt>
      <trkpt lat="42.47041" lon="2.23582">
        <ele>1716.09</ele>
        <time>2017-05-21T12:39:19Z</time>
      </trkpt>
      <trkpt lat="42.47043" lon="2.23589">
        <ele>1715.61</ele>
        <time>2017-05-21T12:39:28Z</time>
      </trkpt>
      <trkpt lat="42.47047" lon="2.23589">
        <ele>1715.61</ele>
        <time>2017-05-21T12:39:38Z</time>
      </trkpt>
      <trkpt lat="42.47049" lon="2.23591">
        <ele>1715.13</ele>
        <time>2017-05-21T12:39:48Z</time>
      </trkpt>
      <trkpt lat="42.4705" lon="2.2359">
        <ele>1715.13</ele>
        <time>2017-05-21T12:40:10Z</time>
      </trkpt>
      <trkpt lat="42.47052" lon="2.23598">
        <ele>1715.13</ele>
        <time>2017-05-21T12:40:25Z</time>
      </trkpt>
      <trkpt lat="42.47054" lon="2.23605">
        <ele>1715.13</ele>
        <time>2017-05-21T12:40:34Z</time>
      </trkpt>
      <trkpt lat="42.47054" lon="2.23614">
        <ele>1713.69</ele>
        <time>2017-05-21T12:40:44Z</time>
      </trkpt>
      <trkpt lat="42.4706" lon="2.23617">
        <ele>1712.73</ele>
        <time>2017-05-21T12:40:54Z</time>
      </trkpt>
      <trkpt lat="42.47065" lon="2.23622">
        <ele>1712.73</ele>
        <time>2017-05-21T12:41:02Z</time>
      </trkpt>
      <trkpt lat="42.47075" lon="2.23629">
        <ele>1711.76</ele>
        <time>2017-05-21T12:41:13Z</time>
      </trkpt>
      <trkpt lat="42.47079" lon="2.23632">
        <ele>1711.28</ele>
        <time>2017-05-21T12:41:24Z</time>
      </trkpt>
      <trkpt lat="42.47084" lon="2.23635">
        <ele>1710.8</ele>
        <time>2017-05-21T12:41:36Z</time>
      </trkpt>
      <trkpt lat="42.47087" lon="2.23636">
        <ele>1710.32</ele>
        <time>2017-05-21T12:41:46Z</time>
      </trkpt>
      <trkpt lat="42.47092" lon="2.23636">
        <ele>1709.84</ele>
        <time>2017-05-21T12:41:57Z</time>
      </trkpt>
      <trkpt lat="42.47097" lon="2.23647">
        <ele>1709.84</ele>
        <time>2017-05-21T12:42:08Z</time>
      </trkpt>
      <trkpt lat="42.47105" lon="2.23652">
        <ele>1708.88</ele>
        <time>2017-05-21T12:42:21Z</time>
      </trkpt>
      <trkpt lat="42.4711" lon="2.23656">
        <ele>1708.4</ele>
        <time>2017-05-21T12:42:29Z</time>
      </trkpt>
      <trkpt lat="42.47116" lon="2.23662">
        <ele>1708.4</ele>
        <time>2017-05-21T12:42:38Z</time>
      </trkpt>
      <trkpt lat="42.47119" lon="2.23662">
        <ele>1708.4</ele>
        <time>2017-05-21T12:42:41Z</time>
      </trkpt>
      <trkpt lat="42.47128" lon="2.23668">
        <ele>1709.84</ele>
        <time>2017-05-21T12:42:51Z</time>
      </trkpt>
      <trkpt lat="42.47129" lon="2.23667">
        <ele>1709.84</ele>
        <time>2017-05-21T12:42:52Z</time>
      </trkpt>
      <trkpt lat="42.47134" lon="2.23668">
        <ele>1711.76</ele>
        <time>2017-05-21T12:43:03Z</time>
      </trkpt>
      <trkpt lat="42.47139" lon="2.23673">
        <ele>1711.76</ele>
        <time>2017-05-21T12:43:13Z</time>
      </trkpt>
      <trkpt lat="42.47145" lon="2.23677">
        <ele>1710.32</ele>
        <time>2017-05-21T12:43:24Z</time>
      </trkpt>
      <trkpt lat="42.47149" lon="2.23683">
        <ele>1709.36</ele>
        <time>2017-05-21T12:43:36Z</time>
      </trkpt>
      <trkpt lat="42.47147" lon="2.23689">
        <ele>1707.92</ele>
        <time>2017-05-21T12:43:54Z</time>
      </trkpt>
      <trkpt lat="42.47147" lon="2.23687">
        <ele>1707.92</ele>
        <time>2017-05-21T12:44:12Z</time>
      </trkpt>
      <trkpt lat="42.47145" lon="2.23692">
        <ele>1707.92</ele>
        <time>2017-05-21T12:44:44Z</time>
      </trkpt>
      <trkpt lat="42.47149" lon="2.23691">
        <ele>1707.44</ele>
        <time>2017-05-21T12:44:57Z</time>
      </trkpt>
      <trkpt lat="42.47154" lon="2.23692">
        <ele>1705.52</ele>
        <time>2017-05-21T12:45:09Z</time>
      </trkpt>
      <trkpt lat="42.47157" lon="2.23691">
        <ele>1703.59</ele>
        <time>2017-05-21T12:45:20Z</time>
      </trkpt>
      <trkpt lat="42.47163" lon="2.23689">
        <ele>1702.15</ele>
        <time>2017-05-21T12:45:34Z</time>
      </trkpt>
      <trkpt lat="42.47166" lon="2.23688">
        <ele>1701.19</ele>
        <time>2017-05-21T12:45:44Z</time>
      </trkpt>
      <trkpt lat="42.4717" lon="2.23688">
        <ele>1700.23</ele>
        <time>2017-05-21T12:45:55Z</time>
      </trkpt>
      <trkpt lat="42.47176" lon="2.2369">
        <ele>1701.67</ele>
        <time>2017-05-21T12:46:05Z</time>
      </trkpt>
      <trkpt lat="42.47177" lon="2.23691">
        <ele>1701.67</ele>
        <time>2017-05-21T12:46:06Z</time>
      </trkpt>
      <trkpt lat="42.47182" lon="2.23693">
        <ele>1701.67</ele>
        <time>2017-05-21T12:46:15Z</time>
      </trkpt>
      <trkpt lat="42.47184" lon="2.23696">
        <ele>1700.23</ele>
        <time>2017-05-21T12:46:19Z</time>
      </trkpt>
      <trkpt lat="42.4719" lon="2.23697">
        <ele>1698.31</ele>
        <time>2017-05-21T12:46:29Z</time>
      </trkpt>
      <trkpt lat="42.47197" lon="2.23702">
        <ele>1696.86</ele>
        <time>2017-05-21T12:46:40Z</time>
      </trkpt>
      <trkpt lat="42.47202" lon="2.23701">
        <ele>1696.38</ele>
        <time>2017-05-21T12:46:48Z</time>
      </trkpt>
      <trkpt lat="42.47209" lon="2.23705">
        <ele>1696.38</ele>
        <time>2017-05-21T12:46:59Z</time>
      </trkpt>
      <trkpt lat="42.47212" lon="2.23705">
        <ele>1697.34</ele>
        <time>2017-05-21T12:47:04Z</time>
      </trkpt>
      <trkpt lat="42.47214" lon="2.23707">
        <ele>1696.38</ele>
        <time>2017-05-21T12:47:11Z</time>
      </trkpt>
      <trkpt lat="42.47215" lon="2.2371">
        <ele>1694.46</ele>
        <time>2017-05-21T12:47:22Z</time>
      </trkpt>
      <trkpt lat="42.47216" lon="2.23718">
        <ele>1692.06</ele>
        <time>2017-05-21T12:47:34Z</time>
      </trkpt>
      <trkpt lat="42.47219" lon="2.23721">
        <ele>1691.1</ele>
        <time>2017-05-21T12:47:44Z</time>
      </trkpt>
      <trkpt lat="42.4722" lon="2.23726">
        <ele>1689.17</ele>
        <time>2017-05-21T12:47:55Z</time>
      </trkpt>
      <trkpt lat="42.47221" lon="2.23734">
        <ele>1686.77</ele>
        <time>2017-05-21T12:48:07Z</time>
      </trkpt>
      <trkpt lat="42.47222" lon="2.23743">
        <ele>1685.33</ele>
        <time>2017-05-21T12:48:18Z</time>
      </trkpt>
      <trkpt lat="42.47226" lon="2.23749">
        <ele>1682.93</ele>
        <time>2017-05-21T12:48:33Z</time>
      </trkpt>
      <trkpt lat="42.4723" lon="2.23756">
        <ele>1680.52</ele>
        <time>2017-05-21T12:48:45Z</time>
      </trkpt>
      <trkpt lat="42.47231" lon="2.23761">
        <ele>1678.12</ele>
        <time>2017-05-21T12:48:58Z</time>
      </trkpt>
      <trkpt lat="42.4723" lon="2.23763">
        <ele>1676.68</ele>
        <time>2017-05-21T12:49:10Z</time>
      </trkpt>
      <trkpt lat="42.47225" lon="2.23767">
        <ele>1674.75</ele>
        <time>2017-05-21T12:49:22Z</time>
      </trkpt>
      <trkpt lat="42.47224" lon="2.23765">
        <ele>1673.79</ele>
        <time>2017-05-21T12:49:35Z</time>
      </trkpt>
      <trkpt lat="42.47223" lon="2.23768">
        <ele>1671.39</ele>
        <time>2017-05-21T12:49:48Z</time>
      </trkpt>
      <trkpt lat="42.47224" lon="2.23773">
        <ele>1668.99</ele>
        <time>2017-05-21T12:50:00Z</time>
      </trkpt>
      <trkpt lat="42.47225" lon="2.23778">
        <ele>1666.1</ele>
        <time>2017-05-21T12:50:13Z</time>
      </trkpt>
      <trkpt lat="42.47226" lon="2.23784">
        <ele>1664.18</ele>
        <time>2017-05-21T12:50:20Z</time>
      </trkpt>
      <trkpt lat="42.47225" lon="2.23797">
        <ele>1662.26</ele>
        <time>2017-05-21T12:50:30Z</time>
      </trkpt>
      <trkpt lat="42.47233" lon="2.23801">
        <ele>1661.78</ele>
        <time>2017-05-21T12:50:42Z</time>
      </trkpt>
      <trkpt lat="42.47235" lon="2.23806">
        <ele>1660.33</ele>
        <time>2017-05-21T12:50:51Z</time>
      </trkpt>
      <trkpt lat="42.47237" lon="2.23814">
        <ele>1658.89</ele>
        <time>2017-05-21T12:51:01Z</time>
      </trkpt>
      <trkpt lat="42.47236" lon="2.23822">
        <ele>1656.97</ele>
        <time>2017-05-21T12:51:13Z</time>
      </trkpt>
      <trkpt lat="42.47238" lon="2.23828">
        <ele>1655.53</ele>
        <time>2017-05-21T12:51:26Z</time>
      </trkpt>
      <trkpt lat="42.47243" lon="2.23835">
        <ele>1654.09</ele>
        <time>2017-05-21T12:51:37Z</time>
      </trkpt>
      <trkpt lat="42.47248" lon="2.23845">
        <ele>1652.16</ele>
        <time>2017-05-21T12:51:47Z</time>
      </trkpt>
      <trkpt lat="42.47256" lon="2.2385">
        <ele>1651.68</ele>
        <time>2017-05-21T12:51:55Z</time>
      </trkpt>
      <trkpt lat="42.47261" lon="2.23853">
        <ele>1651.2</ele>
        <time>2017-05-21T12:52:04Z</time>
      </trkpt>
      <trkpt lat="42.47266" lon="2.23856">
        <ele>1650.24</ele>
        <time>2017-05-21T12:52:11Z</time>
      </trkpt>
      <trkpt lat="42.47267" lon="2.23856">
        <ele>1650.24</ele>
        <time>2017-05-21T12:52:12Z</time>
      </trkpt>
      <trkpt lat="42.47273" lon="2.23863">
        <ele>1648.8</ele>
        <time>2017-05-21T12:52:21Z</time>
      </trkpt>
      <trkpt lat="42.47279" lon="2.23867">
        <ele>1647.84</ele>
        <time>2017-05-21T12:52:30Z</time>
      </trkpt>
      <trkpt lat="42.47284" lon="2.23872">
        <ele>1646.88</ele>
        <time>2017-05-21T12:52:39Z</time>
      </trkpt>
      <trkpt lat="42.47291" lon="2.23871">
        <ele>1645.91</ele>
        <time>2017-05-21T12:52:51Z</time>
      </trkpt>
      <trkpt lat="42.47298" lon="2.23874">
        <ele>1643.99</ele>
        <time>2017-05-21T12:53:00Z</time>
      </trkpt>
      <trkpt lat="42.47302" lon="2.23877">
        <ele>1643.03</ele>
        <time>2017-05-21T12:53:09Z</time>
      </trkpt>
      <trkpt lat="42.47307" lon="2.2388">
        <ele>1641.59</ele>
        <time>2017-05-21T12:53:17Z</time>
      </trkpt>
      <trkpt lat="42.47316" lon="2.23885">
        <ele>1641.11</ele>
        <time>2017-05-21T12:53:27Z</time>
      </trkpt>
      <trkpt lat="42.47322" lon="2.23886">
        <ele>1639.67</ele>
        <time>2017-05-21T12:53:38Z</time>
      </trkpt>
      <trkpt lat="42.47329" lon="2.23884">
        <ele>1638.22</ele>
        <time>2017-05-21T12:53:48Z</time>
      </trkpt>
      <trkpt lat="42.47338" lon="2.23882">
        <ele>1636.78</ele>
        <time>2017-05-21T12:53:57Z</time>
      </trkpt>
      <trkpt lat="42.47357" lon="2.23888">
        <ele>1634.38</ele>
        <time>2017-05-21T12:54:09Z</time>
      </trkpt>
      <trkpt lat="42.47368" lon="2.2389">
        <ele>1633.42</ele>
        <time>2017-05-21T12:54:19Z</time>
      </trkpt>
      <trkpt lat="42.47375" lon="2.23902">
        <ele>1632.94</ele>
        <time>2017-05-21T12:54:32Z</time>
      </trkpt>
      <trkpt lat="42.47377" lon="2.23903">
        <ele>1633.9</ele>
        <time>2017-05-21T12:54:46Z</time>
      </trkpt>
      <trkpt lat="42.47376" lon="2.23904">
        <ele>1632.46</ele>
        <time>2017-05-21T12:55:10Z</time>
      </trkpt>
      <trkpt lat="42.47375" lon="2.23905">
        <ele>1632.94</ele>
        <time>2017-05-21T12:55:32Z</time>
      </trkpt>
      <trkpt lat="42.47374" lon="2.23906">
        <ele>1634.38</ele>
        <time>2017-05-21T12:55:42Z</time>
      </trkpt>
      <trkpt lat="42.47376" lon="2.23903">
        <ele>1632.94</ele>
        <time>2017-05-21T12:56:03Z</time>
      </trkpt>
      <trkpt lat="42.47377" lon="2.23903">
        <ele>1632.94</ele>
        <time>2017-05-21T12:56:14Z</time>
      </trkpt>
      <trkpt lat="42.4738" lon="2.23905">
        <ele>1629.09</ele>
        <time>2017-05-21T12:56:16Z</time>
      </trkpt>
      <trkpt lat="42.47379" lon="2.23904">
        <ele>1632.94</ele>
        <time>2017-05-21T12:56:17Z</time>
      </trkpt>
      <trkpt lat="42.4738" lon="2.23904">
        <ele>1632.46</ele>
        <time>2017-05-21T12:56:18Z</time>
      </trkpt>
      <trkpt lat="42.47388" lon="2.23908">
        <ele>1631.49</ele>
        <time>2017-05-21T12:56:28Z</time>
      </trkpt>
      <trkpt lat="42.47394" lon="2.23911">
        <ele>1630.05</ele>
        <time>2017-05-21T12:56:38Z</time>
      </trkpt>
      <trkpt lat="42.47399" lon="2.23912">
        <ele>1628.61</ele>
        <time>2017-05-21T12:56:47Z</time>
      </trkpt>
      <trkpt lat="42.47408" lon="2.2391">
        <ele>1628.61</ele>
        <time>2017-05-21T12:56:56Z</time>
      </trkpt>
      <trkpt lat="42.47421" lon="2.23911">
        <ele>1627.17</ele>
        <time>2017-05-21T12:57:09Z</time>
      </trkpt>
      <trkpt lat="42.4743" lon="2.23915">
        <ele>1625.73</ele>
        <time>2017-05-21T12:57:21Z</time>
      </trkpt>
      <trkpt lat="42.47432" lon="2.23917">
        <ele>1626.21</ele>
        <time>2017-05-21T12:57:24Z</time>
      </trkpt>
      <trkpt lat="42.47435" lon="2.23919">
        <ele>1624.77</ele>
        <time>2017-05-21T12:57:31Z</time>
      </trkpt>
      <trkpt lat="42.47448" lon="2.23923">
        <ele>1623.32</ele>
        <time>2017-05-21T12:57:41Z</time>
      </trkpt>
      <trkpt lat="42.47456" lon="2.2393">
        <ele>1622.36</ele>
        <time>2017-05-21T12:57:52Z</time>
      </trkpt>
      <trkpt lat="42.47464" lon="2.23939">
        <ele>1620.92</ele>
        <time>2017-05-21T12:58:03Z</time>
      </trkpt>
      <trkpt lat="42.4747" lon="2.23938">
        <ele>1619.48</ele>
        <time>2017-05-21T12:58:12Z</time>
      </trkpt>
      <trkpt lat="42.47476" lon="2.23943">
        <ele>1619</ele>
        <time>2017-05-21T12:58:19Z</time>
      </trkpt>
      <trkpt lat="42.47487" lon="2.23957">
        <ele>1617.56</ele>
        <time>2017-05-21T12:58:29Z</time>
      </trkpt>
      <trkpt lat="42.47496" lon="2.23966">
        <ele>1616.59</ele>
        <time>2017-05-21T12:58:39Z</time>
      </trkpt>
      <trkpt lat="42.47502" lon="2.23971">
        <ele>1615.15</ele>
        <time>2017-05-21T12:58:49Z</time>
      </trkpt>
      <trkpt lat="42.47511" lon="2.23971">
        <ele>1613.23</ele>
        <time>2017-05-21T12:59:01Z</time>
      </trkpt>
      <trkpt lat="42.47521" lon="2.23969">
        <ele>1611.79</ele>
        <time>2017-05-21T12:59:11Z</time>
      </trkpt>
      <trkpt lat="42.47526" lon="2.2397">
        <ele>1611.31</ele>
        <time>2017-05-21T12:59:17Z</time>
      </trkpt>
      <trkpt lat="42.47536" lon="2.23969">
        <ele>1609.86</ele>
        <time>2017-05-21T12:59:27Z</time>
      </trkpt>
      <trkpt lat="42.4754" lon="2.23968">
        <ele>1608.9</ele>
        <time>2017-05-21T12:59:34Z</time>
      </trkpt>
      <trkpt lat="42.47545" lon="2.23968">
        <ele>1607.94</ele>
        <time>2017-05-21T12:59:43Z</time>
      </trkpt>
      <trkpt lat="42.47551" lon="2.2397">
        <ele>1606.02</ele>
        <time>2017-05-21T12:59:54Z</time>
      </trkpt>
      <trkpt lat="42.4756" lon="2.2397">
        <ele>1605.54</ele>
        <time>2017-05-21T13:00:04Z</time>
      </trkpt>
      <trkpt lat="42.47566" lon="2.23972">
        <ele>1604.1</ele>
        <time>2017-05-21T13:00:15Z</time>
      </trkpt>
      <trkpt lat="42.47572" lon="2.23969">
        <ele>1602.66</ele>
        <time>2017-05-21T13:00:24Z</time>
      </trkpt>
      <trkpt lat="42.47584" lon="2.23965">
        <ele>1601.21</ele>
        <time>2017-05-21T13:00:35Z</time>
      </trkpt>
      <trkpt lat="42.47585" lon="2.23965">
        <ele>1601.21</ele>
        <time>2017-05-21T13:00:37Z</time>
      </trkpt>
      <trkpt lat="42.47594" lon="2.23965">
        <ele>1599.77</ele>
        <time>2017-05-21T13:00:48Z</time>
      </trkpt>
      <trkpt lat="42.47601" lon="2.23966">
        <ele>1598.33</ele>
        <time>2017-05-21T13:00:58Z</time>
      </trkpt>
      <trkpt lat="42.4761" lon="2.23967">
        <ele>1596.89</ele>
        <time>2017-05-21T13:01:07Z</time>
      </trkpt>
      <trkpt lat="42.47611" lon="2.23967">
        <ele>1596.89</ele>
        <time>2017-05-21T13:01:08Z</time>
      </trkpt>
      <trkpt lat="42.47619" lon="2.23971">
        <ele>1595.45</ele>
        <time>2017-05-21T13:01:18Z</time>
      </trkpt>
      <trkpt lat="42.47629" lon="2.23973">
        <ele>1594.48</ele>
        <time>2017-05-21T13:01:29Z</time>
      </trkpt>
      <trkpt lat="42.47641" lon="2.23976">
        <ele>1592.56</ele>
        <time>2017-05-21T13:01:40Z</time>
      </trkpt>
      <trkpt lat="42.47649" lon="2.23978">
        <ele>1591.12</ele>
        <time>2017-05-21T13:01:50Z</time>
      </trkpt>
      <trkpt lat="42.47657" lon="2.23982">
        <ele>1590.16</ele>
        <time>2017-05-21T13:02:01Z</time>
      </trkpt>
      <trkpt lat="42.47666" lon="2.23982">
        <ele>1589.2</ele>
        <time>2017-05-21T13:02:10Z</time>
      </trkpt>
      <trkpt lat="42.47674" lon="2.23991">
        <ele>1587.75</ele>
        <time>2017-05-21T13:02:19Z</time>
      </trkpt>
      <trkpt lat="42.47681" lon="2.23989">
        <ele>1586.31</ele>
        <time>2017-05-21T13:02:28Z</time>
      </trkpt>
      <trkpt lat="42.47687" lon="2.23996">
        <ele>1584.87</ele>
        <time>2017-05-21T13:02:39Z</time>
      </trkpt>
      <trkpt lat="42.47692" lon="2.23999">
        <ele>1583.43</ele>
        <time>2017-05-21T13:02:47Z</time>
      </trkpt>
      <trkpt lat="42.477" lon="2.24003">
        <ele>1582.47</ele>
        <time>2017-05-21T13:02:57Z</time>
      </trkpt>
      <trkpt lat="42.47707" lon="2.24005">
        <ele>1580.54</ele>
        <time>2017-05-21T13:03:09Z</time>
      </trkpt>
      <trkpt lat="42.4771" lon="2.24005">
        <ele>1579.1</ele>
        <time>2017-05-21T13:03:19Z</time>
      </trkpt>
      <trkpt lat="42.4772" lon="2.24001">
        <ele>1577.66</ele>
        <time>2017-05-21T13:03:29Z</time>
      </trkpt>
      <trkpt lat="42.47728" lon="2.23999">
        <ele>1576.22</ele>
        <time>2017-05-21T13:03:40Z</time>
      </trkpt>
      <trkpt lat="42.47743" lon="2.23998">
        <ele>1573.82</ele>
        <time>2017-05-21T13:03:54Z</time>
      </trkpt>
      <trkpt lat="42.47752" lon="2.23999">
        <ele>1572.37</ele>
        <time>2017-05-21T13:04:06Z</time>
      </trkpt>
      <trkpt lat="42.47763" lon="2.23998">
        <ele>1570.93</ele>
        <time>2017-05-21T13:04:18Z</time>
      </trkpt>
      <trkpt lat="42.47771" lon="2.24002">
        <ele>1569.49</ele>
        <time>2017-05-21T13:04:27Z</time>
      </trkpt>
      <trkpt lat="42.47778" lon="2.24002">
        <ele>1567.57</ele>
        <time>2017-05-21T13:04:37Z</time>
      </trkpt>
      <trkpt lat="42.47785" lon="2.24003">
        <ele>1566.12</ele>
        <time>2017-05-21T13:04:46Z</time>
      </trkpt>
      <trkpt lat="42.47797" lon="2.24006">
        <ele>1564.68</ele>
        <time>2017-05-21T13:04:56Z</time>
      </trkpt>
      <trkpt lat="42.47806" lon="2.24004">
        <ele>1562.28</ele>
        <time>2017-05-21T13:05:07Z</time>
      </trkpt>
      <trkpt lat="42.47817" lon="2.24004">
        <ele>1560.84</ele>
        <time>2017-05-21T13:05:18Z</time>
      </trkpt>
      <trkpt lat="42.47821" lon="2.24003">
        <ele>1559.4</ele>
        <time>2017-05-21T13:05:26Z</time>
      </trkpt>
      <trkpt lat="42.47831" lon="2.24004">
        <ele>1558.43</ele>
        <time>2017-05-21T13:05:38Z</time>
      </trkpt>
      <trkpt lat="42.47845" lon="2.24001">
        <ele>1556.51</ele>
        <time>2017-05-21T13:05:49Z</time>
      </trkpt>
      <trkpt lat="42.47854" lon="2.23999">
        <ele>1554.59</ele>
        <time>2017-05-21T13:06:00Z</time>
      </trkpt>
      <trkpt lat="42.47862" lon="2.23998">
        <ele>1552.67</ele>
        <time>2017-05-21T13:06:11Z</time>
      </trkpt>
      <trkpt lat="42.4787" lon="2.23996">
        <ele>1550.74</ele>
        <time>2017-05-21T13:06:23Z</time>
      </trkpt>
      <trkpt lat="42.47879" lon="2.23993">
        <ele>1548.82</ele>
        <time>2017-05-21T13:06:33Z</time>
      </trkpt>
      <trkpt lat="42.47886" lon="2.23993">
        <ele>1547.38</ele>
        <time>2017-05-21T13:06:43Z</time>
      </trkpt>
      <trkpt lat="42.47898" lon="2.23989">
        <ele>1545.46</ele>
        <time>2017-05-21T13:06:53Z</time>
      </trkpt>
      <trkpt lat="42.47907" lon="2.23989">
        <ele>1544.01</ele>
        <time>2017-05-21T13:07:04Z</time>
      </trkpt>
      <trkpt lat="42.47914" lon="2.23985">
        <ele>1542.57</ele>
        <time>2017-05-21T13:07:15Z</time>
      </trkpt>
      <trkpt lat="42.47921" lon="2.23981">
        <ele>1541.61</ele>
        <time>2017-05-21T13:07:24Z</time>
      </trkpt>
      <trkpt lat="42.47929" lon="2.23978">
        <ele>1540.17</ele>
        <time>2017-05-21T13:07:34Z</time>
      </trkpt>
      <trkpt lat="42.47938" lon="2.23977">
        <ele>1538.73</ele>
        <time>2017-05-21T13:07:45Z</time>
      </trkpt>
      <trkpt lat="42.47946" lon="2.23978">
        <ele>1537.29</ele>
        <time>2017-05-21T13:07:56Z</time>
      </trkpt>
      <trkpt lat="42.4795" lon="2.23975">
        <ele>1536.32</ele>
        <time>2017-05-21T13:08:05Z</time>
      </trkpt>
      <trkpt lat="42.47955" lon="2.23976">
        <ele>1535.36</ele>
        <time>2017-05-21T13:08:17Z</time>
      </trkpt>
      <trkpt lat="42.47962" lon="2.23977">
        <ele>1533.92</ele>
        <time>2017-05-21T13:08:30Z</time>
      </trkpt>
      <trkpt lat="42.47971" lon="2.23977">
        <ele>1532.48</ele>
        <time>2017-05-21T13:08:41Z</time>
      </trkpt>
      <trkpt lat="42.47979" lon="2.2398">
        <ele>1531.04</ele>
        <time>2017-05-21T13:08:48Z</time>
      </trkpt>
      <trkpt lat="42.47989" lon="2.23982">
        <ele>1529.59</ele>
        <time>2017-05-21T13:08:59Z</time>
      </trkpt>
      <trkpt lat="42.47998" lon="2.23979">
        <ele>1528.15</ele>
        <time>2017-05-21T13:09:09Z</time>
      </trkpt>
      <trkpt lat="42.48002" lon="2.23977">
        <ele>1527.67</ele>
        <time>2017-05-21T13:09:10Z</time>
      </trkpt>
      <trkpt lat="42.48012" lon="2.23968">
        <ele>1526.23</ele>
        <time>2017-05-21T13:09:20Z</time>
      </trkpt>
      <trkpt lat="42.48022" lon="2.23968">
        <ele>1525.27</ele>
        <time>2017-05-21T13:09:30Z</time>
      </trkpt>
      <trkpt lat="42.48029" lon="2.23962">
        <ele>1523.83</ele>
        <time>2017-05-21T13:09:41Z</time>
      </trkpt>
      <trkpt lat="42.48032" lon="2.23967">
        <ele>1523.35</ele>
        <time>2017-05-21T13:09:54Z</time>
      </trkpt>
      <trkpt lat="42.48039" lon="2.23968">
        <ele>1523.35</ele>
        <time>2017-05-21T13:10:20Z</time>
      </trkpt>
      <trkpt lat="42.48036" lon="2.23972">
        <ele>1523.35</ele>
        <time>2017-05-21T13:10:44Z</time>
      </trkpt>
      <trkpt lat="42.48037" lon="2.23973">
        <ele>1523.35</ele>
        <time>2017-05-21T13:11:04Z</time>
      </trkpt>
      <trkpt lat="42.48036" lon="2.23974">
        <ele>1524.31</ele>
        <time>2017-05-21T13:11:18Z</time>
      </trkpt>
      <trkpt lat="42.48033" lon="2.23975">
        <ele>1523.35</ele>
        <time>2017-05-21T13:11:33Z</time>
      </trkpt>
      <trkpt lat="42.48035" lon="2.23971">
        <ele>1523.35</ele>
        <time>2017-05-21T13:11:53Z</time>
      </trkpt>
      <trkpt lat="42.48035" lon="2.23966">
        <ele>1523.35</ele>
        <time>2017-05-21T13:12:15Z</time>
      </trkpt>
      <trkpt lat="42.4804" lon="2.23961">
        <ele>1523.35</ele>
        <time>2017-05-21T13:12:37Z</time>
      </trkpt>
      <trkpt lat="42.48039" lon="2.23958">
        <ele>1524.79</ele>
        <time>2017-05-21T13:12:52Z</time>
      </trkpt>
      <trkpt lat="42.48039" lon="2.23958">
        <ele>1524.79</ele>
        <time>2017-05-21T13:12:53Z</time>
      </trkpt>
      <trkpt lat="42.48036" lon="2.23962">
        <ele>1524.79</ele>
        <time>2017-05-21T13:13:13Z</time>
      </trkpt>
      <trkpt lat="42.48036" lon="2.23967">
        <ele>1519.98</ele>
        <time>2017-05-21T13:13:26Z</time>
      </trkpt>
      <trkpt lat="42.48035" lon="2.23967">
        <ele>1528.15</ele>
        <time>2017-05-21T13:13:27Z</time>
      </trkpt>
      <trkpt lat="42.48035" lon="2.23967">
        <ele>1523.83</ele>
        <time>2017-05-21T13:13:28Z</time>
      </trkpt>
      <trkpt lat="42.48035" lon="2.23971">
        <ele>1522.87</ele>
        <time>2017-05-21T13:13:45Z</time>
      </trkpt>
      <trkpt lat="42.4804" lon="2.23968">
        <ele>1521.42</ele>
        <time>2017-05-21T13:13:56Z</time>
      </trkpt>
      <trkpt lat="42.48046" lon="2.23965">
        <ele>1519.98</ele>
        <time>2017-05-21T13:14:05Z</time>
      </trkpt>
      <trkpt lat="42.48051" lon="2.23964">
        <ele>1518.54</ele>
        <time>2017-05-21T13:14:15Z</time>
      </trkpt>
      <trkpt lat="42.48057" lon="2.23966">
        <ele>1517.1</ele>
        <time>2017-05-21T13:14:25Z</time>
      </trkpt>
      <trkpt lat="42.48067" lon="2.23966">
        <ele>1515.18</ele>
        <time>2017-05-21T13:14:35Z</time>
      </trkpt>
      <trkpt lat="42.4807" lon="2.23965">
        <ele>1514.21</ele>
        <time>2017-05-21T13:14:39Z</time>
      </trkpt>
      <trkpt lat="42.48078" lon="2.23958">
        <ele>1512.77</ele>
        <time>2017-05-21T13:14:49Z</time>
      </trkpt>
      <trkpt lat="42.48083" lon="2.23956">
        <ele>1510.85</ele>
        <time>2017-05-21T13:14:58Z</time>
      </trkpt>
      <trkpt lat="42.48091" lon="2.23957">
        <ele>1508.93</ele>
        <time>2017-05-21T13:15:09Z</time>
      </trkpt>
      <trkpt lat="42.48098" lon="2.23959">
        <ele>1507.97</ele>
        <time>2017-05-21T13:15:21Z</time>
      </trkpt>
      <trkpt lat="42.48104" lon="2.23958">
        <ele>1506.52</ele>
        <time>2017-05-21T13:15:30Z</time>
      </trkpt>
      <trkpt lat="42.48109" lon="2.23956">
        <ele>1506.04</ele>
        <time>2017-05-21T13:15:39Z</time>
      </trkpt>
      <trkpt lat="42.48118" lon="2.23952">
        <ele>1504.12</ele>
        <time>2017-05-21T13:15:50Z</time>
      </trkpt>
      <trkpt lat="42.48129" lon="2.23949">
        <ele>1503.16</ele>
        <time>2017-05-21T13:15:59Z</time>
      </trkpt>
      <trkpt lat="42.4814" lon="2.23948">
        <ele>1502.2</ele>
        <time>2017-05-21T13:16:11Z</time>
      </trkpt>
      <trkpt lat="42.48149" lon="2.23947">
        <ele>1500.27</ele>
        <time>2017-05-21T13:16:22Z</time>
      </trkpt>
      <trkpt lat="42.48156" lon="2.23947">
        <ele>1498.83</ele>
        <time>2017-05-21T13:16:33Z</time>
      </trkpt>
      <trkpt lat="42.48167" lon="2.23948">
        <ele>1496.43</ele>
        <time>2017-05-21T13:16:45Z</time>
      </trkpt>
      <trkpt lat="42.48173" lon="2.23945">
        <ele>1495.95</ele>
        <time>2017-05-21T13:16:54Z</time>
      </trkpt>
      <trkpt lat="42.48176" lon="2.23943">
        <ele>1494.99</ele>
        <time>2017-05-21T13:16:59Z</time>
      </trkpt>
      <trkpt lat="42.48183" lon="2.23943">
        <ele>1494.51</ele>
        <time>2017-05-21T13:17:11Z</time>
      </trkpt>
      <trkpt lat="42.48186" lon="2.23947">
        <ele>1494.51</ele>
        <time>2017-05-21T13:17:36Z</time>
      </trkpt>
      <trkpt lat="42.48189" lon="2.23951">
        <ele>1494.03</ele>
        <time>2017-05-21T13:17:55Z</time>
      </trkpt>
      <trkpt lat="42.48202" lon="2.23953">
        <ele>1493.06</ele>
        <time>2017-05-21T13:18:04Z</time>
      </trkpt>
      <trkpt lat="42.48205" lon="2.2395">
        <ele>1492.1</ele>
        <time>2017-05-21T13:18:09Z</time>
      </trkpt>
      <trkpt lat="42.48208" lon="2.2395">
        <ele>1491.62</ele>
        <time>2017-05-21T13:18:12Z</time>
      </trkpt>
      <trkpt lat="42.48215" lon="2.23949">
        <ele>1489.7</ele>
        <time>2017-05-21T13:18:20Z</time>
      </trkpt>
      <trkpt lat="42.48217" lon="2.23949">
        <ele>1489.7</ele>
        <time>2017-05-21T13:18:22Z</time>
      </trkpt>
      <trkpt lat="42.48224" lon="2.2395">
        <ele>1488.26</ele>
        <time>2017-05-21T13:18:29Z</time>
      </trkpt>
      <trkpt lat="42.4823" lon="2.23952">
        <ele>1486.82</ele>
        <time>2017-05-21T13:18:34Z</time>
      </trkpt>
      <trkpt lat="42.48238" lon="2.23952">
        <ele>1484.89</ele>
        <time>2017-05-21T13:18:43Z</time>
      </trkpt>
      <trkpt lat="42.48242" lon="2.23951">
        <ele>1483.45</ele>
        <time>2017-05-21T13:18:49Z</time>
      </trkpt>
      <trkpt lat="42.48251" lon="2.2395">
        <ele>1482.49</ele>
        <time>2017-05-21T13:18:56Z</time>
      </trkpt>
      <trkpt lat="42.48264" lon="2.23948">
        <ele>1480.57</ele>
        <time>2017-05-21T13:19:08Z</time>
      </trkpt>
      <trkpt lat="42.48268" lon="2.23948">
        <ele>1479.13</ele>
        <time>2017-05-21T13:19:16Z</time>
      </trkpt>
      <trkpt lat="42.48273" lon="2.23942">
        <ele>1477.2</ele>
        <time>2017-05-21T13:19:27Z</time>
      </trkpt>
      <trkpt lat="42.48282" lon="2.23943">
        <ele>1476.72</ele>
        <time>2017-05-21T13:19:37Z</time>
      </trkpt>
      <trkpt lat="42.48289" lon="2.23944">
        <ele>1476.72</ele>
        <time>2017-05-21T13:19:51Z</time>
      </trkpt>
      <trkpt lat="42.48287" lon="2.2395">
        <ele>1476.72</ele>
        <time>2017-05-21T13:20:13Z</time>
      </trkpt>
      <trkpt lat="42.48287" lon="2.23945">
        <ele>1476.72</ele>
        <time>2017-05-21T13:20:38Z</time>
      </trkpt>
      <trkpt lat="42.48285" lon="2.23946">
        <ele>1476.72</ele>
        <time>2017-05-21T13:21:00Z</time>
      </trkpt>
      <trkpt lat="42.48285" lon="2.2394">
        <ele>1476.72</ele>
        <time>2017-05-21T13:21:16Z</time>
      </trkpt>
      <trkpt lat="42.48285" lon="2.2394">
        <ele>1476.72</ele>
        <time>2017-05-21T13:21:27Z</time>
      </trkpt>
      <trkpt lat="42.48288" lon="2.23941">
        <ele>1476.72</ele>
        <time>2017-05-21T13:21:42Z</time>
      </trkpt>
      <trkpt lat="42.48296" lon="2.23938">
        <ele>1475.76</ele>
        <time>2017-05-21T13:21:54Z</time>
      </trkpt>
      <trkpt lat="42.48297" lon="2.23937">
        <ele>1475.28</ele>
        <time>2017-05-21T13:21:56Z</time>
      </trkpt>
      <trkpt lat="42.48301" lon="2.23935">
        <ele>1474.32</ele>
        <time>2017-05-21T13:22:01Z</time>
      </trkpt>
      <trkpt lat="42.4831" lon="2.23927">
        <ele>1472.88</ele>
        <time>2017-05-21T13:22:11Z</time>
      </trkpt>
      <trkpt lat="42.48316" lon="2.23925">
        <ele>1472.4</ele>
        <time>2017-05-21T13:22:25Z</time>
      </trkpt>
      <trkpt lat="42.48319" lon="2.23915">
        <ele>1470.95</ele>
        <time>2017-05-21T13:22:36Z</time>
      </trkpt>
      <trkpt lat="42.48327" lon="2.23911">
        <ele>1469.51</ele>
        <time>2017-05-21T13:22:47Z</time>
      </trkpt>
      <trkpt lat="42.48335" lon="2.23907">
        <ele>1467.11</ele>
        <time>2017-05-21T13:22:56Z</time>
      </trkpt>
      <trkpt lat="42.4834" lon="2.23902">
        <ele>1466.15</ele>
        <time>2017-05-21T13:23:02Z</time>
      </trkpt>
      <trkpt lat="42.48346" lon="2.23899">
        <ele>1465.19</ele>
        <time>2017-05-21T13:23:09Z</time>
      </trkpt>
      <trkpt lat="42.48352" lon="2.23897">
        <ele>1463.74</ele>
        <time>2017-05-21T13:23:18Z</time>
      </trkpt>
      <trkpt lat="42.4836" lon="2.23894">
        <ele>1462.3</ele>
        <time>2017-05-21T13:23:27Z</time>
      </trkpt>
      <trkpt lat="42.48368" lon="2.23894">
        <ele>1460.86</ele>
        <time>2017-05-21T13:23:35Z</time>
      </trkpt>
      <trkpt lat="42.4837" lon="2.23894">
        <ele>1460.38</ele>
        <time>2017-05-21T13:23:37Z</time>
      </trkpt>
      <trkpt lat="42.48383" lon="2.23894">
        <ele>1457.98</ele>
        <time>2017-05-21T13:23:48Z</time>
      </trkpt>
      <trkpt lat="42.48387" lon="2.23892">
        <ele>1457.02</ele>
        <time>2017-05-21T13:23:56Z</time>
      </trkpt>
      <trkpt lat="42.48394" lon="2.23893">
        <ele>1455.57</ele>
        <time>2017-05-21T13:24:05Z</time>
      </trkpt>
      <trkpt lat="42.48399" lon="2.23894">
        <ele>1454.13</ele>
        <time>2017-05-21T13:24:15Z</time>
      </trkpt>
      <trkpt lat="42.48408" lon="2.23892">
        <ele>1452.69</ele>
        <time>2017-05-21T13:24:24Z</time>
      </trkpt>
      <trkpt lat="42.48415" lon="2.23889">
        <ele>1451.25</ele>
        <time>2017-05-21T13:24:34Z</time>
      </trkpt>
      <trkpt lat="42.48422" lon="2.23887">
        <ele>1449.81</ele>
        <time>2017-05-21T13:24:43Z</time>
      </trkpt>
      <trkpt lat="42.48427" lon="2.23884">
        <ele>1447.88</ele>
        <time>2017-05-21T13:24:54Z</time>
      </trkpt>
      <trkpt lat="42.48432" lon="2.23881">
        <ele>1446.44</ele>
        <time>2017-05-21T13:25:03Z</time>
      </trkpt>
      <trkpt lat="42.48437" lon="2.23879">
        <ele>1445.48</ele>
        <time>2017-05-21T13:25:12Z</time>
      </trkpt>
      <trkpt lat="42.48443" lon="2.23876">
        <ele>1443.56</ele>
        <time>2017-05-21T13:25:21Z</time>
      </trkpt>
      <trkpt lat="42.48448" lon="2.23873">
        <ele>1442.11</ele>
        <time>2017-05-21T13:25:30Z</time>
      </trkpt>
      <trkpt lat="42.48455" lon="2.23868">
        <ele>1440.19</ele>
        <time>2017-05-21T13:25:41Z</time>
      </trkpt>
      <trkpt lat="42.48458" lon="2.2386">
        <ele>1439.23</ele>
        <time>2017-05-21T13:25:53Z</time>
      </trkpt>
      <trkpt lat="42.48455" lon="2.23857">
        <ele>1439.23</ele>
        <time>2017-05-21T13:26:12Z</time>
      </trkpt>
      <trkpt lat="42.48453" lon="2.23858">
        <ele>1438.75</ele>
        <time>2017-05-21T13:26:34Z</time>
      </trkpt>
      <trkpt lat="42.48456" lon="2.23858">
        <ele>1438.75</ele>
        <time>2017-05-21T13:26:57Z</time>
      </trkpt>
      <trkpt lat="42.48461" lon="2.23862">
        <ele>1438.75</ele>
        <time>2017-05-21T13:27:13Z</time>
      </trkpt>
      <trkpt lat="42.48465" lon="2.23861">
        <ele>1437.31</ele>
        <time>2017-05-21T13:27:15Z</time>
      </trkpt>
      <trkpt lat="42.48475" lon="2.23853">
        <ele>1436.35</ele>
        <time>2017-05-21T13:27:20Z</time>
      </trkpt>
      <trkpt lat="42.48485" lon="2.2385">
        <ele>1433.94</ele>
        <time>2017-05-21T13:27:28Z</time>
      </trkpt>
      <trkpt lat="42.48491" lon="2.23847">
        <ele>1432.98</ele>
        <time>2017-05-21T13:27:32Z</time>
      </trkpt>
      <trkpt lat="42.48502" lon="2.23843">
        <ele>1432.5</ele>
        <time>2017-05-21T13:27:42Z</time>
      </trkpt>
      <trkpt lat="42.48511" lon="2.23844">
        <ele>1431.06</ele>
        <time>2017-05-21T13:27:54Z</time>
      </trkpt>
      <trkpt lat="42.48517" lon="2.2384">
        <ele>1429.62</ele>
        <time>2017-05-21T13:28:04Z</time>
      </trkpt>
      <trkpt lat="42.48523" lon="2.23837">
        <ele>1427.7</ele>
        <time>2017-05-21T13:28:13Z</time>
      </trkpt>
      <trkpt lat="42.48533" lon="2.23831">
        <ele>1425.77</ele>
        <time>2017-05-21T13:28:23Z</time>
      </trkpt>
      <trkpt lat="42.48536" lon="2.2383">
        <ele>1425.29</ele>
        <time>2017-05-21T13:28:26Z</time>
      </trkpt>
      <trkpt lat="42.48545" lon="2.23829">
        <ele>1422.89</ele>
        <time>2017-05-21T13:28:35Z</time>
      </trkpt>
      <trkpt lat="42.48558" lon="2.23829">
        <ele>1420</ele>
        <time>2017-05-21T13:28:46Z</time>
      </trkpt>
      <trkpt lat="42.4856" lon="2.23829">
        <ele>1419.52</ele>
        <time>2017-05-21T13:28:47Z</time>
      </trkpt>
      <trkpt lat="42.4857" lon="2.23827">
        <ele>1418.56</ele>
        <time>2017-05-21T13:28:54Z</time>
      </trkpt>
      <trkpt lat="42.48581" lon="2.23827">
        <ele>1416.16</ele>
        <time>2017-05-21T13:29:04Z</time>
      </trkpt>
      <trkpt lat="42.48586" lon="2.23826">
        <ele>1415.68</ele>
        <time>2017-05-21T13:29:08Z</time>
      </trkpt>
      <trkpt lat="42.48591" lon="2.23825">
        <ele>1413.76</ele>
        <time>2017-05-21T13:29:13Z</time>
      </trkpt>
      <trkpt lat="42.48599" lon="2.23821">
        <ele>1412.31</ele>
        <time>2017-05-21T13:29:20Z</time>
      </trkpt>
      <trkpt lat="42.48602" lon="2.2382">
        <ele>1411.35</ele>
        <time>2017-05-21T13:29:22Z</time>
      </trkpt>
      <trkpt lat="42.48609" lon="2.23817">
        <ele>1409.43</ele>
        <time>2017-05-21T13:29:27Z</time>
      </trkpt>
      <trkpt lat="42.48626" lon="2.23819">
        <ele>1406.07</ele>
        <time>2017-05-21T13:29:36Z</time>
      </trkpt>
      <trkpt lat="42.48647" lon="2.23827">
        <ele>1403.18</ele>
        <time>2017-05-21T13:29:46Z</time>
      </trkpt>
      <trkpt lat="42.48656" lon="2.23832">
        <ele>1401.74</ele>
        <time>2017-05-21T13:29:54Z</time>
      </trkpt>
      <trkpt lat="42.48667" lon="2.23836">
        <ele>1399.82</ele>
        <time>2017-05-21T13:30:02Z</time>
      </trkpt>
      <trkpt lat="42.48672" lon="2.23837">
        <ele>1398.86</ele>
        <time>2017-05-21T13:30:06Z</time>
      </trkpt>
      <trkpt lat="42.48674" lon="2.23837">
        <ele>1398.86</ele>
        <time>2017-05-21T13:30:07Z</time>
      </trkpt>
      <trkpt lat="42.48676" lon="2.23835">
        <ele>1398.37</ele>
        <time>2017-05-21T13:30:09Z</time>
      </trkpt>
      <trkpt lat="42.48683" lon="2.23831">
        <ele>1396.93</ele>
        <time>2017-05-21T13:30:15Z</time>
      </trkpt>
      <trkpt lat="42.48695" lon="2.23829">
        <ele>1395.01</ele>
        <time>2017-05-21T13:30:25Z</time>
      </trkpt>
      <trkpt lat="42.487" lon="2.23827">
        <ele>1394.05</ele>
        <time>2017-05-21T13:30:34Z</time>
      </trkpt>
      <trkpt lat="42.48711" lon="2.23827">
        <ele>1392.13</ele>
        <time>2017-05-21T13:30:47Z</time>
      </trkpt>
      <trkpt lat="42.48721" lon="2.23824">
        <ele>1390.68</ele>
        <time>2017-05-21T13:30:57Z</time>
      </trkpt>
      <trkpt lat="42.48727" lon="2.23821">
        <ele>1389.72</ele>
        <time>2017-05-21T13:31:07Z</time>
      </trkpt>
      <trkpt lat="42.48734" lon="2.23815">
        <ele>1388.28</ele>
        <time>2017-05-21T13:31:17Z</time>
      </trkpt>
      <trkpt lat="42.4874" lon="2.2381">
        <ele>1387.32</ele>
        <time>2017-05-21T13:31:28Z</time>
      </trkpt>
      <trkpt lat="42.48744" lon="2.23804">
        <ele>1385.88</ele>
        <time>2017-05-21T13:31:37Z</time>
      </trkpt>
      <trkpt lat="42.48748" lon="2.238">
        <ele>1384.44</ele>
        <time>2017-05-21T13:31:48Z</time>
      </trkpt>
      <trkpt lat="42.48753" lon="2.238">
        <ele>1383.47</ele>
        <time>2017-05-21T13:31:57Z</time>
      </trkpt>
      <trkpt lat="42.48758" lon="2.23799">
        <ele>1382.03</ele>
        <time>2017-05-21T13:32:06Z</time>
      </trkpt>
      <trkpt lat="42.48765" lon="2.23799">
        <ele>1381.07</ele>
        <time>2017-05-21T13:32:16Z</time>
      </trkpt>
      <trkpt lat="42.48773" lon="2.23797">
        <ele>1379.15</ele>
        <time>2017-05-21T13:32:25Z</time>
      </trkpt>
      <trkpt lat="42.4878" lon="2.23799">
        <ele>1378.19</ele>
        <time>2017-05-21T13:32:31Z</time>
      </trkpt>
      <trkpt lat="42.48784" lon="2.23801">
        <ele>1378.19</ele>
        <time>2017-05-21T13:32:34Z</time>
      </trkpt>
      <trkpt lat="42.48786" lon="2.23801">
        <ele>1377.71</ele>
        <time>2017-05-21T13:32:35Z</time>
      </trkpt>
      <trkpt lat="42.48791" lon="2.23804">
        <ele>1376.75</ele>
        <time>2017-05-21T13:32:39Z</time>
      </trkpt>
      <trkpt lat="42.48802" lon="2.23805">
        <ele>1375.3</ele>
        <time>2017-05-21T13:32:48Z</time>
      </trkpt>
      <trkpt lat="42.48808" lon="2.23809">
        <ele>1373.86</ele>
        <time>2017-05-21T13:32:58Z</time>
      </trkpt>
      <trkpt lat="42.4881" lon="2.2381">
        <ele>1372.9</ele>
        <time>2017-05-21T13:33:07Z</time>
      </trkpt>
      <trkpt lat="42.48814" lon="2.23809">
        <ele>1372.9</ele>
        <time>2017-05-21T13:33:16Z</time>
      </trkpt>
      <trkpt lat="42.48817" lon="2.23809">
        <ele>1372.42</ele>
        <time>2017-05-21T13:33:26Z</time>
      </trkpt>
      <trkpt lat="42.48823" lon="2.23812">
        <ele>1370.98</ele>
        <time>2017-05-21T13:33:35Z</time>
      </trkpt>
      <trkpt lat="42.48827" lon="2.23817">
        <ele>1370.5</ele>
        <time>2017-05-21T13:33:44Z</time>
      </trkpt>
      <trkpt lat="42.48832" lon="2.23819">
        <ele>1369.05</ele>
        <time>2017-05-21T13:33:54Z</time>
      </trkpt>
      <trkpt lat="42.48839" lon="2.23825">
        <ele>1368.09</ele>
        <time>2017-05-21T13:34:03Z</time>
      </trkpt>
      <trkpt lat="42.48843" lon="2.23829">
        <ele>1367.61</ele>
        <time>2017-05-21T13:34:14Z</time>
      </trkpt>
      <trkpt lat="42.48845" lon="2.2383">
        <ele>1367.13</ele>
        <time>2017-05-21T13:34:23Z</time>
      </trkpt>
      <trkpt lat="42.48851" lon="2.23832">
        <ele>1366.17</ele>
        <time>2017-05-21T13:34:31Z</time>
      </trkpt>
      <trkpt lat="42.48863" lon="2.23838">
        <ele>1364.73</ele>
        <time>2017-05-21T13:34:42Z</time>
      </trkpt>
      <trkpt lat="42.48872" lon="2.23843">
        <ele>1362.81</ele>
        <time>2017-05-21T13:34:54Z</time>
      </trkpt>
      <trkpt lat="42.48876" lon="2.23852">
        <ele>1362.33</ele>
        <time>2017-05-21T13:35:04Z</time>
      </trkpt>
      <trkpt lat="42.48878" lon="2.23855">
        <ele>1361.84</ele>
        <time>2017-05-21T13:35:07Z</time>
      </trkpt>
      <trkpt lat="42.48883" lon="2.23864">
        <ele>1361.36</ele>
        <time>2017-05-21T13:35:18Z</time>
      </trkpt>
      <trkpt lat="42.48881" lon="2.23868">
        <ele>1358.96</ele>
        <time>2017-05-21T13:35:29Z</time>
      </trkpt>
      <trkpt lat="42.48885" lon="2.23865">
        <ele>1358</ele>
        <time>2017-05-21T13:35:41Z</time>
      </trkpt>
      <trkpt lat="42.48893" lon="2.23868">
        <ele>1357.52</ele>
        <time>2017-05-21T13:35:57Z</time>
      </trkpt>
      <trkpt lat="42.48891" lon="2.23871">
        <ele>1357.52</ele>
        <time>2017-05-21T13:36:11Z</time>
      </trkpt>
      <trkpt lat="42.48891" lon="2.23873">
        <ele>1357.04</ele>
        <time>2017-05-21T13:36:22Z</time>
      </trkpt>
      <trkpt lat="42.48888" lon="2.23878">
        <ele>1356.56</ele>
        <time>2017-05-21T13:36:31Z</time>
      </trkpt>
      <trkpt lat="42.4889" lon="2.23882">
        <ele>1358</ele>
        <time>2017-05-21T13:36:43Z</time>
      </trkpt>
      <trkpt lat="42.48891" lon="2.23882">
        <ele>1358</ele>
        <time>2017-05-21T13:36:44Z</time>
      </trkpt>
      <trkpt lat="42.48892" lon="2.23882">
        <ele>1358</ele>
        <time>2017-05-21T13:36:47Z</time>
      </trkpt>
      <trkpt lat="42.48897" lon="2.23884">
        <ele>1356.56</ele>
        <time>2017-05-21T13:36:54Z</time>
      </trkpt>
      <trkpt lat="42.48898" lon="2.23886">
        <ele>1356.08</ele>
        <time>2017-05-21T13:36:56Z</time>
      </trkpt>
      <trkpt lat="42.48905" lon="2.23893">
        <ele>1355.12</ele>
        <time>2017-05-21T13:37:04Z</time>
      </trkpt>
      <trkpt lat="42.48912" lon="2.239">
        <ele>1353.19</ele>
        <time>2017-05-21T13:37:16Z</time>
      </trkpt>
      <trkpt lat="42.48913" lon="2.23904">
        <ele>1352.71</ele>
        <time>2017-05-21T13:37:20Z</time>
      </trkpt>
      <trkpt lat="42.48919" lon="2.23911">
        <ele>1352.23</ele>
        <time>2017-05-21T13:37:28Z</time>
      </trkpt>
      <trkpt lat="42.48927" lon="2.23916">
        <ele>1351.27</ele>
        <time>2017-05-21T13:37:37Z</time>
      </trkpt>
      <trkpt lat="42.48929" lon="2.2392">
        <ele>1349.83</ele>
        <time>2017-05-21T13:37:48Z</time>
      </trkpt>
      <trkpt lat="42.48925" lon="2.23924">
        <ele>1348.87</ele>
        <time>2017-05-21T13:38:00Z</time>
      </trkpt>
      <trkpt lat="42.48923" lon="2.23927">
        <ele>1348.39</ele>
        <time>2017-05-21T13:38:10Z</time>
      </trkpt>
      <trkpt lat="42.48924" lon="2.23932">
        <ele>1348.39</ele>
        <time>2017-05-21T13:38:17Z</time>
      </trkpt>
      <trkpt lat="42.48938" lon="2.23931">
        <ele>1346.94</ele>
        <time>2017-05-21T13:38:32Z</time>
      </trkpt>
      <trkpt lat="42.4894" lon="2.23931">
        <ele>1346.46</ele>
        <time>2017-05-21T13:38:33Z</time>
      </trkpt>
      <trkpt lat="42.48942" lon="2.23931">
        <ele>1346.46</ele>
        <time>2017-05-21T13:38:34Z</time>
      </trkpt>
      <trkpt lat="42.48955" lon="2.23934">
        <ele>1345.02</ele>
        <time>2017-05-21T13:38:44Z</time>
      </trkpt>
      <trkpt lat="42.48956" lon="2.23937">
        <ele>1344.06</ele>
        <time>2017-05-21T13:38:56Z</time>
      </trkpt>
      <trkpt lat="42.48957" lon="2.23937">
        <ele>1344.06</ele>
        <time>2017-05-21T13:39:05Z</time>
      </trkpt>
      <trkpt lat="42.48961" lon="2.23939">
        <ele>1343.1</ele>
        <time>2017-05-21T13:39:13Z</time>
      </trkpt>
      <trkpt lat="42.48974" lon="2.23953">
        <ele>1341.66</ele>
        <time>2017-05-21T13:39:24Z</time>
      </trkpt>
      <trkpt lat="42.48982" lon="2.23955">
        <ele>1340.7</ele>
        <time>2017-05-21T13:39:30Z</time>
      </trkpt>
      <trkpt lat="42.48992" lon="2.23956">
        <ele>1339.25</ele>
        <time>2017-05-21T13:39:39Z</time>
      </trkpt>
      <trkpt lat="42.48998" lon="2.23962">
        <ele>1337.81</ele>
        <time>2017-05-21T13:39:49Z</time>
      </trkpt>
      <trkpt lat="42.48999" lon="2.23963">
        <ele>1337.33</ele>
        <time>2017-05-21T13:39:50Z</time>
      </trkpt>
      <trkpt lat="42.48999" lon="2.23963">
        <ele>1337.33</ele>
        <time>2017-05-21T13:39:51Z</time>
      </trkpt>
      <trkpt lat="42.4901" lon="2.23971">
        <ele>1335.89</ele>
        <time>2017-05-21T13:40:02Z</time>
      </trkpt>
      <trkpt lat="42.49019" lon="2.23972">
        <ele>1334.45</ele>
        <time>2017-05-21T13:40:12Z</time>
      </trkpt>
      <trkpt lat="42.49026" lon="2.23971">
        <ele>1333.49</ele>
        <time>2017-05-21T13:40:21Z</time>
      </trkpt>
      <trkpt lat="42.49034" lon="2.23969">
        <ele>1331.56</ele>
        <time>2017-05-21T13:40:32Z</time>
      </trkpt>
      <trkpt lat="42.49043" lon="2.2397">
        <ele>1330.12</ele>
        <time>2017-05-21T13:40:40Z</time>
      </trkpt>
      <trkpt lat="42.49054" lon="2.23968">
        <ele>1328.68</ele>
        <time>2017-05-21T13:40:51Z</time>
      </trkpt>
      <trkpt lat="42.49058" lon="2.23968">
        <ele>1327.72</ele>
        <time>2017-05-21T13:40:57Z</time>
      </trkpt>
      <trkpt lat="42.49064" lon="2.23964">
        <ele>1326.28</ele>
        <time>2017-05-21T13:41:06Z</time>
      </trkpt>
      <trkpt lat="42.49071" lon="2.23959">
        <ele>1325.31</ele>
        <time>2017-05-21T13:41:14Z</time>
      </trkpt>
      <trkpt lat="42.49077" lon="2.23952">
        <ele>1323.87</ele>
        <time>2017-05-21T13:41:23Z</time>
      </trkpt>
      <trkpt lat="42.49079" lon="2.23951">
        <ele>1323.39</ele>
        <time>2017-05-21T13:41:26Z</time>
      </trkpt>
      <trkpt lat="42.49085" lon="2.23948">
        <ele>1322.43</ele>
        <time>2017-05-21T13:41:31Z</time>
      </trkpt>
      <trkpt lat="42.4909" lon="2.23941">
        <ele>1320.51</ele>
        <time>2017-05-21T13:41:42Z</time>
      </trkpt>
      <trkpt lat="42.49095" lon="2.23929">
        <ele>1319.55</ele>
        <time>2017-05-21T13:41:50Z</time>
      </trkpt>
      <trkpt lat="42.49097" lon="2.23928">
        <ele>1318.59</ele>
        <time>2017-05-21T13:41:52Z</time>
      </trkpt>
      <trkpt lat="42.49099" lon="2.23927">
        <ele>1318.59</ele>
        <time>2017-05-21T13:41:54Z</time>
      </trkpt>
      <trkpt lat="42.49107" lon="2.23923">
        <ele>1317.14</ele>
        <time>2017-05-21T13:42:03Z</time>
      </trkpt>
      <trkpt lat="42.49113" lon="2.23918">
        <ele>1316.18</ele>
        <time>2017-05-21T13:42:11Z</time>
      </trkpt>
      <trkpt lat="42.49114" lon="2.23912">
        <ele>1315.22</ele>
        <time>2017-05-21T13:42:21Z</time>
      </trkpt>
      <trkpt lat="42.49117" lon="2.23905">
        <ele>1314.26</ele>
        <time>2017-05-21T13:42:30Z</time>
      </trkpt>
      <trkpt lat="42.4913" lon="2.23901">
        <ele>1313.78</ele>
        <time>2017-05-21T13:42:43Z</time>
      </trkpt>
      <trkpt lat="42.49133" lon="2.23899">
        <ele>1312.82</ele>
        <time>2017-05-21T13:42:51Z</time>
      </trkpt>
      <trkpt lat="42.4914" lon="2.23899">
        <ele>1312.34</ele>
        <time>2017-05-21T13:43:01Z</time>
      </trkpt>
      <trkpt lat="42.49144" lon="2.23896">
        <ele>1311.38</ele>
        <time>2017-05-21T13:43:09Z</time>
      </trkpt>
      <trkpt lat="42.49146" lon="2.23895">
        <ele>1310.9</ele>
        <time>2017-05-21T13:43:13Z</time>
      </trkpt>
      <trkpt lat="42.49151" lon="2.23897">
        <ele>1309.93</ele>
        <time>2017-05-21T13:43:22Z</time>
      </trkpt>
      <trkpt lat="42.4916" lon="2.23895">
        <ele>1308.49</ele>
        <time>2017-05-21T13:43:34Z</time>
      </trkpt>
      <trkpt lat="42.49168" lon="2.23898">
        <ele>1306.57</ele>
        <time>2017-05-21T13:43:45Z</time>
      </trkpt>
      <trkpt lat="42.49175" lon="2.23896">
        <ele>1305.61</ele>
        <time>2017-05-21T13:43:55Z</time>
      </trkpt>
      <trkpt lat="42.49179" lon="2.23899">
        <ele>1304.17</ele>
        <time>2017-05-21T13:44:00Z</time>
      </trkpt>
      <trkpt lat="42.4919" lon="2.23904">
        <ele>1302.72</ele>
        <time>2017-05-21T13:44:11Z</time>
      </trkpt>
      <trkpt lat="42.49198" lon="2.23902">
        <ele>1301.28</ele>
        <time>2017-05-21T13:44:21Z</time>
      </trkpt>
      <trkpt lat="42.49206" lon="2.23898">
        <ele>1299.36</ele>
        <time>2017-05-21T13:44:32Z</time>
      </trkpt>
      <trkpt lat="42.49213" lon="2.23894">
        <ele>1300.8</ele>
        <time>2017-05-21T13:44:43Z</time>
      </trkpt>
      <trkpt lat="42.49221" lon="2.23896">
        <ele>1303.2</ele>
        <time>2017-05-21T13:44:54Z</time>
      </trkpt>
      <trkpt lat="42.49228" lon="2.239">
        <ele>1304.65</ele>
        <time>2017-05-21T13:45:08Z</time>
      </trkpt>
      <trkpt lat="42.49228" lon="2.23899">
        <ele>1305.13</ele>
        <time>2017-05-21T13:45:17Z</time>
      </trkpt>
      <trkpt lat="42.49234" lon="2.23903">
        <ele>1305.13</ele>
        <time>2017-05-21T13:45:30Z</time>
      </trkpt>
      <trkpt lat="42.49234" lon="2.23903">
        <ele>1303.69</ele>
        <time>2017-05-21T13:45:32Z</time>
      </trkpt>
      <trkpt lat="42.49239" lon="2.23904">
        <ele>1301.76</ele>
        <time>2017-05-21T13:45:42Z</time>
      </trkpt>
      <trkpt lat="42.49244" lon="2.23899">
        <ele>1300.32</ele>
        <time>2017-05-21T13:45:52Z</time>
      </trkpt>
      <trkpt lat="42.49248" lon="2.23899">
        <ele>1299.36</ele>
        <time>2017-05-21T13:46:04Z</time>
      </trkpt>
      <trkpt lat="42.4925" lon="2.23901">
        <ele>1297.44</ele>
        <time>2017-05-21T13:46:16Z</time>
      </trkpt>
      <trkpt lat="42.4925" lon="2.23907">
        <ele>1295.51</ele>
        <time>2017-05-21T13:46:29Z</time>
      </trkpt>
      <trkpt lat="42.49255" lon="2.23907">
        <ele>1294.55</ele>
        <time>2017-05-21T13:46:39Z</time>
      </trkpt>
      <trkpt lat="42.49255" lon="2.23913">
        <ele>1292.63</ele>
        <time>2017-05-21T13:46:54Z</time>
      </trkpt>
      <trkpt lat="42.49257" lon="2.23914">
        <ele>1291.19</ele>
        <time>2017-05-21T13:47:03Z</time>
      </trkpt>
      <trkpt lat="42.49269" lon="2.23917">
        <ele>1289.75</ele>
        <time>2017-05-21T13:47:14Z</time>
      </trkpt>
      <trkpt lat="42.49277" lon="2.23919">
        <ele>1289.27</ele>
        <time>2017-05-21T13:47:22Z</time>
      </trkpt>
      <trkpt lat="42.49278" lon="2.23919">
        <ele>1289.27</ele>
        <time>2017-05-21T13:47:23Z</time>
      </trkpt>
      <trkpt lat="42.49288" lon="2.2392">
        <ele>1288.3</ele>
        <time>2017-05-21T13:47:32Z</time>
      </trkpt>
      <trkpt lat="42.49297" lon="2.23923">
        <ele>1286.86</ele>
        <time>2017-05-21T13:47:42Z</time>
      </trkpt>
      <trkpt lat="42.49299" lon="2.23923">
        <ele>1286.86</ele>
        <time>2017-05-21T13:47:43Z</time>
      </trkpt>
      <trkpt lat="42.493" lon="2.23923">
        <ele>1286.86</ele>
        <time>2017-05-21T13:47:44Z</time>
      </trkpt>
      <trkpt lat="42.49305" lon="2.23924">
        <ele>1285.9</ele>
        <time>2017-05-21T13:47:53Z</time>
      </trkpt>
      <trkpt lat="42.49313" lon="2.2393">
        <ele>1284.46</ele>
        <time>2017-05-21T13:48:02Z</time>
      </trkpt>
      <trkpt lat="42.49326" lon="2.2393">
        <ele>1284.46</ele>
        <time>2017-05-21T13:48:12Z</time>
      </trkpt>
      <trkpt lat="42.49331" lon="2.2393">
        <ele>1283.98</ele>
        <time>2017-05-21T13:48:16Z</time>
      </trkpt>
      <trkpt lat="42.49332" lon="2.2393">
        <ele>1283.98</ele>
        <time>2017-05-21T13:48:17Z</time>
      </trkpt>
      <trkpt lat="42.49338" lon="2.23927">
        <ele>1283.02</ele>
        <time>2017-05-21T13:48:26Z</time>
      </trkpt>
      <trkpt lat="42.49343" lon="2.23925">
        <ele>1282.06</ele>
        <time>2017-05-21T13:48:34Z</time>
      </trkpt>
      <trkpt lat="42.49351" lon="2.23921">
        <ele>1280.61</ele>
        <time>2017-05-21T13:48:43Z</time>
      </trkpt>
      <trkpt lat="42.49353" lon="2.2392">
        <ele>1280.61</ele>
        <time>2017-05-21T13:48:45Z</time>
      </trkpt>
      <trkpt lat="42.49354" lon="2.2392">
        <ele>1280.61</ele>
        <time>2017-05-21T13:48:46Z</time>
      </trkpt>
      <trkpt lat="42.49362" lon="2.23914">
        <ele>1279.65</ele>
        <time>2017-05-21T13:48:54Z</time>
      </trkpt>
      <trkpt lat="42.49363" lon="2.23913">
        <ele>1278.69</ele>
        <time>2017-05-21T13:48:55Z</time>
      </trkpt>
      <trkpt lat="42.49372" lon="2.23906">
        <ele>1277.73</ele>
        <time>2017-05-21T13:49:04Z</time>
      </trkpt>
      <trkpt lat="42.49377" lon="2.23902">
        <ele>1276.77</ele>
        <time>2017-05-21T13:49:08Z</time>
      </trkpt>
      <trkpt lat="42.49384" lon="2.23892">
        <ele>1275.33</ele>
        <time>2017-05-21T13:49:19Z</time>
      </trkpt>
      <trkpt lat="42.49389" lon="2.23886">
        <ele>1273.4</ele>
        <time>2017-05-21T13:49:26Z</time>
      </trkpt>
      <trkpt lat="42.49395" lon="2.2388">
        <ele>1272.44</ele>
        <time>2017-05-21T13:49:34Z</time>
      </trkpt>
      <trkpt lat="42.49406" lon="2.23874">
        <ele>1271</ele>
        <time>2017-05-21T13:49:43Z</time>
      </trkpt>
      <trkpt lat="42.49407" lon="2.23874">
        <ele>1270.52</ele>
        <time>2017-05-21T13:49:44Z</time>
      </trkpt>
      <trkpt lat="42.4941" lon="2.23867">
        <ele>1270.52</ele>
        <time>2017-05-21T13:49:52Z</time>
      </trkpt>
      <trkpt lat="42.49411" lon="2.23866">
        <ele>1269.56</ele>
        <time>2017-05-21T13:50:00Z</time>
      </trkpt>
      <trkpt lat="42.49414" lon="2.23862">
        <ele>1269.56</ele>
        <time>2017-05-21T13:50:22Z</time>
      </trkpt>
      <trkpt lat="42.49411" lon="2.23871">
        <ele>1269.56</ele>
        <time>2017-05-21T13:50:46Z</time>
      </trkpt>
      <trkpt lat="42.49413" lon="2.2387">
        <ele>1269.56</ele>
        <time>2017-05-21T13:50:52Z</time>
      </trkpt>
      <trkpt lat="42.49415" lon="2.23876">
        <ele>1269.56</ele>
        <time>2017-05-21T13:51:06Z</time>
      </trkpt>
      <trkpt lat="42.49415" lon="2.23873">
        <ele>1270.04</ele>
        <time>2017-05-21T13:51:16Z</time>
      </trkpt>
      <trkpt lat="42.49417" lon="2.23871">
        <ele>1270.04</ele>
        <time>2017-05-21T13:51:17Z</time>
      </trkpt>
      <trkpt lat="42.49424" lon="2.23862">
        <ele>1269.56</ele>
        <time>2017-05-21T13:51:26Z</time>
      </trkpt>
      <trkpt lat="42.49427" lon="2.23852">
        <ele>1268.6</ele>
        <time>2017-05-21T13:51:35Z</time>
      </trkpt>
      <trkpt lat="42.49425" lon="2.23846">
        <ele>1267.64</ele>
        <time>2017-05-21T13:51:45Z</time>
      </trkpt>
      <trkpt lat="42.49428" lon="2.2384">
        <ele>1265.71</ele>
        <time>2017-05-21T13:51:54Z</time>
      </trkpt>
      <trkpt lat="42.49433" lon="2.23833">
        <ele>1265.23</ele>
        <time>2017-05-21T13:52:04Z</time>
      </trkpt>
      <trkpt lat="42.49441" lon="2.23827">
        <ele>1263.79</ele>
        <time>2017-05-21T13:52:15Z</time>
      </trkpt>
      <trkpt lat="42.49444" lon="2.23817">
        <ele>1262.83</ele>
        <time>2017-05-21T13:52:24Z</time>
      </trkpt>
      <trkpt lat="42.49453" lon="2.23804">
        <ele>1261.87</ele>
        <time>2017-05-21T13:52:34Z</time>
      </trkpt>
      <trkpt lat="42.49457" lon="2.23798">
        <ele>1261.39</ele>
        <time>2017-05-21T13:52:39Z</time>
      </trkpt>
      <trkpt lat="42.49461" lon="2.23792">
        <ele>1259.94</ele>
        <time>2017-05-21T13:52:46Z</time>
      </trkpt>
      <trkpt lat="42.49463" lon="2.23785">
        <ele>1259.46</ele>
        <time>2017-05-21T13:52:53Z</time>
      </trkpt>
      <trkpt lat="42.49469" lon="2.23781">
        <ele>1258.5</ele>
        <time>2017-05-21T13:53:00Z</time>
      </trkpt>
      <trkpt lat="42.49476" lon="2.23774">
        <ele>1257.54</ele>
        <time>2017-05-21T13:53:10Z</time>
      </trkpt>
      <trkpt lat="42.49479" lon="2.23767">
        <ele>1256.58</ele>
        <time>2017-05-21T13:53:18Z</time>
      </trkpt>
      <trkpt lat="42.49482" lon="2.23767">
        <ele>1256.58</ele>
        <time>2017-05-21T13:53:20Z</time>
      </trkpt>
      <trkpt lat="42.49489" lon="2.23764">
        <ele>1255.14</ele>
        <time>2017-05-21T13:53:29Z</time>
      </trkpt>
      <trkpt lat="42.49493" lon="2.23764">
        <ele>1254.18</ele>
        <time>2017-05-21T13:53:38Z</time>
      </trkpt>
      <trkpt lat="42.49494" lon="2.23768">
        <ele>1253.7</ele>
        <time>2017-05-21T13:53:47Z</time>
      </trkpt>
      <trkpt lat="42.49496" lon="2.23767">
        <ele>1253.7</ele>
        <time>2017-05-21T13:53:57Z</time>
      </trkpt>
      <trkpt lat="42.49499" lon="2.23764">
        <ele>1253.7</ele>
        <time>2017-05-21T13:54:05Z</time>
      </trkpt>
      <trkpt lat="42.49501" lon="2.23762">
        <ele>1253.22</ele>
        <time>2017-05-21T13:54:14Z</time>
      </trkpt>
      <trkpt lat="42.49503" lon="2.23755">
        <ele>1251.77</ele>
        <time>2017-05-21T13:54:24Z</time>
      </trkpt>
      <trkpt lat="42.49507" lon="2.23752">
        <ele>1250.81</ele>
        <time>2017-05-21T13:54:37Z</time>
      </trkpt>
      <trkpt lat="42.49508" lon="2.23748">
        <ele>1250.81</ele>
        <time>2017-05-21T13:54:48Z</time>
      </trkpt>
      <trkpt lat="42.49514" lon="2.2375">
        <ele>1250.81</ele>
        <time>2017-05-21T13:54:59Z</time>
      </trkpt>
      <trkpt lat="42.49513" lon="2.23751">
        <ele>1250.81</ele>
        <time>2017-05-21T13:55:08Z</time>
      </trkpt>
      <trkpt lat="42.49511" lon="2.23756">
        <ele>1250.81</ele>
        <time>2017-05-21T13:55:28Z</time>
      </trkpt>
      <trkpt lat="42.49508" lon="2.23756">
        <ele>1250.33</ele>
        <time>2017-05-21T13:55:36Z</time>
      </trkpt>
      <trkpt lat="42.49502" lon="2.2376">
        <ele>1250.33</ele>
        <time>2017-05-21T13:55:54Z</time>
      </trkpt>
      <trkpt lat="42.49501" lon="2.23758">
        <ele>1250.81</ele>
        <time>2017-05-21T13:56:13Z</time>
      </trkpt>
      <trkpt lat="42.49503" lon="2.23767">
        <ele>1251.29</ele>
        <time>2017-05-21T13:56:32Z</time>
      </trkpt>
      <trkpt lat="42.49505" lon="2.23758">
        <ele>1251.29</ele>
        <time>2017-05-21T13:56:43Z</time>
      </trkpt>
      <trkpt lat="42.49509" lon="2.23759">
        <ele>1251.29</ele>
        <time>2017-05-21T13:56:54Z</time>
      </trkpt>
      <trkpt lat="42.49511" lon="2.23764">
        <ele>1251.77</ele>
        <time>2017-05-21T13:57:04Z</time>
      </trkpt>
      <trkpt lat="42.49516" lon="2.2377">
        <ele>1251.29</ele>
        <time>2017-05-21T13:57:19Z</time>
      </trkpt>
      <trkpt lat="42.4952" lon="2.23761">
        <ele>1251.29</ele>
        <time>2017-05-21T13:57:34Z</time>
      </trkpt>
      <trkpt lat="42.49521" lon="2.23762">
        <ele>1254.18</ele>
        <time>2017-05-21T13:57:46Z</time>
      </trkpt>
      <trkpt lat="42.49527" lon="2.23755">
        <ele>1254.18</ele>
        <time>2017-05-21T13:57:57Z</time>
      </trkpt>
      <trkpt lat="42.4953" lon="2.23752">
        <ele>1254.18</ele>
        <time>2017-05-21T13:58:06Z</time>
      </trkpt>
      <trkpt lat="42.49533" lon="2.23749">
        <ele>1253.22</ele>
        <time>2017-05-21T13:58:15Z</time>
      </trkpt>
      <trkpt lat="42.49537" lon="2.23747">
        <ele>1252.74</ele>
        <time>2017-05-21T13:58:23Z</time>
      </trkpt>
      <trkpt lat="42.49539" lon="2.23741">
        <ele>1251.29</ele>
        <time>2017-05-21T13:58:35Z</time>
      </trkpt>
      <trkpt lat="42.49541" lon="2.23737">
        <ele>1251.77</ele>
        <time>2017-05-21T13:58:40Z</time>
      </trkpt>
      <trkpt lat="42.49545" lon="2.23738">
        <ele>1252.74</ele>
        <time>2017-05-21T13:58:49Z</time>
      </trkpt>
      <trkpt lat="42.49548" lon="2.23741">
        <ele>1250.81</ele>
        <time>2017-05-21T13:59:01Z</time>
      </trkpt>
      <trkpt lat="42.49552" lon="2.2374">
        <ele>1250.33</ele>
        <time>2017-05-21T13:59:09Z</time>
      </trkpt>
      <trkpt lat="42.49552" lon="2.23735">
        <ele>1248.41</ele>
        <time>2017-05-21T13:59:22Z</time>
      </trkpt>
      <trkpt lat="42.49552" lon="2.23734">
        <ele>1247.45</ele>
        <time>2017-05-21T13:59:31Z</time>
      </trkpt>
      <trkpt lat="42.49551" lon="2.23721">
        <ele>1246.49</ele>
        <time>2017-05-21T13:59:41Z</time>
      </trkpt>
      <trkpt lat="42.4955" lon="2.23705">
        <ele>1246.49</ele>
        <time>2017-05-21T13:59:54Z</time>
      </trkpt>
      <trkpt lat="42.4955" lon="2.23707">
        <ele>1247.45</ele>
        <time>2017-05-21T13:59:58Z</time>
      </trkpt>
      <trkpt lat="42.49553" lon="2.2371">
        <ele>1246.01</ele>
        <time>2017-05-21T14:00:04Z</time>
      </trkpt>
      <trkpt lat="42.49557" lon="2.23713">
        <ele>1245.53</ele>
        <time>2017-05-21T14:00:13Z</time>
      </trkpt>
      <trkpt lat="42.4956" lon="2.23715">
        <ele>1244.56</ele>
        <time>2017-05-21T14:00:21Z</time>
      </trkpt>
      <trkpt lat="42.49565" lon="2.23717">
        <ele>1244.08</ele>
        <time>2017-05-21T14:00:29Z</time>
      </trkpt>
      <trkpt lat="42.49566" lon="2.23715">
        <ele>1245.53</ele>
        <time>2017-05-21T14:00:38Z</time>
      </trkpt>
      <trkpt lat="42.4957" lon="2.23717">
        <ele>1244.08</ele>
        <time>2017-05-21T14:00:45Z</time>
      </trkpt>
      <trkpt lat="42.49571" lon="2.23717">
        <ele>1244.08</ele>
        <time>2017-05-21T14:00:46Z</time>
      </trkpt>
      <trkpt lat="42.49581" lon="2.23715">
        <ele>1242.64</ele>
        <time>2017-05-21T14:00:57Z</time>
      </trkpt>
      <trkpt lat="42.49588" lon="2.23713">
        <ele>1241.2</ele>
        <time>2017-05-21T14:01:07Z</time>
      </trkpt>
      <trkpt lat="42.49594" lon="2.23711">
        <ele>1239.76</ele>
        <time>2017-05-21T14:01:15Z</time>
      </trkpt>
      <trkpt lat="42.49597" lon="2.23709">
        <ele>1239.28</ele>
        <time>2017-05-21T14:01:19Z</time>
      </trkpt>
      <trkpt lat="42.49606" lon="2.23706">
        <ele>1238.32</ele>
        <time>2017-05-21T14:01:28Z</time>
      </trkpt>
      <trkpt lat="42.49614" lon="2.23704">
        <ele>1236.39</ele>
        <time>2017-05-21T14:01:37Z</time>
      </trkpt>
      <trkpt lat="42.49616" lon="2.23704">
        <ele>1236.39</ele>
        <time>2017-05-21T14:01:39Z</time>
      </trkpt>
      <trkpt lat="42.49624" lon="2.23702">
        <ele>1235.43</ele>
        <time>2017-05-21T14:01:48Z</time>
      </trkpt>
      <trkpt lat="42.4963" lon="2.23698">
        <ele>1234.47</ele>
        <time>2017-05-21T14:01:57Z</time>
      </trkpt>
      <trkpt lat="42.49636" lon="2.23695">
        <ele>1233.51</ele>
        <time>2017-05-21T14:02:03Z</time>
      </trkpt>
      <trkpt lat="42.49642" lon="2.23688">
        <ele>1232.55</ele>
        <time>2017-05-21T14:02:11Z</time>
      </trkpt>
      <trkpt lat="42.4965" lon="2.23685">
        <ele>1232.07</ele>
        <time>2017-05-21T14:02:20Z</time>
      </trkpt>
      <trkpt lat="42.49658" lon="2.23682">
        <ele>1231.11</ele>
        <time>2017-05-21T14:02:30Z</time>
      </trkpt>
      <trkpt lat="42.49667" lon="2.23679">
        <ele>1230.14</ele>
        <time>2017-05-21T14:02:39Z</time>
      </trkpt>
      <trkpt lat="42.49691" lon="2.23675">
        <ele>1228.7</ele>
        <time>2017-05-21T14:02:49Z</time>
      </trkpt>
      <trkpt lat="42.49692" lon="2.23671">
        <ele>1228.7</ele>
        <time>2017-05-21T14:02:53Z</time>
      </trkpt>
      <trkpt lat="42.49702" lon="2.23668">
        <ele>1227.26</ele>
        <time>2017-05-21T14:03:04Z</time>
      </trkpt>
      <trkpt lat="42.49713" lon="2.23667">
        <ele>1226.3</ele>
        <time>2017-05-21T14:03:15Z</time>
      </trkpt>
      <trkpt lat="42.49721" lon="2.23665">
        <ele>1225.34</ele>
        <time>2017-05-21T14:03:23Z</time>
      </trkpt>
      <trkpt lat="42.49727" lon="2.23665">
        <ele>1224.38</ele>
        <time>2017-05-21T14:03:28Z</time>
      </trkpt>
      <trkpt lat="42.49739" lon="2.23661">
        <ele>1223.42</ele>
        <time>2017-05-21T14:03:37Z</time>
      </trkpt>
      <trkpt lat="42.49752" lon="2.23657">
        <ele>1221.97</ele>
        <time>2017-05-21T14:03:48Z</time>
      </trkpt>
      <trkpt lat="42.49765" lon="2.23657">
        <ele>1220.05</ele>
        <time>2017-05-21T14:04:00Z</time>
      </trkpt>
      <trkpt lat="42.49775" lon="2.23655">
        <ele>1218.61</ele>
        <time>2017-05-21T14:04:10Z</time>
      </trkpt>
      <trkpt lat="42.49782" lon="2.2365">
        <ele>1216.69</ele>
        <time>2017-05-21T14:04:21Z</time>
      </trkpt>
      <trkpt lat="42.49785" lon="2.23646">
        <ele>1216.21</ele>
        <time>2017-05-21T14:04:29Z</time>
      </trkpt>
      <trkpt lat="42.49797" lon="2.23637">
        <ele>1214.28</ele>
        <time>2017-05-21T14:04:39Z</time>
      </trkpt>
      <trkpt lat="42.49807" lon="2.23631">
        <ele>1212.84</ele>
        <time>2017-05-21T14:04:49Z</time>
      </trkpt>
      <trkpt lat="42.49812" lon="2.23626">
        <ele>1211.88</ele>
        <time>2017-05-21T14:04:58Z</time>
      </trkpt>
      <trkpt lat="42.49818" lon="2.23621">
        <ele>1209.96</ele>
        <time>2017-05-21T14:05:07Z</time>
      </trkpt>
      <trkpt lat="42.49826" lon="2.23613">
        <ele>1209</ele>
        <time>2017-05-21T14:05:16Z</time>
      </trkpt>
      <trkpt lat="42.49837" lon="2.23605">
        <ele>1207.55</ele>
        <time>2017-05-21T14:05:28Z</time>
      </trkpt>
      <trkpt lat="42.49849" lon="2.23596">
        <ele>1206.59</ele>
        <time>2017-05-21T14:05:39Z</time>
      </trkpt>
      <trkpt lat="42.49858" lon="2.23587">
        <ele>1205.63</ele>
        <time>2017-05-21T14:05:49Z</time>
      </trkpt>
      <trkpt lat="42.49862" lon="2.23581">
        <ele>1204.67</ele>
        <time>2017-05-21T14:05:56Z</time>
      </trkpt>
      <trkpt lat="42.4987" lon="2.2357">
        <ele>1203.23</ele>
        <time>2017-05-21T14:06:05Z</time>
      </trkpt>
      <trkpt lat="42.49876" lon="2.23561">
        <ele>1202.75</ele>
        <time>2017-05-21T14:06:14Z</time>
      </trkpt>
      <trkpt lat="42.49882" lon="2.23555">
        <ele>1201.3</ele>
        <time>2017-05-21T14:06:22Z</time>
      </trkpt>
      <trkpt lat="42.49891" lon="2.23546">
        <ele>1200.34</ele>
        <time>2017-05-21T14:06:33Z</time>
      </trkpt>
      <trkpt lat="42.49899" lon="2.23534">
        <ele>1199.38</ele>
        <time>2017-05-21T14:06:42Z</time>
      </trkpt>
      <trkpt lat="42.49899" lon="2.23533">
        <ele>1199.38</ele>
        <time>2017-05-21T14:06:43Z</time>
      </trkpt>
      <trkpt lat="42.49904" lon="2.23523">
        <ele>1197.94</ele>
        <time>2017-05-21T14:06:49Z</time>
      </trkpt>
      <trkpt lat="42.49907" lon="2.2352">
        <ele>1197.94</ele>
        <time>2017-05-21T14:06:53Z</time>
      </trkpt>
      <trkpt lat="42.49908" lon="2.23519">
        <ele>1197.46</ele>
        <time>2017-05-21T14:06:54Z</time>
      </trkpt>
      <trkpt lat="42.49914" lon="2.23507">
        <ele>1196.02</ele>
        <time>2017-05-21T14:07:04Z</time>
      </trkpt>
      <trkpt lat="42.49917" lon="2.23502">
        <ele>1196.02</ele>
        <time>2017-05-21T14:07:12Z</time>
      </trkpt>
      <trkpt lat="42.49918" lon="2.23496">
        <ele>1194.58</ele>
        <time>2017-05-21T14:07:21Z</time>
      </trkpt>
      <trkpt lat="42.4992" lon="2.23494">
        <ele>1194.58</ele>
        <time>2017-05-21T14:07:22Z</time>
      </trkpt>
      <trkpt lat="42.4993" lon="2.23479">
        <ele>1193.61</ele>
        <time>2017-05-21T14:07:30Z</time>
      </trkpt>
      <trkpt lat="42.49941" lon="2.23472">
        <ele>1192.65</ele>
        <time>2017-05-21T14:07:39Z</time>
      </trkpt>
      <trkpt lat="42.49947" lon="2.23465">
        <ele>1191.21</ele>
        <time>2017-05-21T14:07:50Z</time>
      </trkpt>
      <trkpt lat="42.49956" lon="2.23456">
        <ele>1189.77</ele>
        <time>2017-05-21T14:07:59Z</time>
      </trkpt>
      <trkpt lat="42.49963" lon="2.2345">
        <ele>1188.33</ele>
        <time>2017-05-21T14:08:07Z</time>
      </trkpt>
      <trkpt lat="42.49974" lon="2.23444">
        <ele>1186.88</ele>
        <time>2017-05-21T14:08:17Z</time>
      </trkpt>
      <trkpt lat="42.49981" lon="2.2344">
        <ele>1184.96</ele>
        <time>2017-05-21T14:08:27Z</time>
      </trkpt>
      <trkpt lat="42.49983" lon="2.23438">
        <ele>1184.48</ele>
        <time>2017-05-21T14:08:30Z</time>
      </trkpt>
      <trkpt lat="42.4999" lon="2.23432">
        <ele>1183.52</ele>
        <time>2017-05-21T14:08:37Z</time>
      </trkpt>
      <trkpt lat="42.49993" lon="2.23429">
        <ele>1183.04</ele>
        <time>2017-05-21T14:08:41Z</time>
      </trkpt>
      <trkpt lat="42.50004" lon="2.23419">
        <ele>1181.6</ele>
        <time>2017-05-21T14:08:53Z</time>
      </trkpt>
      <trkpt lat="42.50011" lon="2.23411">
        <ele>1180.16</ele>
        <time>2017-05-21T14:09:03Z</time>
      </trkpt>
      <trkpt lat="42.5002" lon="2.23403">
        <ele>1178.71</ele>
        <time>2017-05-21T14:09:12Z</time>
      </trkpt>
      <trkpt lat="42.50028" lon="2.23395">
        <ele>1177.27</ele>
        <time>2017-05-21T14:09:23Z</time>
      </trkpt>
      <trkpt lat="42.5003" lon="2.23392">
        <ele>1176.79</ele>
        <time>2017-05-21T14:09:26Z</time>
      </trkpt>
      <trkpt lat="42.50035" lon="2.23385">
        <ele>1175.35</ele>
        <time>2017-05-21T14:09:35Z</time>
      </trkpt>
      <trkpt lat="42.50036" lon="2.23371">
        <ele>1174.39</ele>
        <time>2017-05-21T14:09:44Z</time>
      </trkpt>
      <trkpt lat="42.50037" lon="2.23362">
        <ele>1172.95</ele>
        <time>2017-05-21T14:09:54Z</time>
      </trkpt>
      <trkpt lat="42.50042" lon="2.23351">
        <ele>1171.98</ele>
        <time>2017-05-21T14:10:04Z</time>
      </trkpt>
      <trkpt lat="42.50044" lon="2.23344">
        <ele>1171.5</ele>
        <time>2017-05-21T14:10:11Z</time>
      </trkpt>
      <trkpt lat="42.5004" lon="2.2333">
        <ele>1171.02</ele>
        <time>2017-05-21T14:10:13Z</time>
      </trkpt>
      <trkpt lat="42.50037" lon="2.23318">
        <ele>1171.02</ele>
        <time>2017-05-21T14:10:15Z</time>
      </trkpt>
      <trkpt lat="42.50037" lon="2.23306">
        <ele>1170.54</ele>
        <time>2017-05-21T14:10:24Z</time>
      </trkpt>
      <trkpt lat="42.50037" lon="2.23306">
        <ele>1170.54</ele>
        <time>2017-05-21T14:10:25Z</time>
      </trkpt>
      <trkpt lat="42.50038" lon="2.23285">
        <ele>1169.1</ele>
        <time>2017-05-21T14:10:36Z</time>
      </trkpt>
      <trkpt lat="42.5004" lon="2.23282">
        <ele>1168.14</ele>
        <time>2017-05-21T14:10:40Z</time>
      </trkpt>
      <trkpt lat="42.50041" lon="2.2328">
        <ele>1167.66</ele>
        <time>2017-05-21T14:10:42Z</time>
      </trkpt>
      <trkpt lat="42.5005" lon="2.23275">
        <ele>1166.7</ele>
        <time>2017-05-21T14:10:52Z</time>
      </trkpt>
      <trkpt lat="42.50056" lon="2.23275">
        <ele>1165.26</ele>
        <time>2017-05-21T14:11:01Z</time>
      </trkpt>
      <trkpt lat="42.50062" lon="2.23275">
        <ele>1164.29</ele>
        <time>2017-05-21T14:11:10Z</time>
      </trkpt>
      <trkpt lat="42.50072" lon="2.23276">
        <ele>1162.37</ele>
        <time>2017-05-21T14:11:21Z</time>
      </trkpt>
      <trkpt lat="42.50082" lon="2.23275">
        <ele>1161.89</ele>
        <time>2017-05-21T14:11:30Z</time>
      </trkpt>
      <trkpt lat="42.50089" lon="2.23271">
        <ele>1160.45</ele>
        <time>2017-05-21T14:11:41Z</time>
      </trkpt>
      <trkpt lat="42.50097" lon="2.23264">
        <ele>1159.49</ele>
        <time>2017-05-21T14:11:51Z</time>
      </trkpt>
      <trkpt lat="42.50104" lon="2.23259">
        <ele>1158.53</ele>
        <time>2017-05-21T14:12:01Z</time>
      </trkpt>
      <trkpt lat="42.50107" lon="2.23254">
        <ele>1157.56</ele>
        <time>2017-05-21T14:12:06Z</time>
      </trkpt>
      <trkpt lat="42.50112" lon="2.23248">
        <ele>1157.08</ele>
        <time>2017-05-21T14:12:11Z</time>
      </trkpt>
      <trkpt lat="42.50114" lon="2.23246">
        <ele>1156.6</ele>
        <time>2017-05-21T14:12:13Z</time>
      </trkpt>
      <trkpt lat="42.50122" lon="2.23239">
        <ele>1156.12</ele>
        <time>2017-05-21T14:12:22Z</time>
      </trkpt>
      <trkpt lat="42.5014" lon="2.23214">
        <ele>1154.68</ele>
        <time>2017-05-21T14:12:32Z</time>
      </trkpt>
      <trkpt lat="42.50144" lon="2.23203">
        <ele>1154.2</ele>
        <time>2017-05-21T14:12:41Z</time>
      </trkpt>
      <trkpt lat="42.50148" lon="2.23187">
        <ele>1153.24</ele>
        <time>2017-05-21T14:12:51Z</time>
      </trkpt>
      <trkpt lat="42.50153" lon="2.23175">
        <ele>1152.76</ele>
        <time>2017-05-21T14:13:01Z</time>
      </trkpt>
      <trkpt lat="42.50159" lon="2.23165">
        <ele>1151.8</ele>
        <time>2017-05-21T14:13:11Z</time>
      </trkpt>
      <trkpt lat="42.50164" lon="2.23158">
        <ele>1151.32</ele>
        <time>2017-05-21T14:13:21Z</time>
      </trkpt>
      <trkpt lat="42.50169" lon="2.23149">
        <ele>1150.84</ele>
        <time>2017-05-21T14:13:32Z</time>
      </trkpt>
      <trkpt lat="42.50171" lon="2.23143">
        <ele>1150.84</ele>
        <time>2017-05-21T14:13:45Z</time>
      </trkpt>
      <trkpt lat="42.50178" lon="2.23143">
        <ele>1150.84</ele>
        <time>2017-05-21T14:13:56Z</time>
      </trkpt>
      <trkpt lat="42.50183" lon="2.23134">
        <ele>1150.84</ele>
        <time>2017-05-21T14:14:07Z</time>
      </trkpt>
      <trkpt lat="42.50187" lon="2.2314">
        <ele>1150.84</ele>
        <time>2017-05-21T14:14:19Z</time>
      </trkpt>
      <trkpt lat="42.5019" lon="2.23144">
        <ele>1149.39</ele>
        <time>2017-05-21T14:14:30Z</time>
      </trkpt>
      <trkpt lat="42.50195" lon="2.23145">
        <ele>1148.43</ele>
        <time>2017-05-21T14:14:41Z</time>
      </trkpt>
      <trkpt lat="42.50197" lon="2.23148">
        <ele>1147.95</ele>
        <time>2017-05-21T14:14:54Z</time>
      </trkpt>
      <trkpt lat="42.50201" lon="2.2315">
        <ele>1147.47</ele>
        <time>2017-05-21T14:15:06Z</time>
      </trkpt>
      <trkpt lat="42.50205" lon="2.23153">
        <ele>1146.99</ele>
        <time>2017-05-21T14:15:17Z</time>
      </trkpt>
      <trkpt lat="42.50204" lon="2.23149">
        <ele>1146.99</ele>
        <time>2017-05-21T14:15:33Z</time>
      </trkpt>
      <trkpt lat="42.50205" lon="2.23151">
        <ele>1145.55</ele>
        <time>2017-05-21T14:15:45Z</time>
      </trkpt>
      <trkpt lat="42.50204" lon="2.2315">
        <ele>1144.59</ele>
        <time>2017-05-21T14:16:01Z</time>
      </trkpt>
      <trkpt lat="42.50204" lon="2.23155">
        <ele>1144.59</ele>
        <time>2017-05-21T14:16:17Z</time>
      </trkpt>
      <trkpt lat="42.50201" lon="2.23148">
        <ele>1144.11</ele>
        <time>2017-05-21T14:16:35Z</time>
      </trkpt>
      <trkpt lat="42.502" lon="2.23146">
        <ele>1144.11</ele>
        <time>2017-05-21T14:16:48Z</time>
      </trkpt>
      <trkpt lat="42.50202" lon="2.23149">
        <ele>1144.11</ele>
        <time>2017-05-21T14:16:59Z</time>
      </trkpt>
      <trkpt lat="42.50207" lon="2.23153">
        <ele>1143.14</ele>
        <time>2017-05-21T14:17:13Z</time>
      </trkpt>
      <trkpt lat="42.50213" lon="2.23156">
        <ele>1142.66</ele>
        <time>2017-05-21T14:17:24Z</time>
      </trkpt>
      <trkpt lat="42.50214" lon="2.2315">
        <ele>1141.7</ele>
        <time>2017-05-21T14:17:36Z</time>
      </trkpt>
      <trkpt lat="42.50218" lon="2.23141">
        <ele>1140.74</ele>
        <time>2017-05-21T14:17:47Z</time>
      </trkpt>
      <trkpt lat="42.50223" lon="2.23133">
        <ele>1139.3</ele>
        <time>2017-05-21T14:17:56Z</time>
      </trkpt>
      <trkpt lat="42.50225" lon="2.23126">
        <ele>1138.82</ele>
        <time>2017-05-21T14:18:06Z</time>
      </trkpt>
      <trkpt lat="42.50227" lon="2.2312">
        <ele>1137.86</ele>
        <time>2017-05-21T14:18:16Z</time>
      </trkpt>
      <trkpt lat="42.50229" lon="2.23115">
        <ele>1136.42</ele>
        <time>2017-05-21T14:18:24Z</time>
      </trkpt>
      <trkpt lat="42.50228" lon="2.23111">
        <ele>1136.42</ele>
        <time>2017-05-21T14:18:33Z</time>
      </trkpt>
      <trkpt lat="42.50229" lon="2.23104">
        <ele>1135.94</ele>
        <time>2017-05-21T14:18:45Z</time>
      </trkpt>
      <trkpt lat="42.50229" lon="2.23102">
        <ele>1136.9</ele>
        <time>2017-05-21T14:18:46Z</time>
      </trkpt>
      <trkpt lat="42.50228" lon="2.23095">
        <ele>1136.9</ele>
        <time>2017-05-21T14:18:55Z</time>
      </trkpt>
      <trkpt lat="42.50235" lon="2.23083">
        <ele>1135.45</ele>
        <time>2017-05-21T14:19:05Z</time>
      </trkpt>
      <trkpt lat="42.50238" lon="2.23077">
        <ele>1134.01</ele>
        <time>2017-05-21T14:19:15Z</time>
      </trkpt>
      <trkpt lat="42.50242" lon="2.23073">
        <ele>1133.05</ele>
        <time>2017-05-21T14:19:24Z</time>
      </trkpt>
      <trkpt lat="42.50249" lon="2.23065">
        <ele>1132.09</ele>
        <time>2017-05-21T14:19:35Z</time>
      </trkpt>
      <trkpt lat="42.50253" lon="2.23055">
        <ele>1130.17</ele>
        <time>2017-05-21T14:19:45Z</time>
      </trkpt>
      <trkpt lat="42.50261" lon="2.23052">
        <ele>1128.73</ele>
        <time>2017-05-21T14:19:53Z</time>
      </trkpt>
      <trkpt lat="42.50264" lon="2.23051">
        <ele>1128.24</ele>
        <time>2017-05-21T14:20:07Z</time>
      </trkpt>
      <trkpt lat="42.50272" lon="2.23051">
        <ele>1127.28</ele>
        <time>2017-05-21T14:20:18Z</time>
      </trkpt>
      <trkpt lat="42.50284" lon="2.23051">
        <ele>1126.32</ele>
        <time>2017-05-21T14:20:28Z</time>
      </trkpt>
      <trkpt lat="42.50287" lon="2.23053">
        <ele>1127.76</ele>
        <time>2017-05-21T14:20:38Z</time>
      </trkpt>
      <trkpt lat="42.50289" lon="2.23059">
        <ele>1129.21</ele>
        <time>2017-05-21T14:20:50Z</time>
      </trkpt>
      <trkpt lat="42.50293" lon="2.23062">
        <ele>1129.69</ele>
        <time>2017-05-21T14:21:02Z</time>
      </trkpt>
      <trkpt lat="42.50292" lon="2.23065">
        <ele>1129.69</ele>
        <time>2017-05-21T14:21:12Z</time>
      </trkpt>
      <trkpt lat="42.50284" lon="2.23053">
        <ele>1129.69</ele>
        <time>2017-05-21T14:21:26Z</time>
      </trkpt>
      <trkpt lat="42.50288" lon="2.23057">
        <ele>1129.69</ele>
        <time>2017-05-21T14:21:39Z</time>
      </trkpt>
      <trkpt lat="42.50288" lon="2.23058">
        <ele>1129.69</ele>
        <time>2017-05-21T14:21:51Z</time>
      </trkpt>
      <trkpt lat="42.5029" lon="2.23055">
        <ele>1128.24</ele>
        <time>2017-05-21T14:21:59Z</time>
      </trkpt>
      <trkpt lat="42.50295" lon="2.23053">
        <ele>1126.32</ele>
        <time>2017-05-21T14:22:10Z</time>
      </trkpt>
      <trkpt lat="42.50296" lon="2.23053">
        <ele>1125.36</ele>
        <time>2017-05-21T14:22:22Z</time>
      </trkpt>
      <trkpt lat="42.50301" lon="2.23055">
        <ele>1123.92</ele>
        <time>2017-05-21T14:22:33Z</time>
      </trkpt>
      <trkpt lat="42.50307" lon="2.23057">
        <ele>1123.44</ele>
        <time>2017-05-21T14:22:42Z</time>
      </trkpt>
      <trkpt lat="42.50313" lon="2.23058">
        <ele>1122.96</ele>
        <time>2017-05-21T14:22:51Z</time>
      </trkpt>
      <trkpt lat="42.50318" lon="2.23055">
        <ele>1122.48</ele>
        <time>2017-05-21T14:22:57Z</time>
      </trkpt>
      <trkpt lat="42.5033" lon="2.23051">
        <ele>1122</ele>
        <time>2017-05-21T14:23:10Z</time>
      </trkpt>
      <trkpt lat="42.50341" lon="2.23045">
        <ele>1122</ele>
        <time>2017-05-21T14:23:20Z</time>
      </trkpt>
      <trkpt lat="42.50351" lon="2.23042">
        <ele>1121.03</ele>
        <time>2017-05-21T14:23:33Z</time>
      </trkpt>
      <trkpt lat="42.50355" lon="2.23042">
        <ele>1120.07</ele>
        <time>2017-05-21T14:23:42Z</time>
      </trkpt>
      <trkpt lat="42.5036" lon="2.2304">
        <ele>1119.11</ele>
        <time>2017-05-21T14:23:52Z</time>
      </trkpt>
      <trkpt lat="42.50363" lon="2.23034">
        <ele>1117.67</ele>
        <time>2017-05-21T14:24:03Z</time>
      </trkpt>
      <trkpt lat="42.50365" lon="2.23026">
        <ele>1118.63</ele>
        <time>2017-05-21T14:24:14Z</time>
      </trkpt>
      <trkpt lat="42.50369" lon="2.23024">
        <ele>1119.11</ele>
        <time>2017-05-21T14:24:23Z</time>
      </trkpt>
      <trkpt lat="42.50371" lon="2.23015">
        <ele>1117.19</ele>
        <time>2017-05-21T14:24:34Z</time>
      </trkpt>
      <trkpt lat="42.50373" lon="2.23011">
        <ele>1116.23</ele>
        <time>2017-05-21T14:24:43Z</time>
      </trkpt>
      <trkpt lat="42.50376" lon="2.23009">
        <ele>1115.75</ele>
        <time>2017-05-21T14:24:50Z</time>
      </trkpt>
      <trkpt lat="42.50378" lon="2.23005">
        <ele>1115.75</ele>
        <time>2017-05-21T14:25:00Z</time>
      </trkpt>
      <trkpt lat="42.50384" lon="2.23006">
        <ele>1114.79</ele>
        <time>2017-05-21T14:25:10Z</time>
      </trkpt>
      <trkpt lat="42.50384" lon="2.23005">
        <ele>1114.79</ele>
        <time>2017-05-21T14:25:22Z</time>
      </trkpt>
      <trkpt lat="42.50386" lon="2.23001">
        <ele>1113.34</ele>
        <time>2017-05-21T14:25:36Z</time>
      </trkpt>
      <trkpt lat="42.50391" lon="2.22999">
        <ele>1113.34</ele>
        <time>2017-05-21T14:25:46Z</time>
      </trkpt>
      <trkpt lat="42.50409" lon="2.22987">
        <ele>1112.38</ele>
        <time>2017-05-21T14:25:59Z</time>
      </trkpt>
      <trkpt lat="42.50417" lon="2.22986">
        <ele>1112.38</ele>
        <time>2017-05-21T14:26:11Z</time>
      </trkpt>
      <trkpt lat="42.50421" lon="2.22985">
        <ele>1111.42</ele>
        <time>2017-05-21T14:26:21Z</time>
      </trkpt>
      <trkpt lat="42.50422" lon="2.22988">
        <ele>1110.46</ele>
        <time>2017-05-21T14:26:37Z</time>
      </trkpt>
      <trkpt lat="42.50425" lon="2.23">
        <ele>1109.98</ele>
        <time>2017-05-21T14:26:53Z</time>
      </trkpt>
      <trkpt lat="42.50422" lon="2.23014">
        <ele>1109.5</ele>
        <time>2017-05-21T14:27:03Z</time>
      </trkpt>
      <trkpt lat="42.5042" lon="2.23023">
        <ele>1109.02</ele>
        <time>2017-05-21T14:27:14Z</time>
      </trkpt>
      <trkpt lat="42.5042" lon="2.23035">
        <ele>1108.54</ele>
        <time>2017-05-21T14:27:24Z</time>
      </trkpt>
      <trkpt lat="42.50426" lon="2.23038">
        <ele>1107.1</ele>
        <time>2017-05-21T14:27:35Z</time>
      </trkpt>
      <trkpt lat="42.50429" lon="2.23046">
        <ele>1106.61</ele>
        <time>2017-05-21T14:27:45Z</time>
      </trkpt>
      <trkpt lat="42.5043" lon="2.23054">
        <ele>1109.02</ele>
        <time>2017-05-21T14:27:58Z</time>
      </trkpt>
      <trkpt lat="42.50434" lon="2.23052">
        <ele>1109.02</ele>
        <time>2017-05-21T14:28:11Z</time>
      </trkpt>
      <trkpt lat="42.50437" lon="2.2305">
        <ele>1109.02</ele>
        <time>2017-05-21T14:28:21Z</time>
      </trkpt>
      <trkpt lat="42.50438" lon="2.23046">
        <ele>1107.58</ele>
        <time>2017-05-21T14:28:27Z</time>
      </trkpt>
      <trkpt lat="42.50437" lon="2.23039">
        <ele>1106.61</ele>
        <time>2017-05-21T14:28:38Z</time>
      </trkpt>
      <trkpt lat="42.50439" lon="2.23029">
        <ele>1106.61</ele>
        <time>2017-05-21T14:28:46Z</time>
      </trkpt>
      <trkpt lat="42.50439" lon="2.23027">
        <ele>1106.61</ele>
        <time>2017-05-21T14:28:57Z</time>
      </trkpt>
      <trkpt lat="42.50442" lon="2.23024">
        <ele>1106.61</ele>
        <time>2017-05-21T14:29:09Z</time>
      </trkpt>
      <trkpt lat="42.50446" lon="2.23028">
        <ele>1106.61</ele>
        <time>2017-05-21T14:29:19Z</time>
      </trkpt>
      <trkpt lat="42.50449" lon="2.23031">
        <ele>1106.61</ele>
        <time>2017-05-21T14:29:31Z</time>
      </trkpt>
      <trkpt lat="42.50453" lon="2.23036">
        <ele>1105.17</ele>
        <time>2017-05-21T14:29:43Z</time>
      </trkpt>
      <trkpt lat="42.50458" lon="2.23039">
        <ele>1104.21</ele>
        <time>2017-05-21T14:29:56Z</time>
      </trkpt>
      <trkpt lat="42.5046" lon="2.2304">
        <ele>1103.25</ele>
        <time>2017-05-21T14:29:59Z</time>
      </trkpt>
      <trkpt lat="42.50466" lon="2.23046">
        <ele>1103.25</ele>
        <time>2017-05-21T14:30:09Z</time>
      </trkpt>
      <trkpt lat="42.50474" lon="2.23046">
        <ele>1100.85</ele>
        <time>2017-05-21T14:30:24Z</time>
      </trkpt>
      <trkpt lat="42.50482" lon="2.23034">
        <ele>1099.89</ele>
        <time>2017-05-21T14:30:35Z</time>
      </trkpt>
      <trkpt lat="42.50486" lon="2.2303">
        <ele>1098.44</ele>
        <time>2017-05-21T14:30:42Z</time>
      </trkpt>
      <trkpt lat="42.50489" lon="2.2302">
        <ele>1097.48</ele>
        <time>2017-05-21T14:30:52Z</time>
      </trkpt>
      <trkpt lat="42.50494" lon="2.23011">
        <ele>1096.52</ele>
        <time>2017-05-21T14:31:02Z</time>
      </trkpt>
      <trkpt lat="42.50492" lon="2.23003">
        <ele>1096.04</ele>
        <time>2017-05-21T14:31:13Z</time>
      </trkpt>
      <trkpt lat="42.50491" lon="2.23">
        <ele>1095.56</ele>
        <time>2017-05-21T14:31:27Z</time>
      </trkpt>
      <trkpt lat="42.5049" lon="2.22994">
        <ele>1093.64</ele>
        <time>2017-05-21T14:31:40Z</time>
      </trkpt>
      <trkpt lat="42.50492" lon="2.2299">
        <ele>1093.16</ele>
        <time>2017-05-21T14:31:55Z</time>
      </trkpt>
      <trkpt lat="42.50497" lon="2.22994">
        <ele>1092.68</ele>
        <time>2017-05-21T14:32:07Z</time>
      </trkpt>
      <trkpt lat="42.50494" lon="2.22999">
        <ele>1094.12</ele>
        <time>2017-05-21T14:32:12Z</time>
      </trkpt>
      <trkpt lat="42.50487" lon="2.23011">
        <ele>1094.6</ele>
        <time>2017-05-21T14:32:25Z</time>
      </trkpt>
      <trkpt lat="42.50492" lon="2.23022">
        <ele>1095.56</ele>
        <time>2017-05-21T14:32:36Z</time>
      </trkpt>
      <trkpt lat="42.50503" lon="2.23021">
        <ele>1095.56</ele>
        <time>2017-05-21T14:32:54Z</time>
      </trkpt>
      <trkpt lat="42.50507" lon="2.23016">
        <ele>1095.56</ele>
        <time>2017-05-21T14:33:08Z</time>
      </trkpt>
      <trkpt lat="42.5051" lon="2.23017">
        <ele>1094.12</ele>
        <time>2017-05-21T14:33:20Z</time>
      </trkpt>
      <trkpt lat="42.50511" lon="2.23018">
        <ele>1094.12</ele>
        <time>2017-05-21T14:33:32Z</time>
      </trkpt>
      <trkpt lat="42.5051" lon="2.23013">
        <ele>1094.12</ele>
        <time>2017-05-21T14:33:44Z</time>
      </trkpt>
      <trkpt lat="42.50514" lon="2.23007">
        <ele>1094.12</ele>
        <time>2017-05-21T14:33:56Z</time>
      </trkpt>
      <trkpt lat="42.50523" lon="2.23003">
        <ele>1093.64</ele>
        <time>2017-05-21T14:34:09Z</time>
      </trkpt>
      <trkpt lat="42.50529" lon="2.23004">
        <ele>1093.16</ele>
        <time>2017-05-21T14:34:24Z</time>
      </trkpt>
      <trkpt lat="42.50529" lon="2.22999">
        <ele>1092.2</ele>
        <time>2017-05-21T14:34:35Z</time>
      </trkpt>
      <trkpt lat="42.50529" lon="2.22999">
        <ele>1090.27</ele>
        <time>2017-05-21T14:34:46Z</time>
      </trkpt>
      <trkpt lat="42.50533" lon="2.23004">
        <ele>1089.79</ele>
        <time>2017-05-21T14:35:02Z</time>
      </trkpt>
      <trkpt lat="42.50535" lon="2.23013">
        <ele>1089.31</ele>
        <time>2017-05-21T14:35:12Z</time>
      </trkpt>
      <trkpt lat="42.50536" lon="2.23023">
        <ele>1088.35</ele>
        <time>2017-05-21T14:35:23Z</time>
      </trkpt>
      <trkpt lat="42.50536" lon="2.23028">
        <ele>1088.35</ele>
        <time>2017-05-21T14:35:33Z</time>
      </trkpt>
      <trkpt lat="42.50535" lon="2.23036">
        <ele>1086.43</ele>
        <time>2017-05-21T14:35:46Z</time>
      </trkpt>
      <trkpt lat="42.50535" lon="2.23042">
        <ele>1085.47</ele>
        <time>2017-05-21T14:35:59Z</time>
      </trkpt>
      <trkpt lat="42.50536" lon="2.2305">
        <ele>1084.5</ele>
        <time>2017-05-21T14:36:13Z</time>
      </trkpt>
      <trkpt lat="42.50533" lon="2.23059">
        <ele>1084.5</ele>
        <time>2017-05-21T14:36:26Z</time>
      </trkpt>
      <trkpt lat="42.5053" lon="2.23069">
        <ele>1084.5</ele>
        <time>2017-05-21T14:36:39Z</time>
      </trkpt>
      <trkpt lat="42.50532" lon="2.23082">
        <ele>1085.47</ele>
        <time>2017-05-21T14:36:51Z</time>
      </trkpt>
      <trkpt lat="42.50535" lon="2.23088">
        <ele>1084.02</ele>
        <time>2017-05-21T14:37:03Z</time>
      </trkpt>
      <trkpt lat="42.50533" lon="2.23092">
        <ele>1084.02</ele>
        <time>2017-05-21T14:37:10Z</time>
      </trkpt>
      <trkpt lat="42.50537" lon="2.23093">
        <ele>1084.02</ele>
        <time>2017-05-21T14:37:22Z</time>
      </trkpt>
      <trkpt lat="42.50537" lon="2.23093">
        <ele>1082.58</ele>
        <time>2017-05-21T14:37:23Z</time>
      </trkpt>
      <trkpt lat="42.5054" lon="2.23098">
        <ele>1081.62</ele>
        <time>2017-05-21T14:37:30Z</time>
      </trkpt>
      <trkpt lat="42.5054" lon="2.23101">
        <ele>1080.66</ele>
        <time>2017-05-21T14:37:42Z</time>
      </trkpt>
      <trkpt lat="42.50539" lon="2.23107">
        <ele>1077.29</ele>
        <time>2017-05-21T14:37:52Z</time>
      </trkpt>
      <trkpt lat="42.50539" lon="2.23107">
        <ele>1077.29</ele>
        <time>2017-05-21T14:37:53Z</time>
      </trkpt>
      <trkpt lat="42.50539" lon="2.23109">
        <ele>1082.1</ele>
        <time>2017-05-21T14:37:54Z</time>
      </trkpt>
      <trkpt lat="42.50538" lon="2.2311">
        <ele>1079.7</ele>
        <time>2017-05-21T14:37:55Z</time>
      </trkpt>
      <trkpt lat="42.50545" lon="2.2312">
        <ele>1079.7</ele>
        <time>2017-05-21T14:38:09Z</time>
      </trkpt>
      <trkpt lat="42.50538" lon="2.23127">
        <ele>1079.22</ele>
        <time>2017-05-21T14:38:20Z</time>
      </trkpt>
      <trkpt lat="42.50532" lon="2.23131">
        <ele>1079.22</ele>
        <time>2017-05-21T14:38:35Z</time>
      </trkpt>
      <trkpt lat="42.50529" lon="2.23133">
        <ele>1080.66</ele>
        <time>2017-05-21T14:38:47Z</time>
      </trkpt>
      <trkpt lat="42.50525" lon="2.23138">
        <ele>1079.22</ele>
        <time>2017-05-21T14:39:01Z</time>
      </trkpt>
      <trkpt lat="42.5052" lon="2.23138">
        <ele>1078.74</ele>
        <time>2017-05-21T14:39:16Z</time>
      </trkpt>
      <trkpt lat="42.50526" lon="2.23128">
        <ele>1078.26</ele>
        <time>2017-05-21T14:39:32Z</time>
      </trkpt>
      <trkpt lat="42.5053" lon="2.23112">
        <ele>1075.85</ele>
        <time>2017-05-21T14:39:49Z</time>
      </trkpt>
      <trkpt lat="42.50531" lon="2.2308">
        <ele>1073.93</ele>
        <time>2017-05-21T14:40:05Z</time>
      </trkpt>
      <trkpt lat="42.50544" lon="2.23077">
        <ele>1072.49</ele>
        <time>2017-05-21T14:40:23Z</time>
      </trkpt>
      <trkpt lat="42.50555" lon="2.23072">
        <ele>1071.53</ele>
        <time>2017-05-21T14:40:40Z</time>
      </trkpt>
      <trkpt lat="42.50556" lon="2.2307">
        <ele>1071.53</ele>
        <time>2017-05-21T14:40:56Z</time>
      </trkpt>
      <trkpt lat="42.50569" lon="2.23066">
        <ele>1071.53</ele>
        <time>2017-05-21T14:41:19Z</time>
      </trkpt>
      <trkpt lat="42.5057" lon="2.23069">
        <ele>1071.53</ele>
        <time>2017-05-21T14:41:48Z</time>
      </trkpt>
      <trkpt lat="42.50572" lon="2.23071">
        <ele>1073.93</ele>
        <time>2017-05-21T14:42:00Z</time>
      </trkpt>
      <trkpt lat="42.50572" lon="2.23073">
        <ele>1073.93</ele>
        <time>2017-05-21T14:42:13Z</time>
      </trkpt>
      <trkpt lat="42.50573" lon="2.23074">
        <ele>1073.93</ele>
        <time>2017-05-21T14:42:21Z</time>
      </trkpt>
      <trkpt lat="42.5056" lon="2.23085">
        <ele>1073.93</ele>
        <time>2017-05-21T14:42:36Z</time>
      </trkpt>
      <trkpt lat="42.50551" lon="2.23092">
        <ele>1073.93</ele>
        <time>2017-05-21T14:42:57Z</time>
      </trkpt>
      <trkpt lat="42.50546" lon="2.23101">
        <ele>1073.93</ele>
        <time>2017-05-21T14:43:18Z</time>
      </trkpt>
      <trkpt lat="42.50533" lon="2.23106">
        <ele>1073.93</ele>
        <time>2017-05-21T14:43:32Z</time>
      </trkpt>
      <trkpt lat="42.50543" lon="2.23108">
        <ele>1072.97</ele>
        <time>2017-05-21T14:43:47Z</time>
      </trkpt>
      <trkpt lat="42.50557" lon="2.23101">
        <ele>1072.97</ele>
        <time>2017-05-21T14:44:02Z</time>
      </trkpt>
      <trkpt lat="42.50564" lon="2.23107">
        <ele>1072.49</ele>
        <time>2017-05-21T14:44:17Z</time>
      </trkpt>
      <trkpt lat="42.50572" lon="2.23106">
        <ele>1072.01</ele>
        <time>2017-05-21T14:44:32Z</time>
      </trkpt>
      <trkpt lat="42.50577" lon="2.23096">
        <ele>1071.53</ele>
        <time>2017-05-21T14:44:46Z</time>
      </trkpt>
      <trkpt lat="42.50582" lon="2.231">
        <ele>1071.05</ele>
        <time>2017-05-21T14:44:53Z</time>
      </trkpt>
      <trkpt lat="42.50587" lon="2.23104">
        <ele>1070.08</ele>
        <time>2017-05-21T14:45:03Z</time>
      </trkpt>
      <trkpt lat="42.50588" lon="2.23104">
        <ele>1069.6</ele>
        <time>2017-05-21T14:45:13Z</time>
      </trkpt>
      <trkpt lat="42.50585" lon="2.23121">
        <ele>1067.68</ele>
        <time>2017-05-21T14:45:25Z</time>
      </trkpt>
      <trkpt lat="42.50595" lon="2.23111">
        <ele>1066.72</ele>
        <time>2017-05-21T14:45:38Z</time>
      </trkpt>
      <trkpt lat="42.50609" lon="2.23115">
        <ele>1066.24</ele>
        <time>2017-05-21T14:45:50Z</time>
      </trkpt>
      <trkpt lat="42.50618" lon="2.23133">
        <ele>1064.32</ele>
        <time>2017-05-21T14:46:05Z</time>
      </trkpt>
      <trkpt lat="42.50627" lon="2.23139">
        <ele>1062.87</ele>
        <time>2017-05-21T14:46:19Z</time>
      </trkpt>
      <trkpt lat="42.50628" lon="2.23139">
        <ele>1064.32</ele>
        <time>2017-05-21T14:46:31Z</time>
      </trkpt>
      <trkpt lat="42.50627" lon="2.23139">
        <ele>1064.32</ele>
        <time>2017-05-21T14:46:32Z</time>
      </trkpt>
      <trkpt lat="42.50624" lon="2.23146">
        <ele>1064.8</ele>
        <time>2017-05-21T14:46:45Z</time>
      </trkpt>
      <trkpt lat="42.50626" lon="2.23145">
        <ele>1064.8</ele>
        <time>2017-05-21T14:46:59Z</time>
      </trkpt>
      <trkpt lat="42.50627" lon="2.23149">
        <ele>1064.8</ele>
        <time>2017-05-21T14:47:09Z</time>
      </trkpt>
      <trkpt lat="42.50628" lon="2.23152">
        <ele>1065.28</ele>
        <time>2017-05-21T14:47:22Z</time>
      </trkpt>
      <trkpt lat="42.50633" lon="2.23151">
        <ele>1065.76</ele>
        <time>2017-05-21T14:47:32Z</time>
      </trkpt>
      <trkpt lat="42.50643" lon="2.23155">
        <ele>1066.72</ele>
        <time>2017-05-21T14:47:46Z</time>
      </trkpt>
      <trkpt lat="42.50646" lon="2.23157">
        <ele>1065.76</ele>
        <time>2017-05-21T14:47:57Z</time>
      </trkpt>
      <trkpt lat="42.50657" lon="2.23151">
        <ele>1063.84</ele>
        <time>2017-05-21T14:48:11Z</time>
      </trkpt>
      <trkpt lat="42.50664" lon="2.23146">
        <ele>1063.36</ele>
        <time>2017-05-21T14:48:24Z</time>
      </trkpt>
      <trkpt lat="42.5067" lon="2.23145">
        <ele>1062.39</ele>
        <time>2017-05-21T14:48:37Z</time>
      </trkpt>
      <trkpt lat="42.50671" lon="2.23151">
        <ele>1060.95</ele>
        <time>2017-05-21T14:48:51Z</time>
      </trkpt>
      <trkpt lat="42.50673" lon="2.23146">
        <ele>1059.03</ele>
        <time>2017-05-21T14:49:03Z</time>
      </trkpt>
      <trkpt lat="42.50682" lon="2.23139">
        <ele>1059.03</ele>
        <time>2017-05-21T14:49:15Z</time>
      </trkpt>
      <trkpt lat="42.50689" lon="2.23138">
        <ele>1058.55</ele>
        <time>2017-05-21T14:49:27Z</time>
      </trkpt>
      <trkpt lat="42.50697" lon="2.23135">
        <ele>1058.55</ele>
        <time>2017-05-21T14:49:44Z</time>
      </trkpt>
      <trkpt lat="42.507" lon="2.23135">
        <ele>1057.59</ele>
        <time>2017-05-21T14:49:56Z</time>
      </trkpt>
      <trkpt lat="42.50704" lon="2.23133">
        <ele>1057.59</ele>
        <time>2017-05-21T14:50:09Z</time>
      </trkpt>
      <trkpt lat="42.5071" lon="2.23128">
        <ele>1057.59</ele>
        <time>2017-05-21T14:50:20Z</time>
      </trkpt>
      <trkpt lat="42.50717" lon="2.23118">
        <ele>1055.18</ele>
        <time>2017-05-21T14:50:32Z</time>
      </trkpt>
      <trkpt lat="42.50723" lon="2.23109">
        <ele>1054.7</ele>
        <time>2017-05-21T14:50:42Z</time>
      </trkpt>
      <trkpt lat="42.50731" lon="2.23097">
        <ele>1054.22</ele>
        <time>2017-05-21T14:50:52Z</time>
      </trkpt>
      <trkpt lat="42.50737" lon="2.23086">
        <ele>1053.26</ele>
        <time>2017-05-21T14:51:03Z</time>
      </trkpt>
      <trkpt lat="42.50743" lon="2.2309">
        <ele>1052.3</ele>
        <time>2017-05-21T14:51:13Z</time>
      </trkpt>
      <trkpt lat="42.50744" lon="2.23092">
        <ele>1052.3</ele>
        <time>2017-05-21T14:51:24Z</time>
      </trkpt>
      <trkpt lat="42.50745" lon="2.23096">
        <ele>1053.26</ele>
        <time>2017-05-21T14:51:33Z</time>
      </trkpt>
      <trkpt lat="42.50745" lon="2.23096">
        <ele>1049.9</ele>
        <time>2017-05-21T14:51:36Z</time>
      </trkpt>
      <trkpt lat="42.50745" lon="2.23096">
        <ele>1049.9</ele>
        <time>2017-05-21T14:51:37Z</time>
      </trkpt>
      <trkpt lat="42.50745" lon="2.23096">
        <ele>1051.82</ele>
        <time>2017-05-21T14:51:38Z</time>
      </trkpt>
      <trkpt lat="42.50744" lon="2.23096">
        <ele>1054.22</ele>
        <time>2017-05-21T14:51:39Z</time>
      </trkpt>
      <trkpt lat="42.50744" lon="2.23096">
        <ele>1052.78</ele>
        <time>2017-05-21T14:51:40Z</time>
      </trkpt>
      <trkpt lat="42.50746" lon="2.23094">
        <ele>1052.3</ele>
        <time>2017-05-21T14:51:50Z</time>
      </trkpt>
      <trkpt lat="42.50751" lon="2.23091">
        <ele>1052.3</ele>
        <time>2017-05-21T14:52:00Z</time>
      </trkpt>
      <trkpt lat="42.50755" lon="2.23083">
        <ele>1051.82</ele>
        <time>2017-05-21T14:52:13Z</time>
      </trkpt>
      <trkpt lat="42.50759" lon="2.23077">
        <ele>1050.86</ele>
        <time>2017-05-21T14:52:25Z</time>
      </trkpt>
      <trkpt lat="42.50764" lon="2.23068">
        <ele>1050.38</ele>
        <time>2017-05-21T14:52:35Z</time>
      </trkpt>
      <trkpt lat="42.50769" lon="2.23057">
        <ele>1049.42</ele>
        <time>2017-05-21T14:52:48Z</time>
      </trkpt>
      <trkpt lat="42.50775" lon="2.2305">
        <ele>1049.42</ele>
        <time>2017-05-21T14:53:01Z</time>
      </trkpt>
      <trkpt lat="42.5078" lon="2.23045">
        <ele>1048.94</ele>
        <time>2017-05-21T14:53:13Z</time>
      </trkpt>
      <trkpt lat="42.50784" lon="2.23041">
        <ele>1047.49</ele>
        <time>2017-05-21T14:53:22Z</time>
      </trkpt>
      <trkpt lat="42.50789" lon="2.23034">
        <ele>1047.49</ele>
        <time>2017-05-21T14:53:34Z</time>
      </trkpt>
      <trkpt lat="42.50786" lon="2.23009">
        <ele>1046.53</ele>
        <time>2017-05-21T14:53:46Z</time>
      </trkpt>
      <trkpt lat="42.50785" lon="2.23">
        <ele>1046.05</ele>
        <time>2017-05-21T14:53:58Z</time>
      </trkpt>
      <trkpt lat="42.50788" lon="2.23009">
        <ele>1046.05</ele>
        <time>2017-05-21T14:54:18Z</time>
      </trkpt>
      <trkpt lat="42.50784" lon="2.23016">
        <ele>1046.05</ele>
        <time>2017-05-21T14:54:36Z</time>
      </trkpt>
      <trkpt lat="42.5078" lon="2.23012">
        <ele>1045.57</ele>
        <time>2017-05-21T14:54:54Z</time>
      </trkpt>
      <trkpt lat="42.50783" lon="2.23012">
        <ele>1045.57</ele>
        <time>2017-05-21T14:55:12Z</time>
      </trkpt>
      <trkpt lat="42.50788" lon="2.23017">
        <ele>1045.57</ele>
        <time>2017-05-21T14:55:32Z</time>
      </trkpt>
      <trkpt lat="42.50788" lon="2.23018">
        <ele>1045.57</ele>
        <time>2017-05-21T14:55:51Z</time>
      </trkpt>
      <trkpt lat="42.50786" lon="2.23015">
        <ele>1045.09</ele>
        <time>2017-05-21T14:56:14Z</time>
      </trkpt>
      <trkpt lat="42.50788" lon="2.23012">
        <ele>1046.05</ele>
        <time>2017-05-21T14:56:22Z</time>
      </trkpt>
      <trkpt lat="42.50791" lon="2.23011">
        <ele>1047.97</ele>
        <time>2017-05-21T14:56:32Z</time>
      </trkpt>
      <trkpt lat="42.50798" lon="2.23001">
        <ele>1048.94</ele>
        <time>2017-05-21T14:56:42Z</time>
      </trkpt>
      <trkpt lat="42.50804" lon="2.23">
        <ele>1050.86</ele>
        <time>2017-05-21T14:56:52Z</time>
      </trkpt>
      <trkpt lat="42.50806" lon="2.23002">
        <ele>1052.3</ele>
        <time>2017-05-21T14:57:06Z</time>
      </trkpt>
      <trkpt lat="42.50804" lon="2.23004">
        <ele>1054.22</ele>
        <time>2017-05-21T14:57:19Z</time>
      </trkpt>
      <trkpt lat="42.50808" lon="2.23007">
        <ele>1056.15</ele>
        <time>2017-05-21T14:57:32Z</time>
      </trkpt>
      <trkpt lat="42.50814" lon="2.23005">
        <ele>1057.11</ele>
        <time>2017-05-21T14:57:42Z</time>
      </trkpt>
      <trkpt lat="42.50819" lon="2.23011">
        <ele>1059.03</ele>
        <time>2017-05-21T14:57:51Z</time>
      </trkpt>
      <trkpt lat="42.50823" lon="2.23011">
        <ele>1059.99</ele>
        <time>2017-05-21T14:58:00Z</time>
      </trkpt>
      <trkpt lat="42.50823" lon="2.23009">
        <ele>1060.95</ele>
        <time>2017-05-21T14:58:09Z</time>
      </trkpt>
      <trkpt lat="42.50824" lon="2.23011">
        <ele>1061.91</ele>
        <time>2017-05-21T14:58:20Z</time>
      </trkpt>
      <trkpt lat="42.50829" lon="2.23009">
        <ele>1062.87</ele>
        <time>2017-05-21T14:58:32Z</time>
      </trkpt>
      <trkpt lat="42.50836" lon="2.23008">
        <ele>1064.32</ele>
        <time>2017-05-21T14:58:44Z</time>
      </trkpt>
      <trkpt lat="42.5084" lon="2.23007">
        <ele>1064.8</ele>
        <time>2017-05-21T14:58:53Z</time>
      </trkpt>
      <trkpt lat="42.50846" lon="2.23003">
        <ele>1065.28</ele>
        <time>2017-05-21T14:59:04Z</time>
      </trkpt>
      <trkpt lat="42.50854" lon="2.23001">
        <ele>1067.2</ele>
        <time>2017-05-21T14:59:18Z</time>
      </trkpt>
      <trkpt lat="42.50857" lon="2.22997">
        <ele>1069.12</ele>
        <time>2017-05-21T14:59:29Z</time>
      </trkpt>
      <trkpt lat="42.50859" lon="2.22997">
        <ele>1070.08</ele>
        <time>2017-05-21T14:59:43Z</time>
      </trkpt>
      <trkpt lat="42.50858" lon="2.22999">
        <ele>1070.08</ele>
        <time>2017-05-21T14:59:52Z</time>
      </trkpt>
      <trkpt lat="42.50855" lon="2.23002">
        <ele>1068.16</ele>
        <time>2017-05-21T15:00:03Z</time>
      </trkpt>
      <trkpt lat="42.50851" lon="2.23004">
        <ele>1065.76</ele>
        <time>2017-05-21T15:00:14Z</time>
      </trkpt>
      <trkpt lat="42.50853" lon="2.23003">
        <ele>1065.28</ele>
        <time>2017-05-21T15:00:25Z</time>
      </trkpt>
      <trkpt lat="42.50855" lon="2.23001">
        <ele>1066.24</ele>
        <time>2017-05-21T15:00:44Z</time>
      </trkpt>
      <trkpt lat="42.50854" lon="2.22997">
        <ele>1065.76</ele>
        <time>2017-05-21T15:01:09Z</time>
      </trkpt>
      <trkpt lat="42.50853" lon="2.22995">
        <ele>1059.51</ele>
        <time>2017-05-21T15:01:25Z</time>
      </trkpt>
      <trkpt lat="42.50852" lon="2.22995">
        <ele>1071.05</ele>
        <time>2017-05-21T15:01:26Z</time>
      </trkpt>
      <trkpt lat="42.50852" lon="2.22995">
        <ele>1065.28</ele>
        <time>2017-05-21T15:01:27Z</time>
      </trkpt>
      <trkpt lat="42.50857" lon="2.22995">
        <ele>1065.28</ele>
        <time>2017-05-21T15:01:43Z</time>
      </trkpt>
      <trkpt lat="42.50857" lon="2.22996">
        <ele>1066.24</ele>
        <time>2017-05-21T15:01:57Z</time>
      </trkpt>
      <trkpt lat="42.50852" lon="2.22994">
        <ele>1065.76</ele>
        <time>2017-05-21T15:02:16Z</time>
      </trkpt>
      <trkpt lat="42.5085" lon="2.2299">
        <ele>1064.32</ele>
        <time>2017-05-21T15:02:31Z</time>
      </trkpt>
      <trkpt lat="42.50851" lon="2.22993">
        <ele>1064.32</ele>
        <time>2017-05-21T15:02:46Z</time>
      </trkpt>
      <trkpt lat="42.50846" lon="2.22996">
        <ele>1062.39</ele>
        <time>2017-05-21T15:02:56Z</time>
      </trkpt>
      <trkpt lat="42.50845" lon="2.22996">
        <ele>1061.91</ele>
        <time>2017-05-21T15:03:15Z</time>
      </trkpt>
      <trkpt lat="42.5085" lon="2.22995">
        <ele>1061.43</ele>
        <time>2017-05-21T15:03:32Z</time>
      </trkpt>
      <trkpt lat="42.50852" lon="2.22995">
        <ele>1063.36</ele>
        <time>2017-05-21T15:03:35Z</time>
      </trkpt>
      <trkpt lat="42.50855" lon="2.22991">
        <ele>1064.8</ele>
        <time>2017-05-21T15:03:43Z</time>
      </trkpt>
      <trkpt lat="42.50857" lon="2.22986">
        <ele>1065.28</ele>
        <time>2017-05-21T15:03:54Z</time>
      </trkpt>
      <trkpt lat="42.50857" lon="2.22988">
        <ele>1066.24</ele>
        <time>2017-05-21T15:04:05Z</time>
      </trkpt>
      <trkpt lat="42.50852" lon="2.22984">
        <ele>1065.76</ele>
        <time>2017-05-21T15:04:30Z</time>
      </trkpt>
      <trkpt lat="42.5085" lon="2.22986">
        <ele>1065.76</ele>
        <time>2017-05-21T15:04:40Z</time>
      </trkpt>
      <trkpt lat="42.5085" lon="2.22988">
        <ele>1065.28</ele>
        <time>2017-05-21T15:04:55Z</time>
      </trkpt>
      <trkpt lat="42.50849" lon="2.22987">
        <ele>1065.28</ele>
        <time>2017-05-21T15:05:14Z</time>
      </trkpt>
      <trkpt lat="42.50847" lon="2.2299">
        <ele>1063.36</ele>
        <time>2017-05-21T15:05:28Z</time>
      </trkpt>
      <trkpt lat="42.5085" lon="2.22989">
        <ele>1063.36</ele>
        <time>2017-05-21T15:05:42Z</time>
      </trkpt>
      <trkpt lat="42.50848" lon="2.22984">
        <ele>1062.87</ele>
        <time>2017-05-21T15:06:00Z</time>
      </trkpt>
      <trkpt lat="42.50849" lon="2.22985">
        <ele>1062.87</ele>
        <time>2017-05-21T15:06:13Z</time>
      </trkpt>
      <trkpt lat="42.50852" lon="2.22981">
        <ele>1064.32</ele>
        <time>2017-05-21T15:06:25Z</time>
      </trkpt>
      <trkpt lat="42.50856" lon="2.22976">
        <ele>1065.28</ele>
        <time>2017-05-21T15:06:33Z</time>
      </trkpt>
      <trkpt lat="42.50862" lon="2.22974">
        <ele>1066.72</ele>
        <time>2017-05-21T15:06:43Z</time>
      </trkpt>
      <trkpt lat="42.50863" lon="2.22973">
        <ele>1066.72</ele>
        <time>2017-05-21T15:06:44Z</time>
      </trkpt>
      <trkpt lat="42.50874" lon="2.22968">
        <ele>1067.68</ele>
        <time>2017-05-21T15:06:54Z</time>
      </trkpt>
      <trkpt lat="42.50878" lon="2.22967">
        <ele>1065.76</ele>
        <time>2017-05-21T15:07:03Z</time>
      </trkpt>
      <trkpt lat="42.50884" lon="2.22961">
        <ele>1063.84</ele>
        <time>2017-05-21T15:07:13Z</time>
      </trkpt>
      <trkpt lat="42.50887" lon="2.22958">
        <ele>1062.39</ele>
        <time>2017-05-21T15:07:25Z</time>
      </trkpt>
      <trkpt lat="42.50893" lon="2.22955">
        <ele>1061.91</ele>
        <time>2017-05-21T15:07:37Z</time>
      </trkpt>
      <trkpt lat="42.50894" lon="2.22953">
        <ele>1063.36</ele>
        <time>2017-05-21T15:07:40Z</time>
      </trkpt>
      <trkpt lat="42.50899" lon="2.22945">
        <ele>1062.87</ele>
        <time>2017-05-21T15:07:55Z</time>
      </trkpt>
      <trkpt lat="42.50904" lon="2.22944">
        <ele>1064.8</ele>
        <time>2017-05-21T15:08:07Z</time>
      </trkpt>
      <trkpt lat="42.50907" lon="2.22938">
        <ele>1066.24</ele>
        <time>2017-05-21T15:08:18Z</time>
      </trkpt>
      <trkpt lat="42.50911" lon="2.22931">
        <ele>1068.64</ele>
        <time>2017-05-21T15:08:27Z</time>
      </trkpt>
      <trkpt lat="42.50906" lon="2.22931">
        <ele>1068.16</ele>
        <time>2017-05-21T15:08:45Z</time>
      </trkpt>
      <trkpt lat="42.5091" lon="2.22931">
        <ele>1067.2</ele>
        <time>2017-05-21T15:09:15Z</time>
      </trkpt>
      <trkpt lat="42.50911" lon="2.22932">
        <ele>1067.2</ele>
        <time>2017-05-21T15:09:30Z</time>
      </trkpt>
      <trkpt lat="42.50907" lon="2.22932">
        <ele>1066.72</ele>
        <time>2017-05-21T15:09:56Z</time>
      </trkpt>
      <trkpt lat="42.50898" lon="2.22928">
        <ele>1066.24</ele>
        <time>2017-05-21T15:10:26Z</time>
      </trkpt>
      <trkpt lat="42.50901" lon="2.22928">
        <ele>1065.76</ele>
        <time>2017-05-21T15:10:47Z</time>
      </trkpt>
      <trkpt lat="42.50902" lon="2.22934">
        <ele>1064.32</ele>
        <time>2017-05-21T15:10:57Z</time>
      </trkpt>
      <trkpt lat="42.50902" lon="2.22935">
        <ele>1064.32</ele>
        <time>2017-05-21T15:10:58Z</time>
      </trkpt>
      <trkpt lat="42.50901" lon="2.22936">
        <ele>1061.91</ele>
        <time>2017-05-21T15:11:09Z</time>
      </trkpt>
      <trkpt lat="42.50904" lon="2.22938">
        <ele>1061.91</ele>
        <time>2017-05-21T15:11:28Z</time>
      </trkpt>
      <trkpt lat="42.50902" lon="2.22939">
        <ele>1062.39</ele>
        <time>2017-05-21T15:11:43Z</time>
      </trkpt>
      <trkpt lat="42.50902" lon="2.22939">
        <ele>1060.47</ele>
        <time>2017-05-21T15:11:54Z</time>
      </trkpt>
      <trkpt lat="42.50898" lon="2.22942">
        <ele>1058.07</ele>
        <time>2017-05-21T15:12:04Z</time>
      </trkpt>
      <trkpt lat="42.50895" lon="2.22943">
        <ele>1057.59</ele>
        <time>2017-05-21T15:12:11Z</time>
      </trkpt>
      <trkpt lat="42.5089" lon="2.22942">
        <ele>1056.63</ele>
        <time>2017-05-21T15:12:23Z</time>
      </trkpt>
      <trkpt lat="42.50886" lon="2.22946">
        <ele>1058.55</ele>
        <time>2017-05-21T15:12:32Z</time>
      </trkpt>
      <trkpt lat="42.50882" lon="2.22951">
        <ele>1058.55</ele>
        <time>2017-05-21T15:12:38Z</time>
      </trkpt>
      <trkpt lat="42.50878" lon="2.22959">
        <ele>1060.95</ele>
        <time>2017-05-21T15:12:46Z</time>
      </trkpt>
      <trkpt lat="42.50875" lon="2.22964">
        <ele>1060.95</ele>
        <time>2017-05-21T15:12:49Z</time>
      </trkpt>
      <trkpt lat="42.50869" lon="2.22971">
        <ele>1061.43</ele>
        <time>2017-05-21T15:12:56Z</time>
      </trkpt>
      <trkpt lat="42.50862" lon="2.22974">
        <ele>1060.47</ele>
        <time>2017-05-21T15:13:02Z</time>
      </trkpt>
      <trkpt lat="42.50856" lon="2.22983">
        <ele>1060.47</ele>
        <time>2017-05-21T15:13:12Z</time>
      </trkpt>
      <trkpt lat="42.50857" lon="2.22991">
        <ele>1059.99</ele>
        <time>2017-05-21T15:13:23Z</time>
      </trkpt>
      <trkpt lat="42.50857" lon="2.22991">
        <ele>1054.22</ele>
        <time>2017-05-21T15:13:31Z</time>
      </trkpt>
      <trkpt lat="42.50857" lon="2.22991">
        <ele>1061.91</ele>
        <time>2017-05-21T15:13:32Z</time>
      </trkpt>
      <trkpt lat="42.50857" lon="2.22991">
        <ele>1059.03</ele>
        <time>2017-05-21T15:13:33Z</time>
      </trkpt>
      <trkpt lat="42.50855" lon="2.22994">
        <ele>1058.55</ele>
        <time>2017-05-21T15:13:46Z</time>
      </trkpt>
      <trkpt lat="42.50859" lon="2.22994">
        <ele>1060.47</ele>
        <time>2017-05-21T15:13:58Z</time>
      </trkpt>
      <trkpt lat="42.5086" lon="2.22989">
        <ele>1060.47</ele>
        <time>2017-05-21T15:14:01Z</time>
      </trkpt>
      <trkpt lat="42.50866" lon="2.22982">
        <ele>1059.03</ele>
        <time>2017-05-21T15:14:10Z</time>
      </trkpt>
      <trkpt lat="42.50866" lon="2.22982">
        <ele>1059.03</ele>
        <time>2017-05-21T15:14:11Z</time>
      </trkpt>
      <trkpt lat="42.50872" lon="2.22981">
        <ele>1059.99</ele>
        <time>2017-05-21T15:14:18Z</time>
      </trkpt>
      <trkpt lat="42.50877" lon="2.22971">
        <ele>1059.99</ele>
        <time>2017-05-21T15:14:28Z</time>
      </trkpt>
      <trkpt lat="42.50881" lon="2.22962">
        <ele>1056.63</ele>
        <time>2017-05-21T15:14:38Z</time>
      </trkpt>
      <trkpt lat="42.50886" lon="2.22956">
        <ele>1055.18</ele>
        <time>2017-05-21T15:14:48Z</time>
      </trkpt>
      <trkpt lat="42.50891" lon="2.22954">
        <ele>1056.15</ele>
        <time>2017-05-21T15:15:01Z</time>
      </trkpt>
      <trkpt lat="42.50898" lon="2.22956">
        <ele>1057.11</ele>
        <time>2017-05-21T15:15:11Z</time>
      </trkpt>
      <trkpt lat="42.50902" lon="2.22954">
        <ele>1058.07</ele>
        <time>2017-05-21T15:15:20Z</time>
      </trkpt>
      <trkpt lat="42.50904" lon="2.22953">
        <ele>1059.03</ele>
        <time>2017-05-21T15:15:33Z</time>
      </trkpt>
      <trkpt lat="42.50911" lon="2.22939">
        <ele>1059.99</ele>
        <time>2017-05-21T15:15:42Z</time>
      </trkpt>
      <trkpt lat="42.50913" lon="2.22935">
        <ele>1061.43</ele>
        <time>2017-05-21T15:15:45Z</time>
      </trkpt>
      <trkpt lat="42.50916" lon="2.22924">
        <ele>1062.39</ele>
        <time>2017-05-21T15:15:55Z</time>
      </trkpt>
      <trkpt lat="42.50918" lon="2.22914">
        <ele>1063.84</ele>
        <time>2017-05-21T15:16:04Z</time>
      </trkpt>
      <trkpt lat="42.5092" lon="2.229">
        <ele>1064.32</ele>
        <time>2017-05-21T15:16:15Z</time>
      </trkpt>
      <trkpt lat="42.50922" lon="2.22884">
        <ele>1065.28</ele>
        <time>2017-05-21T15:16:25Z</time>
      </trkpt>
      <trkpt lat="42.50927" lon="2.22873">
        <ele>1065.28</ele>
        <time>2017-05-21T15:16:34Z</time>
      </trkpt>
      <trkpt lat="42.50932" lon="2.22865">
        <ele>1066.24</ele>
        <time>2017-05-21T15:16:42Z</time>
      </trkpt>
      <trkpt lat="42.50932" lon="2.22857">
        <ele>1067.68</ele>
        <time>2017-05-21T15:16:51Z</time>
      </trkpt>
      <trkpt lat="42.50932" lon="2.22849">
        <ele>1067.68</ele>
        <time>2017-05-21T15:17:02Z</time>
      </trkpt>
      <trkpt lat="42.50933" lon="2.22847">
        <ele>1067.68</ele>
        <time>2017-05-21T15:17:05Z</time>
      </trkpt>
      <trkpt lat="42.50934" lon="2.22834">
        <ele>1067.68</ele>
        <time>2017-05-21T15:17:14Z</time>
      </trkpt>
      <trkpt lat="42.50925" lon="2.2281">
        <ele>1069.6</ele>
        <time>2017-05-21T15:17:25Z</time>
      </trkpt>
      <trkpt lat="42.50927" lon="2.22801">
        <ele>1072.01</ele>
        <time>2017-05-21T15:17:35Z</time>
      </trkpt>
      <trkpt lat="42.50925" lon="2.22794">
        <ele>1073.45</ele>
        <time>2017-05-21T15:17:44Z</time>
      </trkpt>
      <trkpt lat="42.50919" lon="2.22788">
        <ele>1074.41</ele>
        <time>2017-05-21T15:17:51Z</time>
      </trkpt>
      <trkpt lat="42.50916" lon="2.22786">
        <ele>1075.37</ele>
        <time>2017-05-21T15:17:56Z</time>
      </trkpt>
      <trkpt lat="42.50918" lon="2.22781">
        <ele>1076.33</ele>
        <time>2017-05-21T15:17:59Z</time>
      </trkpt>
      <trkpt lat="42.50921" lon="2.22776">
        <ele>1076.33</ele>
        <time>2017-05-21T15:18:03Z</time>
      </trkpt>
      <trkpt lat="42.50923" lon="2.22773">
        <ele>1077.78</ele>
        <time>2017-05-21T15:18:12Z</time>
      </trkpt>
      <trkpt lat="42.50926" lon="2.22779">
        <ele>1079.7</ele>
        <time>2017-05-21T15:18:22Z</time>
      </trkpt>
      <trkpt lat="42.50933" lon="2.22781">
        <ele>1081.62</ele>
        <time>2017-05-21T15:18:33Z</time>
      </trkpt>
      <trkpt lat="42.50932" lon="2.22776">
        <ele>1083.06</ele>
        <time>2017-05-21T15:18:42Z</time>
      </trkpt>
      <trkpt lat="42.50932" lon="2.22768">
        <ele>1084.99</ele>
        <time>2017-05-21T15:18:53Z</time>
      </trkpt>
      <trkpt lat="42.50934" lon="2.22758">
        <ele>1086.43</ele>
        <time>2017-05-21T15:19:05Z</time>
      </trkpt>
      <trkpt lat="42.50936" lon="2.22753">
        <ele>1087.39</ele>
        <time>2017-05-21T15:19:15Z</time>
      </trkpt>
      <trkpt lat="42.5094" lon="2.22747">
        <ele>1088.35</ele>
        <time>2017-05-21T15:19:25Z</time>
      </trkpt>
      <trkpt lat="42.50946" lon="2.22739">
        <ele>1089.79</ele>
        <time>2017-05-21T15:19:36Z</time>
      </trkpt>
      <trkpt lat="42.5095" lon="2.22728">
        <ele>1090.27</ele>
        <time>2017-05-21T15:19:47Z</time>
      </trkpt>
      <trkpt lat="42.50951" lon="2.22719">
        <ele>1092.2</ele>
        <time>2017-05-21T15:19:58Z</time>
      </trkpt>
      <trkpt lat="42.50953" lon="2.22707">
        <ele>1094.6</ele>
        <time>2017-05-21T15:20:08Z</time>
      </trkpt>
      <trkpt lat="42.50954" lon="2.227">
        <ele>1096.04</ele>
        <time>2017-05-21T15:20:19Z</time>
      </trkpt>
      <trkpt lat="42.50951" lon="2.22689">
        <ele>1097.96</ele>
        <time>2017-05-21T15:20:30Z</time>
      </trkpt>
      <trkpt lat="42.50952" lon="2.22686">
        <ele>1099.89</ele>
        <time>2017-05-21T15:20:42Z</time>
      </trkpt>
      <trkpt lat="42.50955" lon="2.22686">
        <ele>1101.81</ele>
        <time>2017-05-21T15:20:53Z</time>
      </trkpt>
      <trkpt lat="42.5095" lon="2.2268">
        <ele>1103.25</ele>
        <time>2017-05-21T15:21:02Z</time>
      </trkpt>
      <trkpt lat="42.50952" lon="2.22676">
        <ele>1104.21</ele>
        <time>2017-05-21T15:21:13Z</time>
      </trkpt>
      <trkpt lat="42.50956" lon="2.22671">
        <ele>1105.17</ele>
        <time>2017-05-21T15:21:23Z</time>
      </trkpt>
      <trkpt lat="42.50961" lon="2.22668">
        <ele>1107.58</ele>
        <time>2017-05-21T15:21:35Z</time>
      </trkpt>
      <trkpt lat="42.50965" lon="2.22661">
        <ele>1109.5</ele>
        <time>2017-05-21T15:21:47Z</time>
      </trkpt>
      <trkpt lat="42.50967" lon="2.22658">
        <ele>1109.5</ele>
        <time>2017-05-21T15:21:59Z</time>
      </trkpt>
      <trkpt lat="42.50966" lon="2.22656">
        <ele>1109.02</ele>
        <time>2017-05-21T15:22:09Z</time>
      </trkpt>
      <trkpt lat="42.50966" lon="2.22654">
        <ele>1109.02</ele>
        <time>2017-05-21T15:22:28Z</time>
      </trkpt>
      <trkpt lat="42.50965" lon="2.22655">
        <ele>1109.02</ele>
        <time>2017-05-21T15:22:48Z</time>
      </trkpt>
      <trkpt lat="42.50965" lon="2.22654">
        <ele>1109.02</ele>
        <time>2017-05-21T15:23:05Z</time>
      </trkpt>
      <trkpt lat="42.50965" lon="2.22654">
        <ele>1109.02</ele>
        <time>2017-05-21T15:23:23Z</time>
      </trkpt>
      <trkpt lat="42.50965" lon="2.22652">
        <ele>1109.02</ele>
        <time>2017-05-21T15:23:41Z</time>
      </trkpt>
      <trkpt lat="42.50962" lon="2.2265">
        <ele>1109.02</ele>
        <time>2017-05-21T15:24:04Z</time>
      </trkpt>
      <trkpt lat="42.50964" lon="2.22649">
        <ele>1109.02</ele>
        <time>2017-05-21T15:24:18Z</time>
      </trkpt>
      <trkpt lat="42.50966" lon="2.2265">
        <ele>1109.02</ele>
        <time>2017-05-21T15:24:37Z</time>
      </trkpt>
      <trkpt lat="42.50969" lon="2.2265">
        <ele>1107.58</ele>
        <time>2017-05-21T15:24:52Z</time>
      </trkpt>
      <trkpt lat="42.50969" lon="2.22647">
        <ele>1106.13</ele>
        <time>2017-05-21T15:25:04Z</time>
      </trkpt>
      <trkpt lat="42.50971" lon="2.22646">
        <ele>1104.69</ele>
        <time>2017-05-21T15:25:17Z</time>
      </trkpt>
      <trkpt lat="42.5097" lon="2.22641">
        <ele>1103.25</ele>
        <time>2017-05-21T15:25:28Z</time>
      </trkpt>
      <trkpt lat="42.50974" lon="2.2264">
        <ele>1101.33</ele>
        <time>2017-05-21T15:25:39Z</time>
      </trkpt>
      <trkpt lat="42.5098" lon="2.22635">
        <ele>1098.92</ele>
        <time>2017-05-21T15:25:49Z</time>
      </trkpt>
      <trkpt lat="42.50981" lon="2.22634">
        <ele>1098.44</ele>
        <time>2017-05-21T15:25:50Z</time>
      </trkpt>
      <trkpt lat="42.50991" lon="2.22629">
        <ele>1099.89</ele>
        <time>2017-05-21T15:26:01Z</time>
      </trkpt>
      <trkpt lat="42.50994" lon="2.22626">
        <ele>1102.29</ele>
        <time>2017-05-21T15:26:12Z</time>
      </trkpt>
      <trkpt lat="42.50998" lon="2.22622">
        <ele>1104.21</ele>
        <time>2017-05-21T15:26:23Z</time>
      </trkpt>
      <trkpt lat="42.51003" lon="2.22621">
        <ele>1105.17</ele>
        <time>2017-05-21T15:26:32Z</time>
      </trkpt>
      <trkpt lat="42.51013" lon="2.22617">
        <ele>1105.17</ele>
        <time>2017-05-21T15:26:43Z</time>
      </trkpt>
      <trkpt lat="42.51014" lon="2.22615">
        <ele>1103.73</ele>
        <time>2017-05-21T15:26:47Z</time>
      </trkpt>
      <trkpt lat="42.51017" lon="2.22611">
        <ele>1102.29</ele>
        <time>2017-05-21T15:26:57Z</time>
      </trkpt>
      <trkpt lat="42.51021" lon="2.22612">
        <ele>1101.81</ele>
        <time>2017-05-21T15:27:01Z</time>
      </trkpt>
      <trkpt lat="42.51025" lon="2.22612">
        <ele>1101.81</ele>
        <time>2017-05-21T15:27:04Z</time>
      </trkpt>
      <trkpt lat="42.51035" lon="2.22603">
        <ele>1102.77</ele>
        <time>2017-05-21T15:27:16Z</time>
      </trkpt>
      <trkpt lat="42.51037" lon="2.22596">
        <ele>1104.69</ele>
        <time>2017-05-21T15:27:26Z</time>
      </trkpt>
      <trkpt lat="42.5104" lon="2.22593">
        <ele>1106.13</ele>
        <time>2017-05-21T15:27:35Z</time>
      </trkpt>
      <trkpt lat="42.51045" lon="2.22589">
        <ele>1105.17</ele>
        <time>2017-05-21T15:27:46Z</time>
      </trkpt>
      <trkpt lat="42.51046" lon="2.22591">
        <ele>1104.69</ele>
        <time>2017-05-21T15:27:56Z</time>
      </trkpt>
      <trkpt lat="42.5105" lon="2.22587">
        <ele>1104.21</ele>
        <time>2017-05-21T15:28:04Z</time>
      </trkpt>
      <trkpt lat="42.51057" lon="2.22585">
        <ele>1103.25</ele>
        <time>2017-05-21T15:28:14Z</time>
      </trkpt>
      <trkpt lat="42.51066" lon="2.22586">
        <ele>1101.81</ele>
        <time>2017-05-21T15:28:24Z</time>
      </trkpt>
      <trkpt lat="42.51071" lon="2.22589">
        <ele>1100.85</ele>
        <time>2017-05-21T15:28:36Z</time>
      </trkpt>
      <trkpt lat="42.51073" lon="2.2259">
        <ele>1099.89</ele>
        <time>2017-05-21T15:28:54Z</time>
      </trkpt>
      <trkpt lat="42.51075" lon="2.22589">
        <ele>1099.4</ele>
        <time>2017-05-21T15:29:10Z</time>
      </trkpt>
      <trkpt lat="42.51072" lon="2.22583">
        <ele>1099.4</ele>
        <time>2017-05-21T15:29:31Z</time>
      </trkpt>
      <trkpt lat="42.51074" lon="2.22581">
        <ele>1099.4</ele>
        <time>2017-05-21T15:29:53Z</time>
      </trkpt>
      <trkpt lat="42.51076" lon="2.22574">
        <ele>1098.92</ele>
        <time>2017-05-21T15:30:12Z</time>
      </trkpt>
      <trkpt lat="42.51075" lon="2.22572">
        <ele>1098.92</ele>
        <time>2017-05-21T15:30:31Z</time>
      </trkpt>
      <trkpt lat="42.51074" lon="2.22573">
        <ele>1098.44</ele>
        <time>2017-05-21T15:30:46Z</time>
      </trkpt>
      <trkpt lat="42.51074" lon="2.22574">
        <ele>1098.44</ele>
        <time>2017-05-21T15:30:48Z</time>
      </trkpt>
      <trkpt lat="42.51076" lon="2.22574">
        <ele>1097</ele>
        <time>2017-05-21T15:30:59Z</time>
      </trkpt>
      <trkpt lat="42.51078" lon="2.22577">
        <ele>1095.08</ele>
        <time>2017-05-21T15:31:09Z</time>
      </trkpt>
      <trkpt lat="42.51076" lon="2.22572">
        <ele>1094.12</ele>
        <time>2017-05-21T15:31:17Z</time>
      </trkpt>
      <trkpt lat="42.51074" lon="2.22568">
        <ele>1092.68</ele>
        <time>2017-05-21T15:31:25Z</time>
      </trkpt>
      <trkpt lat="42.51076" lon="2.22565">
        <ele>1092.2</ele>
        <time>2017-05-21T15:31:39Z</time>
      </trkpt>
      <trkpt lat="42.51078" lon="2.2256">
        <ele>1090.75</ele>
        <time>2017-05-21T15:31:49Z</time>
      </trkpt>
      <trkpt lat="42.51079" lon="2.2256">
        <ele>1090.75</ele>
        <time>2017-05-21T15:32:00Z</time>
      </trkpt>
      <trkpt lat="42.51083" lon="2.22553">
        <ele>1089.79</ele>
        <time>2017-05-21T15:32:13Z</time>
      </trkpt>
      <trkpt lat="42.51084" lon="2.22552">
        <ele>1088.83</ele>
        <time>2017-05-21T15:32:22Z</time>
      </trkpt>
      <trkpt lat="42.51085" lon="2.22551">
        <ele>1086.91</ele>
        <time>2017-05-21T15:32:34Z</time>
      </trkpt>
      <trkpt lat="42.5109" lon="2.2255">
        <ele>1085.47</ele>
        <time>2017-05-21T15:32:45Z</time>
      </trkpt>
      <trkpt lat="42.51089" lon="2.2255">
        <ele>1083.54</ele>
        <time>2017-05-21T15:32:56Z</time>
      </trkpt>
      <trkpt lat="42.51088" lon="2.22557">
        <ele>1082.1</ele>
        <time>2017-05-21T15:33:08Z</time>
      </trkpt>
      <trkpt lat="42.51092" lon="2.22561">
        <ele>1079.22</ele>
        <time>2017-05-21T15:33:23Z</time>
      </trkpt>
      <trkpt lat="42.51098" lon="2.22567">
        <ele>1077.29</ele>
        <time>2017-05-21T15:33:34Z</time>
      </trkpt>
      <trkpt lat="42.51099" lon="2.22572">
        <ele>1076.81</ele>
        <time>2017-05-21T15:33:44Z</time>
      </trkpt>
      <trkpt lat="42.51105" lon="2.22584">
        <ele>1074.89</ele>
        <time>2017-05-21T15:33:57Z</time>
      </trkpt>
      <trkpt lat="42.51116" lon="2.22599">
        <ele>1073.45</ele>
        <time>2017-05-21T15:34:10Z</time>
      </trkpt>
      <trkpt lat="42.51118" lon="2.2261">
        <ele>1072.01</ele>
        <time>2017-05-21T15:34:22Z</time>
      </trkpt>
      <trkpt lat="42.51118" lon="2.22614">
        <ele>1071.05</ele>
        <time>2017-05-21T15:34:31Z</time>
      </trkpt>
      <trkpt lat="42.51117" lon="2.22623">
        <ele>1068.64</ele>
        <time>2017-05-21T15:34:45Z</time>
      </trkpt>
      <trkpt lat="42.51123" lon="2.22629">
        <ele>1066.72</ele>
        <time>2017-05-21T15:34:55Z</time>
      </trkpt>
      <trkpt lat="42.51137" lon="2.2264">
        <ele>1065.76</ele>
        <time>2017-05-21T15:35:10Z</time>
      </trkpt>
      <trkpt lat="42.51143" lon="2.22636">
        <ele>1062.87</ele>
        <time>2017-05-21T15:35:22Z</time>
      </trkpt>
      <trkpt lat="42.51147" lon="2.22633">
        <ele>1060.95</ele>
        <time>2017-05-21T15:35:32Z</time>
      </trkpt>
      <trkpt lat="42.51152" lon="2.22633">
        <ele>1059.03</ele>
        <time>2017-05-21T15:35:41Z</time>
      </trkpt>
      <trkpt lat="42.51156" lon="2.22635">
        <ele>1058.07</ele>
        <time>2017-05-21T15:35:52Z</time>
      </trkpt>
      <trkpt lat="42.51162" lon="2.22634">
        <ele>1055.67</ele>
        <time>2017-05-21T15:36:04Z</time>
      </trkpt>
      <trkpt lat="42.51167" lon="2.22634">
        <ele>1053.74</ele>
        <time>2017-05-21T15:36:14Z</time>
      </trkpt>
      <trkpt lat="42.51172" lon="2.22635">
        <ele>1051.82</ele>
        <time>2017-05-21T15:36:23Z</time>
      </trkpt>
      <trkpt lat="42.51181" lon="2.22635">
        <ele>1049.9</ele>
        <time>2017-05-21T15:36:34Z</time>
      </trkpt>
      <trkpt lat="42.51182" lon="2.2263">
        <ele>1048.94</ele>
        <time>2017-05-21T15:36:46Z</time>
      </trkpt>
      <trkpt lat="42.51185" lon="2.2263">
        <ele>1047.49</ele>
        <time>2017-05-21T15:36:55Z</time>
      </trkpt>
      <trkpt lat="42.5119" lon="2.22633">
        <ele>1046.53</ele>
        <time>2017-05-21T15:37:05Z</time>
      </trkpt>
      <trkpt lat="42.51193" lon="2.22631">
        <ele>1046.53</ele>
        <time>2017-05-21T15:37:15Z</time>
      </trkpt>
      <trkpt lat="42.51195" lon="2.22628">
        <ele>1045.09</ele>
        <time>2017-05-21T15:37:26Z</time>
      </trkpt>
      <trkpt lat="42.51201" lon="2.22631">
        <ele>1044.61</ele>
        <time>2017-05-21T15:37:36Z</time>
      </trkpt>
      <trkpt lat="42.5121" lon="2.22637">
        <ele>1042.21</ele>
        <time>2017-05-21T15:37:46Z</time>
      </trkpt>
      <trkpt lat="42.51217" lon="2.22636">
        <ele>1040.76</ele>
        <time>2017-05-21T15:37:57Z</time>
      </trkpt>
      <trkpt lat="42.51224" lon="2.22638">
        <ele>1038.84</ele>
        <time>2017-05-21T15:38:09Z</time>
      </trkpt>
      <trkpt lat="42.5123" lon="2.22637">
        <ele>1036.92</ele>
        <time>2017-05-21T15:38:22Z</time>
      </trkpt>
      <trkpt lat="42.5123" lon="2.22632">
        <ele>1035</ele>
        <time>2017-05-21T15:38:33Z</time>
      </trkpt>
      <trkpt lat="42.51234" lon="2.22634">
        <ele>1034.52</ele>
        <time>2017-05-21T15:38:42Z</time>
      </trkpt>
      <trkpt lat="42.51236" lon="2.22634">
        <ele>1033.55</ele>
        <time>2017-05-21T15:38:50Z</time>
      </trkpt>
      <trkpt lat="42.51239" lon="2.22626">
        <ele>1032.11</ele>
        <time>2017-05-21T15:39:01Z</time>
      </trkpt>
      <trkpt lat="42.51241" lon="2.22621">
        <ele>1031.15</ele>
        <time>2017-05-21T15:39:12Z</time>
      </trkpt>
      <trkpt lat="42.51248" lon="2.22618">
        <ele>1030.19</ele>
        <time>2017-05-21T15:39:23Z</time>
      </trkpt>
      <trkpt lat="42.51252" lon="2.22612">
        <ele>1028.27</ele>
        <time>2017-05-21T15:39:33Z</time>
      </trkpt>
      <trkpt lat="42.5126" lon="2.22613">
        <ele>1026.34</ele>
        <time>2017-05-21T15:39:45Z</time>
      </trkpt>
      <trkpt lat="42.51265" lon="2.22603">
        <ele>1024.42</ele>
        <time>2017-05-21T15:39:55Z</time>
      </trkpt>
      <trkpt lat="42.51268" lon="2.22595">
        <ele>1022.98</ele>
        <time>2017-05-21T15:40:09Z</time>
      </trkpt>
      <trkpt lat="42.5127" lon="2.22593">
        <ele>1022.98</ele>
        <time>2017-05-21T15:40:20Z</time>
      </trkpt>
      <trkpt lat="42.51272" lon="2.22593">
        <ele>1022.98</ele>
        <time>2017-05-21T15:40:38Z</time>
      </trkpt>
      <trkpt lat="42.51273" lon="2.22593">
        <ele>1022.98</ele>
        <time>2017-05-21T15:40:39Z</time>
      </trkpt>
      <trkpt lat="42.51277" lon="2.22581">
        <ele>1022.5</ele>
        <time>2017-05-21T15:40:49Z</time>
      </trkpt>
      <trkpt lat="42.5128" lon="2.22575">
        <ele>1021.06</ele>
        <time>2017-05-21T15:40:59Z</time>
      </trkpt>
      <trkpt lat="42.5128" lon="2.22567">
        <ele>1018.65</ele>
        <time>2017-05-21T15:41:13Z</time>
      </trkpt>
      <trkpt lat="42.51283" lon="2.2256">
        <ele>1016.73</ele>
        <time>2017-05-21T15:41:24Z</time>
      </trkpt>
      <trkpt lat="42.51288" lon="2.22562">
        <ele>1015.29</ele>
        <time>2017-05-21T15:41:36Z</time>
      </trkpt>
      <trkpt lat="42.5129" lon="2.22541">
        <ele>1015.29</ele>
        <time>2017-05-21T15:41:56Z</time>
      </trkpt>
      <trkpt lat="42.5129" lon="2.22539">
        <ele>1014.33</ele>
        <time>2017-05-21T15:42:10Z</time>
      </trkpt>
      <trkpt lat="42.5129" lon="2.22535">
        <ele>1012.89</ele>
        <time>2017-05-21T15:42:20Z</time>
      </trkpt>
      <trkpt lat="42.51292" lon="2.2253">
        <ele>1014.33</ele>
        <time>2017-05-21T15:42:29Z</time>
      </trkpt>
      <trkpt lat="42.51292" lon="2.22526">
        <ele>1014.81</ele>
        <time>2017-05-21T15:42:37Z</time>
      </trkpt>
      <trkpt lat="42.51289" lon="2.22522">
        <ele>1013.37</ele>
        <time>2017-05-21T15:42:48Z</time>
      </trkpt>
      <trkpt lat="42.5122" lon="2.22527">
        <ele>1007.6</ele>
        <time>2017-05-21T15:42:59Z</time>
      </trkpt>
      <trkpt lat="42.51217" lon="2.22524">
        <ele>1015.77</ele>
        <time>2017-05-21T15:43:00Z</time>
      </trkpt>
      <trkpt lat="42.51224" lon="2.22502">
        <ele>1012.41</ele>
        <time>2017-05-21T15:43:08Z</time>
      </trkpt>
      <trkpt lat="42.51234" lon="2.22455">
        <ele>1010.96</ele>
        <time>2017-05-21T15:43:18Z</time>
      </trkpt>
      <trkpt lat="42.51232" lon="2.22448">
        <ele>1010.96</ele>
        <time>2017-05-21T15:43:19Z</time>
      </trkpt>
      <trkpt lat="42.51233" lon="2.22428">
        <ele>1010.48</ele>
        <time>2017-05-21T15:43:29Z</time>
      </trkpt>
      <trkpt lat="42.51268" lon="2.22451">
        <ele>1010</ele>
        <time>2017-05-21T15:43:40Z</time>
      </trkpt>
      <trkpt lat="42.51276" lon="2.22455">
        <ele>1008.08</ele>
        <time>2017-05-21T15:43:52Z</time>
      </trkpt>
      <trkpt lat="42.51281" lon="2.22459">
        <ele>1007.6</ele>
        <time>2017-05-21T15:44:02Z</time>
      </trkpt>
      <trkpt lat="42.51283" lon="2.22462">
        <ele>1006.16</ele>
        <time>2017-05-21T15:44:11Z</time>
      </trkpt>
      <trkpt lat="42.51285" lon="2.22459">
        <ele>1005.2</ele>
        <time>2017-05-21T15:44:20Z</time>
      </trkpt>
      <trkpt lat="42.51288" lon="2.22457">
        <ele>1004.23</ele>
        <time>2017-05-21T15:44:29Z</time>
      </trkpt>
      <trkpt lat="42.51289" lon="2.22457">
        <ele>1004.72</ele>
        <time>2017-05-21T15:44:45Z</time>
      </trkpt>
      <trkpt lat="42.51291" lon="2.22457">
        <ele>1004.23</ele>
        <time>2017-05-21T15:45:00Z</time>
      </trkpt>
      <trkpt lat="42.51298" lon="2.22458">
        <ele>1004.23</ele>
        <time>2017-05-21T15:45:09Z</time>
      </trkpt>
      <trkpt lat="42.51303" lon="2.2246">
        <ele>1005.68</ele>
        <time>2017-05-21T15:45:19Z</time>
      </trkpt>
      <trkpt lat="42.51306" lon="2.22465">
        <ele>1005.68</ele>
        <time>2017-05-21T15:45:39Z</time>
      </trkpt>
      <trkpt lat="42.51308" lon="2.22471">
        <ele>1005.68</ele>
        <time>2017-05-21T15:45:50Z</time>
      </trkpt>
      <trkpt lat="42.51305" lon="2.22477">
        <ele>1004.72</ele>
        <time>2017-05-21T15:46:04Z</time>
      </trkpt>
      <trkpt lat="42.51301" lon="2.22462">
        <ele>1005.68</ele>
        <time>2017-05-21T15:46:10Z</time>
      </trkpt>
      <trkpt lat="42.51302" lon="2.2246">
        <ele>1005.68</ele>
        <time>2017-05-21T15:46:12Z</time>
      </trkpt>
      <trkpt lat="42.51304" lon="2.22458">
        <ele>1005.68</ele>
        <time>2017-05-21T15:46:21Z</time>
      </trkpt>
      <trkpt lat="42.51305" lon="2.22466">
        <ele>1006.16</ele>
        <time>2017-05-21T15:46:44Z</time>
      </trkpt>
      <trkpt lat="42.5131" lon="2.22489">
        <ele>1003.27</ele>
        <time>2017-05-21T15:47:01Z</time>
      </trkpt>
      <trkpt lat="42.51326" lon="2.22488">
        <ele>1000.87</ele>
        <time>2017-05-21T15:47:17Z</time>
      </trkpt>
      <trkpt lat="42.51329" lon="2.22487">
        <ele>999.43</ele>
        <time>2017-05-21T15:47:32Z</time>
      </trkpt>
      <trkpt lat="42.51331" lon="2.22488">
        <ele>997.51</ele>
        <time>2017-05-21T15:47:47Z</time>
      </trkpt>
      <trkpt lat="42.5133" lon="2.22483">
        <ele>996.06</ele>
        <time>2017-05-21T15:48:01Z</time>
      </trkpt>
      <trkpt lat="42.5133" lon="2.22482">
        <ele>995.58</ele>
        <time>2017-05-21T15:48:02Z</time>
      </trkpt>
      <trkpt lat="42.51329" lon="2.22473">
        <ele>994.14</ele>
        <time>2017-05-21T15:48:11Z</time>
      </trkpt>
      <trkpt lat="42.5133" lon="2.22469">
        <ele>992.7</ele>
        <time>2017-05-21T15:48:21Z</time>
      </trkpt>
      <trkpt lat="42.51334" lon="2.22475">
        <ele>991.26</ele>
        <time>2017-05-21T15:48:31Z</time>
      </trkpt>
      <trkpt lat="42.51336" lon="2.2247">
        <ele>988.85</ele>
        <time>2017-05-21T15:48:42Z</time>
      </trkpt>
      <trkpt lat="42.51338" lon="2.22465">
        <ele>987.41</ele>
        <time>2017-05-21T15:48:52Z</time>
      </trkpt>
      <trkpt lat="42.51342" lon="2.22461">
        <ele>985.97</ele>
        <time>2017-05-21T15:49:01Z</time>
      </trkpt>
      <trkpt lat="42.51345" lon="2.22458">
        <ele>984.05</ele>
        <time>2017-05-21T15:49:11Z</time>
      </trkpt>
      <trkpt lat="42.51347" lon="2.22456">
        <ele>983.57</ele>
        <time>2017-05-21T15:49:21Z</time>
      </trkpt>
      <trkpt lat="42.5135" lon="2.22454">
        <ele>982.12</ele>
        <time>2017-05-21T15:49:31Z</time>
      </trkpt>
      <trkpt lat="42.51356" lon="2.22451">
        <ele>981.64</ele>
        <time>2017-05-21T15:49:40Z</time>
      </trkpt>
      <trkpt lat="42.51364" lon="2.2245">
        <ele>981.64</ele>
        <time>2017-05-21T15:49:50Z</time>
      </trkpt>
      <trkpt lat="42.51367" lon="2.22449">
        <ele>981.64</ele>
        <time>2017-05-21T15:49:59Z</time>
      </trkpt>
      <trkpt lat="42.51373" lon="2.22447">
        <ele>981.16</ele>
        <time>2017-05-21T15:50:09Z</time>
      </trkpt>
      <trkpt lat="42.51379" lon="2.22448">
        <ele>982.6</ele>
        <time>2017-05-21T15:50:18Z</time>
      </trkpt>
      <trkpt lat="42.51385" lon="2.22449">
        <ele>984.53</ele>
        <time>2017-05-21T15:50:29Z</time>
      </trkpt>
      <trkpt lat="42.51394" lon="2.22455">
        <ele>985.97</ele>
        <time>2017-05-21T15:50:40Z</time>
      </trkpt>
      <trkpt lat="42.514" lon="2.22456">
        <ele>985.97</ele>
        <time>2017-05-21T15:50:48Z</time>
      </trkpt>
      <trkpt lat="42.51406" lon="2.2246">
        <ele>985.97</ele>
        <time>2017-05-21T15:50:55Z</time>
      </trkpt>
      <trkpt lat="42.51414" lon="2.22462">
        <ele>986.93</ele>
        <time>2017-05-21T15:51:04Z</time>
      </trkpt>
      <trkpt lat="42.51421" lon="2.22468">
        <ele>986.93</ele>
        <time>2017-05-21T15:51:13Z</time>
      </trkpt>
      <trkpt lat="42.5143" lon="2.22471">
        <ele>985.49</ele>
        <time>2017-05-21T15:51:23Z</time>
      </trkpt>
      <trkpt lat="42.51431" lon="2.22471">
        <ele>985.49</ele>
        <time>2017-05-21T15:51:24Z</time>
      </trkpt>
      <trkpt lat="42.5144" lon="2.22473">
        <ele>985.49</ele>
        <time>2017-05-21T15:51:36Z</time>
      </trkpt>
      <trkpt lat="42.51447" lon="2.22475">
        <ele>986.93</ele>
        <time>2017-05-21T15:51:46Z</time>
      </trkpt>
      <trkpt lat="42.51453" lon="2.22475">
        <ele>988.37</ele>
        <time>2017-05-21T15:51:56Z</time>
      </trkpt>
      <trkpt lat="42.51459" lon="2.22472">
        <ele>989.81</ele>
        <time>2017-05-21T15:52:06Z</time>
      </trkpt>
      <trkpt lat="42.51464" lon="2.2247">
        <ele>988.85</ele>
        <time>2017-05-21T15:52:19Z</time>
      </trkpt>
      <trkpt lat="42.51469" lon="2.22466">
        <ele>987.41</ele>
        <time>2017-05-21T15:52:30Z</time>
      </trkpt>
      <trkpt lat="42.51472" lon="2.22463">
        <ele>986.45</ele>
        <time>2017-05-21T15:52:35Z</time>
      </trkpt>
      <trkpt lat="42.51473" lon="2.22461">
        <ele>985.97</ele>
        <time>2017-05-21T15:52:37Z</time>
      </trkpt>
      <trkpt lat="42.51481" lon="2.22454">
        <ele>985.49</ele>
        <time>2017-05-21T15:52:48Z</time>
      </trkpt>
      <trkpt lat="42.51489" lon="2.22454">
        <ele>985.49</ele>
        <time>2017-05-21T15:52:58Z</time>
      </trkpt>
      <trkpt lat="42.51497" lon="2.22458">
        <ele>983.57</ele>
        <time>2017-05-21T15:53:11Z</time>
      </trkpt>
      <trkpt lat="42.51501" lon="2.22456">
        <ele>982.12</ele>
        <time>2017-05-21T15:53:21Z</time>
      </trkpt>
      <trkpt lat="42.51506" lon="2.22455">
        <ele>981.16</ele>
        <time>2017-05-21T15:53:27Z</time>
      </trkpt>
      <trkpt lat="42.5151" lon="2.22453">
        <ele>981.16</ele>
        <time>2017-05-21T15:53:34Z</time>
      </trkpt>
      <trkpt lat="42.51514" lon="2.22445">
        <ele>981.16</ele>
        <time>2017-05-21T15:53:43Z</time>
      </trkpt>
      <trkpt lat="42.51517" lon="2.22444">
        <ele>982.12</ele>
        <time>2017-05-21T15:53:45Z</time>
      </trkpt>
      <trkpt lat="42.51525" lon="2.22441">
        <ele>982.6</ele>
        <time>2017-05-21T15:53:53Z</time>
      </trkpt>
      <trkpt lat="42.51532" lon="2.22437">
        <ele>983.57</ele>
        <time>2017-05-21T15:54:02Z</time>
      </trkpt>
      <trkpt lat="42.51539" lon="2.22439">
        <ele>985.01</ele>
        <time>2017-05-21T15:54:10Z</time>
      </trkpt>
      <trkpt lat="42.51543" lon="2.22437">
        <ele>986.45</ele>
        <time>2017-05-21T15:54:21Z</time>
      </trkpt>
      <trkpt lat="42.51547" lon="2.22434">
        <ele>987.41</ele>
        <time>2017-05-21T15:54:30Z</time>
      </trkpt>
      <trkpt lat="42.51551" lon="2.22434">
        <ele>985.97</ele>
        <time>2017-05-21T15:54:38Z</time>
      </trkpt>
      <trkpt lat="42.51558" lon="2.22436">
        <ele>985.97</ele>
        <time>2017-05-21T15:54:48Z</time>
      </trkpt>
      <trkpt lat="42.51562" lon="2.22441">
        <ele>985.01</ele>
        <time>2017-05-21T15:54:58Z</time>
      </trkpt>
      <trkpt lat="42.51569" lon="2.22446">
        <ele>983.57</ele>
        <time>2017-05-21T15:55:09Z</time>
      </trkpt>
      <trkpt lat="42.51579" lon="2.22451">
        <ele>983.09</ele>
        <time>2017-05-21T15:55:20Z</time>
      </trkpt>
      <trkpt lat="42.51582" lon="2.22456">
        <ele>982.12</ele>
        <time>2017-05-21T15:55:31Z</time>
      </trkpt>
      <trkpt lat="42.51593" lon="2.22464">
        <ele>980.2</ele>
        <time>2017-05-21T15:55:43Z</time>
      </trkpt>
      <trkpt lat="42.51596" lon="2.22464">
        <ele>978.76</ele>
        <time>2017-05-21T15:55:52Z</time>
      </trkpt>
      <trkpt lat="42.51598" lon="2.22461">
        <ele>976.84</ele>
        <time>2017-05-21T15:56:00Z</time>
      </trkpt>
      <trkpt lat="42.516" lon="2.22462">
        <ele>975.88</ele>
        <time>2017-05-21T15:56:12Z</time>
      </trkpt>
      <trkpt lat="42.51603" lon="2.22463">
        <ele>974.91</ele>
        <time>2017-05-21T15:56:24Z</time>
      </trkpt>
      <trkpt lat="42.51611" lon="2.22462">
        <ele>973.47</ele>
        <time>2017-05-21T15:56:36Z</time>
      </trkpt>
      <trkpt lat="42.51618" lon="2.22457">
        <ele>972.03</ele>
        <time>2017-05-21T15:56:46Z</time>
      </trkpt>
      <trkpt lat="42.51622" lon="2.22451">
        <ele>969.63</ele>
        <time>2017-05-21T15:56:57Z</time>
      </trkpt>
      <trkpt lat="42.51627" lon="2.22451">
        <ele>968.18</ele>
        <time>2017-05-21T15:57:07Z</time>
      </trkpt>
      <trkpt lat="42.51632" lon="2.22449">
        <ele>965.78</ele>
        <time>2017-05-21T15:57:18Z</time>
      </trkpt>
      <trkpt lat="42.51639" lon="2.22447">
        <ele>964.34</ele>
        <time>2017-05-21T15:57:29Z</time>
      </trkpt>
      <trkpt lat="42.51637" lon="2.22442">
        <ele>963.38</ele>
        <time>2017-05-21T15:57:39Z</time>
      </trkpt>
      <trkpt lat="42.51635" lon="2.2244">
        <ele>962.42</ele>
        <time>2017-05-21T15:57:48Z</time>
      </trkpt>
      <trkpt lat="42.51633" lon="2.22439">
        <ele>960.98</ele>
        <time>2017-05-21T15:57:59Z</time>
      </trkpt>
      <trkpt lat="42.51635" lon="2.22436">
        <ele>960.01</ele>
        <time>2017-05-21T15:58:10Z</time>
      </trkpt>
      <trkpt lat="42.51637" lon="2.22434">
        <ele>958.57</ele>
        <time>2017-05-21T15:58:21Z</time>
      </trkpt>
      <trkpt lat="42.51641" lon="2.2243">
        <ele>957.61</ele>
        <time>2017-05-21T15:58:32Z</time>
      </trkpt>
      <trkpt lat="42.51647" lon="2.22429">
        <ele>956.17</ele>
        <time>2017-05-21T15:58:43Z</time>
      </trkpt>
      <trkpt lat="42.51656" lon="2.22432">
        <ele>954.73</ele>
        <time>2017-05-21T15:58:54Z</time>
      </trkpt>
      <trkpt lat="42.51658" lon="2.2243">
        <ele>952.8</ele>
        <time>2017-05-21T15:59:07Z</time>
      </trkpt>
      <trkpt lat="42.51654" lon="2.22423">
        <ele>951.84</ele>
        <time>2017-05-21T15:59:18Z</time>
      </trkpt>
      <trkpt lat="42.51651" lon="2.2242">
        <ele>950.4</ele>
        <time>2017-05-21T15:59:27Z</time>
      </trkpt>
      <trkpt lat="42.51648" lon="2.22418">
        <ele>948.48</ele>
        <time>2017-05-21T15:59:39Z</time>
      </trkpt>
      <trkpt lat="42.51656" lon="2.22418">
        <ele>946.56</ele>
        <time>2017-05-21T15:59:52Z</time>
      </trkpt>
      <trkpt lat="42.51662" lon="2.22414">
        <ele>945.59</ele>
        <time>2017-05-21T16:00:05Z</time>
      </trkpt>
      <trkpt lat="42.51664" lon="2.22414">
        <ele>944.63</ele>
        <time>2017-05-21T16:00:14Z</time>
      </trkpt>
      <trkpt lat="42.51666" lon="2.22406">
        <ele>942.71</ele>
        <time>2017-05-21T16:00:25Z</time>
      </trkpt>
      <trkpt lat="42.51666" lon="2.22397">
        <ele>941.27</ele>
        <time>2017-05-21T16:00:35Z</time>
      </trkpt>
      <trkpt lat="42.51667" lon="2.22396">
        <ele>941.27</ele>
        <time>2017-05-21T16:00:37Z</time>
      </trkpt>
      <trkpt lat="42.5167" lon="2.22387">
        <ele>940.31</ele>
        <time>2017-05-21T16:00:46Z</time>
      </trkpt>
      <trkpt lat="42.5167" lon="2.22383">
        <ele>939.35</ele>
        <time>2017-05-21T16:00:56Z</time>
      </trkpt>
      <trkpt lat="42.51668" lon="2.22375">
        <ele>938.86</ele>
        <time>2017-05-21T16:01:14Z</time>
      </trkpt>
      <trkpt lat="42.51672" lon="2.22375">
        <ele>938.86</ele>
        <time>2017-05-21T16:01:25Z</time>
      </trkpt>
      <trkpt lat="42.5167" lon="2.22369">
        <ele>938.38</ele>
        <time>2017-05-21T16:01:37Z</time>
      </trkpt>
      <trkpt lat="42.5167" lon="2.22367">
        <ele>932.62</ele>
        <time>2017-05-21T16:01:42Z</time>
      </trkpt>
      <trkpt lat="42.5167" lon="2.22366">
        <ele>942.23</ele>
        <time>2017-05-21T16:01:43Z</time>
      </trkpt>
      <trkpt lat="42.5167" lon="2.22366">
        <ele>937.42</ele>
        <time>2017-05-21T16:01:44Z</time>
      </trkpt>
      <trkpt lat="42.51673" lon="2.22367">
        <ele>936.46</ele>
        <time>2017-05-21T16:01:56Z</time>
      </trkpt>
      <trkpt lat="42.51673" lon="2.22358">
        <ele>935.02</ele>
        <time>2017-05-21T16:02:07Z</time>
      </trkpt>
      <trkpt lat="42.51675" lon="2.22356">
        <ele>934.54</ele>
        <time>2017-05-21T16:02:12Z</time>
      </trkpt>
      <trkpt lat="42.51677" lon="2.22347">
        <ele>933.1</ele>
        <time>2017-05-21T16:02:21Z</time>
      </trkpt>
      <trkpt lat="42.5168" lon="2.22339">
        <ele>932.62</ele>
        <time>2017-05-21T16:02:29Z</time>
      </trkpt>
      <trkpt lat="42.51682" lon="2.22338">
        <ele>932.14</ele>
        <time>2017-05-21T16:02:39Z</time>
      </trkpt>
      <trkpt lat="42.51683" lon="2.22337">
        <ele>932.14</ele>
        <time>2017-05-21T16:02:42Z</time>
      </trkpt>
      <trkpt lat="42.51684" lon="2.22332">
        <ele>932.14</ele>
        <time>2017-05-21T16:02:46Z</time>
      </trkpt>
      <trkpt lat="42.51684" lon="2.22328">
        <ele>932.62</ele>
        <time>2017-05-21T16:02:49Z</time>
      </trkpt>
      <trkpt lat="42.51688" lon="2.22316">
        <ele>931.65</ele>
        <time>2017-05-21T16:03:00Z</time>
      </trkpt>
      <trkpt lat="42.51691" lon="2.22309">
        <ele>931.65</ele>
        <time>2017-05-21T16:03:12Z</time>
      </trkpt>
      <trkpt lat="42.51692" lon="2.22307">
        <ele>931.17</ele>
        <time>2017-05-21T16:03:14Z</time>
      </trkpt>
      <trkpt lat="42.51696" lon="2.22308">
        <ele>931.17</ele>
        <time>2017-05-21T16:03:25Z</time>
      </trkpt>
      <trkpt lat="42.517" lon="2.22316">
        <ele>930.69</ele>
        <time>2017-05-21T16:03:40Z</time>
      </trkpt>
      <trkpt lat="42.517" lon="2.22315">
        <ele>930.69</ele>
        <time>2017-05-21T16:03:41Z</time>
      </trkpt>
      <trkpt lat="42.51702" lon="2.22314">
        <ele>930.69</ele>
        <time>2017-05-21T16:03:43Z</time>
      </trkpt>
      <trkpt lat="42.51704" lon="2.22304">
        <ele>930.21</ele>
        <time>2017-05-21T16:03:52Z</time>
      </trkpt>
      <trkpt lat="42.51704" lon="2.22297">
        <ele>928.77</ele>
        <time>2017-05-21T16:04:01Z</time>
      </trkpt>
      <trkpt lat="42.51703" lon="2.22292">
        <ele>927.81</ele>
        <time>2017-05-21T16:04:10Z</time>
      </trkpt>
      <trkpt lat="42.51705" lon="2.2229">
        <ele>927.33</ele>
        <time>2017-05-21T16:04:17Z</time>
      </trkpt>
      <trkpt lat="42.51706" lon="2.22287">
        <ele>925.89</ele>
        <time>2017-05-21T16:04:24Z</time>
      </trkpt>
      <trkpt lat="42.51707" lon="2.22282">
        <ele>923.48</ele>
        <time>2017-05-21T16:04:33Z</time>
      </trkpt>
      <trkpt lat="42.51711" lon="2.22282">
        <ele>921.56</ele>
        <time>2017-05-21T16:04:42Z</time>
      </trkpt>
      <trkpt lat="42.51714" lon="2.2228">
        <ele>920.12</ele>
        <time>2017-05-21T16:04:52Z</time>
      </trkpt>
      <trkpt lat="42.51721" lon="2.22283">
        <ele>918.68</ele>
        <time>2017-05-21T16:05:03Z</time>
      </trkpt>
      <trkpt lat="42.51726" lon="2.22291">
        <ele>917.72</ele>
        <time>2017-05-21T16:05:13Z</time>
      </trkpt>
      <trkpt lat="42.51728" lon="2.22292">
        <ele>917.24</ele>
        <time>2017-05-21T16:05:16Z</time>
      </trkpt>
      <trkpt lat="42.51732" lon="2.22293">
        <ele>915.31</ele>
        <time>2017-05-21T16:05:29Z</time>
      </trkpt>
      <trkpt lat="42.51732" lon="2.22293">
        <ele>915.31</ele>
        <time>2017-05-21T16:05:30Z</time>
      </trkpt>
      <trkpt lat="42.51734" lon="2.22289">
        <ele>913.87</ele>
        <time>2017-05-21T16:05:41Z</time>
      </trkpt>
      <trkpt lat="42.51732" lon="2.22285">
        <ele>912.43</ele>
        <time>2017-05-21T16:05:49Z</time>
      </trkpt>
      <trkpt lat="42.51734" lon="2.22281">
        <ele>911.95</ele>
        <time>2017-05-21T16:06:02Z</time>
      </trkpt>
      <trkpt lat="42.5174" lon="2.22288">
        <ele>910.03</ele>
        <time>2017-05-21T16:06:13Z</time>
      </trkpt>
      <trkpt lat="42.51742" lon="2.22293">
        <ele>908.58</ele>
        <time>2017-05-21T16:06:23Z</time>
      </trkpt>
      <trkpt lat="42.51746" lon="2.22295">
        <ele>907.14</ele>
        <time>2017-05-21T16:06:33Z</time>
      </trkpt>
      <trkpt lat="42.51755" lon="2.22297">
        <ele>906.18</ele>
        <time>2017-05-21T16:06:43Z</time>
      </trkpt>
      <trkpt lat="42.51756" lon="2.22297">
        <ele>904.26</ele>
        <time>2017-05-21T16:06:55Z</time>
      </trkpt>
      <trkpt lat="42.51756" lon="2.22297">
        <ele>903.3</ele>
        <time>2017-05-21T16:06:58Z</time>
      </trkpt>
      <trkpt lat="42.51752" lon="2.22286">
        <ele>901.37</ele>
        <time>2017-05-21T16:07:08Z</time>
      </trkpt>
      <trkpt lat="42.51753" lon="2.22283">
        <ele>900.41</ele>
        <time>2017-05-21T16:07:18Z</time>
      </trkpt>
      <trkpt lat="42.51758" lon="2.22285">
        <ele>898.49</ele>
        <time>2017-05-21T16:07:27Z</time>
      </trkpt>
      <trkpt lat="42.5176" lon="2.22289">
        <ele>896.57</ele>
        <time>2017-05-21T16:07:39Z</time>
      </trkpt>
      <trkpt lat="42.51763" lon="2.2229">
        <ele>894.64</ele>
        <time>2017-05-21T16:07:50Z</time>
      </trkpt>
      <trkpt lat="42.51763" lon="2.22292">
        <ele>893.2</ele>
        <time>2017-05-21T16:08:00Z</time>
      </trkpt>
      <trkpt lat="42.51765" lon="2.22295">
        <ele>891.28</ele>
        <time>2017-05-21T16:08:12Z</time>
      </trkpt>
      <trkpt lat="42.51768" lon="2.22299">
        <ele>890.8</ele>
        <time>2017-05-21T16:08:23Z</time>
      </trkpt>
      <trkpt lat="42.5178" lon="2.2231">
        <ele>889.84</ele>
        <time>2017-05-21T16:08:36Z</time>
      </trkpt>
      <trkpt lat="42.51812" lon="2.22342">
        <ele>889.84</ele>
        <time>2017-05-21T16:08:53Z</time>
      </trkpt>
      <trkpt lat="42.51814" lon="2.22346">
        <ele>889.84</ele>
        <time>2017-05-21T16:09:06Z</time>
      </trkpt>
      <trkpt lat="42.51825" lon="2.22357">
        <ele>889.84</ele>
        <time>2017-05-21T16:09:24Z</time>
      </trkpt>
      <trkpt lat="42.51831" lon="2.22358">
        <ele>890.32</ele>
        <time>2017-05-21T16:09:37Z</time>
      </trkpt>
      <trkpt lat="42.51839" lon="2.22363">
        <ele>890.8</ele>
        <time>2017-05-21T16:09:54Z</time>
      </trkpt>
      <trkpt lat="42.51848" lon="2.22367">
        <ele>890.8</ele>
        <time>2017-05-21T16:10:13Z</time>
      </trkpt>
      <trkpt lat="42.51843" lon="2.22372">
        <ele>891.28</ele>
        <time>2017-05-21T16:10:32Z</time>
      </trkpt>
      <trkpt lat="42.5184" lon="2.22368">
        <ele>890.8</ele>
        <time>2017-05-21T16:10:40Z</time>
      </trkpt>
      <trkpt lat="42.51847" lon="2.22382">
        <ele>891.28</ele>
        <time>2017-05-21T16:11:01Z</time>
      </trkpt>
      <trkpt lat="42.51838" lon="2.22379">
        <ele>891.76</ele>
        <time>2017-05-21T16:11:11Z</time>
      </trkpt>
      <trkpt lat="42.51833" lon="2.22376">
        <ele>892.24</ele>
        <time>2017-05-21T16:11:33Z</time>
      </trkpt>
      <trkpt lat="42.51823" lon="2.22377">
        <ele>892.72</ele>
        <time>2017-05-21T16:11:54Z</time>
      </trkpt>
      <trkpt lat="42.51821" lon="2.22355">
        <ele>893.68</ele>
        <time>2017-05-21T16:12:25Z</time>
      </trkpt>
      <trkpt lat="42.51821" lon="2.22355">
        <ele>894.64</ele>
        <time>2017-05-21T16:12:48Z</time>
      </trkpt>
      <trkpt lat="42.51844" lon="2.22377">
        <ele>895.61</ele>
        <time>2017-05-21T16:13:12Z</time>
      </trkpt>
      <trkpt lat="42.51837" lon="2.22371">
        <ele>896.09</ele>
        <time>2017-05-21T16:13:34Z</time>
      </trkpt>
      <trkpt lat="42.51812" lon="2.22341">
        <ele>897.05</ele>
        <time>2017-05-21T16:13:56Z</time>
      </trkpt>
      <trkpt lat="42.51824" lon="2.2236">
        <ele>897.53</ele>
        <time>2017-05-21T16:14:19Z</time>
      </trkpt>
      <trkpt lat="42.51818" lon="2.2235">
        <ele>897.53</ele>
        <time>2017-05-21T16:14:40Z</time>
      </trkpt>
      <trkpt lat="42.518" lon="2.22337">
        <ele>897.53</ele>
        <time>2017-05-21T16:15:06Z</time>
      </trkpt>
      <trkpt lat="42.51794" lon="2.2233">
        <ele>898.01</ele>
        <time>2017-05-21T16:15:32Z</time>
      </trkpt>
      <trkpt lat="42.51786" lon="2.22323">
        <ele>898.97</ele>
        <time>2017-05-21T16:15:52Z</time>
      </trkpt>
      <trkpt lat="42.51786" lon="2.22312">
        <ele>899.93</ele>
        <time>2017-05-21T16:16:16Z</time>
      </trkpt>
      <trkpt lat="42.51801" lon="2.22321">
        <ele>900.89</ele>
        <time>2017-05-21T16:16:35Z</time>
      </trkpt>
      <trkpt lat="42.518" lon="2.22325">
        <ele>901.37</ele>
        <time>2017-05-21T16:16:53Z</time>
      </trkpt>
      <trkpt lat="42.51798" lon="2.22312">
        <ele>902.33</ele>
        <time>2017-05-21T16:17:18Z</time>
      </trkpt>
      <trkpt lat="42.51789" lon="2.22325">
        <ele>903.3</ele>
        <time>2017-05-21T16:17:43Z</time>
      </trkpt>
      <trkpt lat="42.51792" lon="2.22316">
        <ele>904.26</ele>
        <time>2017-05-21T16:18:08Z</time>
      </trkpt>
      <trkpt lat="42.51796" lon="2.22327">
        <ele>904.74</ele>
        <time>2017-05-21T16:18:32Z</time>
      </trkpt>
      <trkpt lat="42.5181" lon="2.22336">
        <ele>905.22</ele>
        <time>2017-05-21T16:18:52Z</time>
      </trkpt>
      <trkpt lat="42.51811" lon="2.22337">
        <ele>905.22</ele>
        <time>2017-05-21T16:19:03Z</time>
      </trkpt>
      <trkpt lat="42.51802" lon="2.22333">
        <ele>905.22</ele>
        <time>2017-05-21T16:19:12Z</time>
      </trkpt>
      <trkpt lat="42.51802" lon="2.22334">
        <ele>906.66</ele>
        <time>2017-05-21T16:19:15Z</time>
      </trkpt>
      <trkpt lat="42.51799" lon="2.22335">
        <ele>906.66</ele>
        <time>2017-05-21T16:19:26Z</time>
      </trkpt>
      <trkpt lat="42.51798" lon="2.22338">
        <ele>907.14</ele>
        <time>2017-05-21T16:19:35Z</time>
      </trkpt>
      <trkpt lat="42.518" lon="2.22342">
        <ele>907.14</ele>
        <time>2017-05-21T16:19:44Z</time>
      </trkpt>
      <trkpt lat="42.51806" lon="2.22344">
        <ele>906.18</ele>
        <time>2017-05-21T16:19:53Z</time>
      </trkpt>
      <trkpt lat="42.51808" lon="2.22339">
        <ele>905.22</ele>
        <time>2017-05-21T16:20:04Z</time>
      </trkpt>
      <trkpt lat="42.51809" lon="2.22337">
        <ele>904.74</ele>
        <time>2017-05-21T16:20:06Z</time>
      </trkpt>
      <trkpt lat="42.51811" lon="2.22334">
        <ele>904.74</ele>
        <time>2017-05-21T16:20:09Z</time>
      </trkpt>
      <trkpt lat="42.51813" lon="2.22326">
        <ele>903.78</ele>
        <time>2017-05-21T16:20:17Z</time>
      </trkpt>
      <trkpt lat="42.51817" lon="2.22319">
        <ele>903.78</ele>
        <time>2017-05-21T16:20:26Z</time>
      </trkpt>
      <trkpt lat="42.51818" lon="2.22316">
        <ele>902.82</ele>
        <time>2017-05-21T16:20:30Z</time>
      </trkpt>
      <trkpt lat="42.51821" lon="2.22307">
        <ele>901.85</ele>
        <time>2017-05-21T16:20:41Z</time>
      </trkpt>
      <trkpt lat="42.51827" lon="2.22304">
        <ele>900.89</ele>
        <time>2017-05-21T16:20:51Z</time>
      </trkpt>
      <trkpt lat="42.5183" lon="2.223">
        <ele>900.41</ele>
        <time>2017-05-21T16:20:56Z</time>
      </trkpt>
      <trkpt lat="42.51831" lon="2.22298">
        <ele>900.41</ele>
        <time>2017-05-21T16:20:58Z</time>
      </trkpt>
      <trkpt lat="42.51833" lon="2.2229">
        <ele>900.41</ele>
        <time>2017-05-21T16:21:03Z</time>
      </trkpt>
      <trkpt lat="42.51836" lon="2.22286">
        <ele>900.41</ele>
        <time>2017-05-21T16:21:06Z</time>
      </trkpt>
      <trkpt lat="42.51838" lon="2.22285">
        <ele>899.93</ele>
        <time>2017-05-21T16:21:08Z</time>
      </trkpt>
      <trkpt lat="42.51839" lon="2.22265">
        <ele>899.45</ele>
        <time>2017-05-21T16:21:18Z</time>
      </trkpt>
      <trkpt lat="42.5184" lon="2.22261">
        <ele>898.97</ele>
        <time>2017-05-21T16:21:20Z</time>
      </trkpt>
      <trkpt lat="42.51846" lon="2.22253">
        <ele>898.01</ele>
        <time>2017-05-21T16:21:28Z</time>
      </trkpt>
      <trkpt lat="42.51863" lon="2.22234">
        <ele>897.05</ele>
        <time>2017-05-21T16:21:43Z</time>
      </trkpt>
      <trkpt lat="42.51871" lon="2.22223">
        <ele>896.09</ele>
        <time>2017-05-21T16:21:54Z</time>
      </trkpt>
      <trkpt lat="42.51874" lon="2.22217">
        <ele>896.09</ele>
        <time>2017-05-21T16:21:56Z</time>
      </trkpt>
      <trkpt lat="42.51877" lon="2.22204">
        <ele>895.61</ele>
        <time>2017-05-21T16:22:06Z</time>
      </trkpt>
      <trkpt lat="42.51882" lon="2.22203">
        <ele>894.64</ele>
        <time>2017-05-21T16:22:14Z</time>
      </trkpt>
      <trkpt lat="42.51888" lon="2.22193">
        <ele>893.68</ele>
        <time>2017-05-21T16:22:24Z</time>
      </trkpt>
      <trkpt lat="42.51888" lon="2.22194">
        <ele>893.2</ele>
        <time>2017-05-21T16:22:25Z</time>
      </trkpt>
      <trkpt lat="42.51891" lon="2.2219">
        <ele>892.72</ele>
        <time>2017-05-21T16:22:29Z</time>
      </trkpt>
      <trkpt lat="42.51893" lon="2.22189">
        <ele>892.72</ele>
        <time>2017-05-21T16:22:31Z</time>
      </trkpt>
      <trkpt lat="42.51896" lon="2.22181">
        <ele>891.28</ele>
        <time>2017-05-21T16:22:38Z</time>
      </trkpt>
      <trkpt lat="42.51899" lon="2.22178">
        <ele>890.8</ele>
        <time>2017-05-21T16:22:42Z</time>
      </trkpt>
      <trkpt lat="42.51902" lon="2.22167">
        <ele>890.8</ele>
        <time>2017-05-21T16:22:49Z</time>
      </trkpt>
      <trkpt lat="42.51911" lon="2.2216">
        <ele>890.32</ele>
        <time>2017-05-21T16:22:58Z</time>
      </trkpt>
      <trkpt lat="42.51917" lon="2.22154">
        <ele>888.4</ele>
        <time>2017-05-21T16:23:11Z</time>
      </trkpt>
      <trkpt lat="42.51919" lon="2.22151">
        <ele>887.43</ele>
        <time>2017-05-21T16:23:21Z</time>
      </trkpt>
      <trkpt lat="42.51924" lon="2.22148">
        <ele>887.43</ele>
        <time>2017-05-21T16:23:24Z</time>
      </trkpt>
      <trkpt lat="42.51939" lon="2.22143">
        <ele>885.03</ele>
        <time>2017-05-21T16:23:38Z</time>
      </trkpt>
      <trkpt lat="42.51944" lon="2.22129">
        <ele>884.55</ele>
        <time>2017-05-21T16:23:54Z</time>
      </trkpt>
      <trkpt lat="42.5196" lon="2.22128">
        <ele>884.07</ele>
        <time>2017-05-21T16:24:06Z</time>
      </trkpt>
      <trkpt lat="42.51975" lon="2.22122">
        <ele>883.11</ele>
        <time>2017-05-21T16:24:21Z</time>
      </trkpt>
      <trkpt lat="42.51989" lon="2.22126">
        <ele>882.15</ele>
        <time>2017-05-21T16:24:35Z</time>
      </trkpt>
      <trkpt lat="42.51997" lon="2.22126">
        <ele>881.67</ele>
        <time>2017-05-21T16:24:47Z</time>
      </trkpt>
      <trkpt lat="42.5201" lon="2.22134">
        <ele>881.19</ele>
        <time>2017-05-21T16:25:00Z</time>
      </trkpt>
      <trkpt lat="42.52027" lon="2.22135">
        <ele>880.22</ele>
        <time>2017-05-21T16:25:15Z</time>
      </trkpt>
      <trkpt lat="42.5205" lon="2.22146">
        <ele>879.26</ele>
        <time>2017-05-21T16:25:31Z</time>
      </trkpt>
      <trkpt lat="42.52066" lon="2.22151">
        <ele>878.3</ele>
        <time>2017-05-21T16:25:50Z</time>
      </trkpt>
      <trkpt lat="42.52087" lon="2.2216">
        <ele>877.34</ele>
        <time>2017-05-21T16:26:02Z</time>
      </trkpt>
      <trkpt lat="42.52092" lon="2.22161">
        <ele>876.86</ele>
        <time>2017-05-21T16:26:12Z</time>
      </trkpt>
      <trkpt lat="42.521" lon="2.22159">
        <ele>876.38</ele>
        <time>2017-05-21T16:26:21Z</time>
      </trkpt>
      <trkpt lat="42.52111" lon="2.22157">
        <ele>876.38</ele>
        <time>2017-05-21T16:26:36Z</time>
      </trkpt>
      <trkpt lat="42.52134" lon="2.2216">
        <ele>875.9</ele>
        <time>2017-05-21T16:26:51Z</time>
      </trkpt>
      <trkpt lat="42.52151" lon="2.22158">
        <ele>875.42</ele>
        <time>2017-05-21T16:27:04Z</time>
      </trkpt>
      <trkpt lat="42.52153" lon="2.22158">
        <ele>874.94</ele>
        <time>2017-05-21T16:27:09Z</time>
      </trkpt>
      <trkpt lat="42.52171" lon="2.2216">
        <ele>873.98</ele>
        <time>2017-05-21T16:27:23Z</time>
      </trkpt>
      <trkpt lat="42.52188" lon="2.22164">
        <ele>873.5</ele>
        <time>2017-05-21T16:27:38Z</time>
      </trkpt>
      <trkpt lat="42.52201" lon="2.22167">
        <ele>873.5</ele>
        <time>2017-05-21T16:27:45Z</time>
      </trkpt>
      <trkpt lat="42.52208" lon="2.22168">
        <ele>873.5</ele>
        <time>2017-05-21T16:27:53Z</time>
      </trkpt>
      <trkpt lat="42.52211" lon="2.22168">
        <ele>873.5</ele>
        <time>2017-05-21T16:27:55Z</time>
      </trkpt>
      <trkpt lat="42.52225" lon="2.2217">
        <ele>873.5</ele>
        <time>2017-05-21T16:28:07Z</time>
      </trkpt>
      <trkpt lat="42.52231" lon="2.22172">
        <ele>873.01</ele>
        <time>2017-05-21T16:28:15Z</time>
      </trkpt>
      <trkpt lat="42.52242" lon="2.2217">
        <ele>872.53</ele>
        <time>2017-05-21T16:28:27Z</time>
      </trkpt>
      <trkpt lat="42.52254" lon="2.22164">
        <ele>870.61</ele>
        <time>2017-05-21T16:28:39Z</time>
      </trkpt>
      <trkpt lat="42.52264" lon="2.22157">
        <ele>870.13</ele>
        <time>2017-05-21T16:28:50Z</time>
      </trkpt>
      <trkpt lat="42.52278" lon="2.22157">
        <ele>867.73</ele>
        <time>2017-05-21T16:29:02Z</time>
      </trkpt>
      <trkpt lat="42.52287" lon="2.22154">
        <ele>869.17</ele>
        <time>2017-05-21T16:29:11Z</time>
      </trkpt>
      <trkpt lat="42.52294" lon="2.2215">
        <ele>867.73</ele>
        <time>2017-05-21T16:29:25Z</time>
      </trkpt>
      <trkpt lat="42.52293" lon="2.22148">
        <ele>867.73</ele>
        <time>2017-05-21T16:29:39Z</time>
      </trkpt>
    </trkseg>
  </trk>
</gpx>